PWSweather.com
Personal Weather Stations
Station Observations
ALLANTONFL
Allanton, Panama City, FL 32404

AllantonPanama City, FL 32404

Lat: 30.036, Lon: -85.48284060000003

Elevation: 11

Station Type: Acurite 5in1

High Low Average
Temperature 79.2°F26.2°C 23.9°F-4.5°C 55.3°F12.9°C
Dew Point 61.0°F16.1°C 21.9°F-5.6°C 49.5°F9.7°C
Winds 7.3 mph 11.7 kmh Calm Calm 1.0 mph SE1.6 kmh SE
Wind Gusts 8.3 mph13.4 kmh -- 2.0 mph3.2 kmh
Humidity 99% 51% 83%
Pressure 30.27 in1025.1 mb 30.16 in1021.3 mb -
Precipitation 0.06 in1.5 mm - -
Hour Temp Dew Point Humidity Winds Wind Gusts Pressure Precip Precip Rate Daily Precip Total
12:00 AM 50.5°F10.3°C 48.0°F8.9°C 91% Calm Calm -- 30.20 in1022.7 mb 0.00 in0.0 mm 0.00 in0.0 mm 0.00 in0.0 mm
12:01 AM 50.5°F10.3°C 48.0°F8.9°C 91% Calm Calm -- 30.20 in1022.7 mb 0.00 in0.0 mm 0.00 in0.0 mm 0.00 in0.0 mm
12:02 AM 50.5°F10.3°C 48.0°F8.9°C 91% Calm Calm -- 30.20 in1022.7 mb 0.00 in0.0 mm 0.00 in0.0 mm 0.00 in0.0 mm
12:03 AM 50.5°F10.3°C 48.0°F8.9°C 91% Calm Calm -- 30.20 in1022.7 mb 0.00 in0.0 mm 0.00 in0.0 mm 0.00 in0.0 mm
12:04 AM 50.4°F10.2°C 47.8°F8.8°C 91% Calm Calm -- 30.20 in1022.7 mb 0.00 in0.0 mm 0.00 in0.0 mm 0.00 in0.0 mm
12:05 AM 50.4°F10.2°C 47.8°F8.8°C 91% Calm Calm -- 30.20 in1022.7 mb 0.00 in0.0 mm 0.00 in0.0 mm 0.00 in0.0 mm
12:06 AM 50.0°F10.0°C 47.5°F8.6°C 91% Calm Calm -- 30.20 in1022.7 mb 0.00 in0.0 mm 0.00 in0.0 mm 0.00 in0.0 mm
12:07 AM 50.0°F10.0°C 47.5°F8.6°C 91% Calm Calm -- 30.20 in1022.7 mb 0.00 in0.0 mm 0.00 in0.0 mm 0.00 in0.0 mm
12:08 AM 50.0°F10.0°C 47.5°F8.6°C 91% Calm Calm -- 30.20 in1022.7 mb 0.00 in0.0 mm 0.00 in0.0 mm 0.00 in0.0 mm
12:09 AM 50.0°F10.0°C 47.5°F8.6°C 91% Calm Calm -- 30.20 in1022.7 mb 0.00 in0.0 mm 0.00 in0.0 mm 0.00 in0.0 mm
12:10 AM 50.0°F10.0°C 47.5°F8.6°C 91% Calm Calm -- 30.20 in1022.7 mb 0.00 in0.0 mm 0.00 in0.0 mm 0.00 in0.0 mm
12:11 AM 50.2°F10.1°C 47.7°F8.7°C 91% Calm Calm -- 30.20 in1022.7 mb 0.00 in0.0 mm 0.00 in0.0 mm 0.00 in0.0 mm
12:12 AM 50.4°F10.2°C 47.8°F8.8°C 91% Calm Calm -- 30.20 in1022.7 mb 0.00 in0.0 mm 0.00 in0.0 mm 0.00 in0.0 mm
12:13 AM 50.4°F10.2°C 47.8°F8.8°C 91% Calm Calm -- 30.20 in1022.7 mb 0.00 in0.0 mm 0.00 in0.0 mm 0.00 in0.0 mm
12:14 AM 50.4°F10.2°C 47.8°F8.8°C 91% Calm Calm -- 30.20 in1022.7 mb 0.00 in0.0 mm 0.00 in0.0 mm 0.00 in0.0 mm
12:15 AM 50.4°F10.2°C 47.8°F8.8°C 91% Calm Calm -- 30.20 in1022.7 mb 0.00 in0.0 mm 0.00 in0.0 mm 0.00 in0.0 mm
12:16 AM 50.4°F10.2°C 47.8°F8.8°C 91% Calm Calm -- 30.20 in1022.7 mb 0.00 in0.0 mm 0.00 in0.0 mm 0.00 in0.0 mm
12:17 AM 50.4°F10.2°C 47.8°F8.8°C 91% Calm Calm -- 30.20 in1022.7 mb 0.00 in0.0 mm 0.00 in0.0 mm 0.00 in0.0 mm
12:18 AM 50.4°F10.2°C 47.8°F8.8°C 91% Calm Calm -- 30.20 in1022.7 mb 0.00 in0.0 mm 0.00 in0.0 mm 0.00 in0.0 mm
12:19 AM 50.4°F10.2°C 47.8°F8.8°C 91% Calm Calm -- 30.20 in1022.7 mb 0.00 in0.0 mm 0.00 in0.0 mm 0.00 in0.0 mm
12:20 AM 50.4°F10.2°C 47.8°F8.8°C 91% Calm Calm -- 30.20 in1022.7 mb 0.00 in0.0 mm 0.00 in0.0 mm 0.00 in0.0 mm
12:21 AM 50.4°F10.2°C 47.8°F8.8°C 91% Calm Calm -- 30.20 in1022.7 mb 0.00 in0.0 mm 0.00 in0.0 mm 0.00 in0.0 mm
12:22 AM 50.4°F10.2°C 47.8°F8.8°C 91% Calm Calm -- 30.20 in1022.7 mb 0.00 in0.0 mm 0.00 in0.0 mm 0.00 in0.0 mm
12:23 AM 50.4°F10.2°C 47.8°F8.8°C 91% Calm Calm -- 30.20 in1022.7 mb 0.00 in0.0 mm 0.00 in0.0 mm 0.00 in0.0 mm
12:24 AM 50.4°F10.2°C 47.8°F8.8°C 91% Calm Calm -- 30.20 in1022.7 mb 0.00 in0.0 mm 0.00 in0.0 mm 0.00 in0.0 mm
12:25 AM 50.4°F10.2°C 47.8°F8.8°C 91% Calm Calm -- 30.20 in1022.7 mb 0.00 in0.0 mm 0.00 in0.0 mm 0.00 in0.0 mm
12:26 AM 50.4°F10.2°C 47.8°F8.8°C 91% Calm Calm -- 30.20 in1022.7 mb 0.00 in0.0 mm 0.00 in0.0 mm 0.00 in0.0 mm
12:27 AM 50.4°F10.2°C 47.8°F8.8°C 91% Calm Calm -- 30.20 in1022.7 mb 0.00 in0.0 mm 0.00 in0.0 mm 0.00 in0.0 mm
12:28 AM 50.4°F10.2°C 47.8°F8.8°C 91% Calm Calm -- 30.20 in1022.7 mb 0.00 in0.0 mm 0.00 in0.0 mm 0.00 in0.0 mm
12:29 AM 50.4°F10.2°C 47.8°F8.8°C 91% Calm Calm -- 30.20 in1022.7 mb 0.00 in0.0 mm 0.00 in0.0 mm 0.00 in0.0 mm
12:30 AM 50.4°F10.2°C 47.8°F8.8°C 91% Calm Calm -- 30.20 in1022.7 mb 0.00 in0.0 mm 0.00 in0.0 mm 0.00 in0.0 mm
12:31 AM 50.4°F10.2°C 47.8°F8.8°C 91% Calm Calm -- 30.20 in1022.7 mb 0.00 in0.0 mm 0.00 in0.0 mm 0.00 in0.0 mm
12:32 AM 50.4°F10.2°C 47.8°F8.8°C 91% Calm Calm -- 30.20 in1022.7 mb 0.00 in0.0 mm 0.00 in0.0 mm 0.00 in0.0 mm
12:33 AM 50.4°F10.2°C 47.8°F8.8°C 91% Calm Calm -- 30.20 in1022.7 mb 0.00 in0.0 mm 0.00 in0.0 mm 0.00 in0.0 mm
12:34 AM 50.4°F10.2°C 47.8°F8.8°C 91% Calm Calm -- 30.20 in1022.7 mb 0.00 in0.0 mm 0.00 in0.0 mm 0.00 in0.0 mm
12:35 AM 50.4°F10.2°C 47.8°F8.8°C 91% Calm Calm -- 30.20 in1022.7 mb 0.00 in0.0 mm 0.00 in0.0 mm 0.00 in0.0 mm
12:36 AM 50.4°F10.2°C 47.8°F8.8°C 91% Calm Calm -- 30.20 in1022.7 mb 0.00 in0.0 mm 0.00 in0.0 mm 0.00 in0.0 mm
12:37 AM 50.4°F10.2°C 47.8°F8.8°C 91% Calm Calm -- 30.20 in1022.7 mb 0.00 in0.0 mm 0.00 in0.0 mm 0.00 in0.0 mm
12:38 AM 50.4°F10.2°C 47.8°F8.8°C 91% Calm Calm -- 30.20 in1022.7 mb 0.00 in0.0 mm 0.00 in0.0 mm 0.00 in0.0 mm
12:39 AM 50.4°F10.2°C 47.8°F8.8°C 91% Calm Calm -- 30.20 in1022.7 mb 0.00 in0.0 mm 0.00 in0.0 mm 0.00 in0.0 mm
12:40 AM 50.2°F10.1°C 47.7°F8.7°C 91% Calm Calm -- 30.20 in1022.7 mb 0.00 in0.0 mm 0.00 in0.0 mm 0.00 in0.0 mm
12:41 AM 50.2°F10.1°C 47.7°F8.7°C 91% Calm Calm -- 30.20 in1022.7 mb 0.00 in0.0 mm 0.00 in0.0 mm 0.00 in0.0 mm
12:42 AM 50.2°F10.1°C 47.7°F8.7°C 91% Calm Calm -- 30.20 in1022.7 mb 0.00 in0.0 mm 0.00 in0.0 mm 0.00 in0.0 mm
12:43 AM 50.2°F10.1°C 47.7°F8.7°C 91% Calm Calm -- 30.20 in1022.7 mb 0.00 in0.0 mm 0.00 in0.0 mm 0.00 in0.0 mm
12:44 AM 50.2°F10.1°C 47.7°F8.7°C 91% Calm Calm -- 30.20 in1022.7 mb 0.00 in0.0 mm 0.00 in0.0 mm 0.00 in0.0 mm
12:45 AM 50.2°F10.1°C 47.7°F8.7°C 91% Calm Calm -- 30.20 in1022.7 mb 0.00 in0.0 mm 0.00 in0.0 mm 0.00 in0.0 mm
12:46 AM 50.2°F10.1°C 47.7°F8.7°C 91% Calm Calm -- 30.20 in1022.7 mb 0.00 in0.0 mm 0.00 in0.0 mm 0.00 in0.0 mm
12:47 AM 50.2°F10.1°C 47.7°F8.7°C 91% Calm Calm -- 30.20 in1022.7 mb 0.00 in0.0 mm 0.00 in0.0 mm 0.00 in0.0 mm
12:48 AM 50.2°F10.1°C 47.7°F8.7°C 91% Calm Calm -- 30.20 in1022.7 mb 0.00 in0.0 mm 0.00 in0.0 mm 0.00 in0.0 mm
12:49 AM 50.2°F10.1°C 47.7°F8.7°C 91% Calm Calm -- 30.20 in1022.7 mb 0.00 in0.0 mm 0.00 in0.0 mm 0.00 in0.0 mm
12:50 AM 50.2°F10.1°C 47.7°F8.7°C 91% Calm Calm -- 30.20 in1022.7 mb 0.00 in0.0 mm 0.00 in0.0 mm 0.00 in0.0 mm
12:51 AM 50.2°F10.1°C 47.7°F8.7°C 91% Calm Calm -- 30.20 in1022.7 mb 0.00 in0.0 mm 0.00 in0.0 mm 0.00 in0.0 mm
12:52 AM 50.2°F10.1°C 47.7°F8.7°C 91% Calm Calm -- 30.20 in1022.7 mb 0.00 in0.0 mm 0.00 in0.0 mm 0.00 in0.0 mm
12:53 AM 50.2°F10.1°C 47.7°F8.7°C 91% Calm Calm -- 30.20 in1022.7 mb 0.00 in0.0 mm 0.00 in0.0 mm 0.00 in0.0 mm
12:54 AM 50.2°F10.1°C 47.7°F8.7°C 91% Calm Calm -- 30.20 in1022.7 mb 0.00 in0.0 mm 0.00 in0.0 mm 0.00 in0.0 mm
12:55 AM 50.2°F10.1°C 47.7°F8.7°C 91% Calm Calm -- 30.20 in1022.7 mb 0.00 in0.0 mm 0.00 in0.0 mm 0.00 in0.0 mm
12:56 AM 50.2°F10.1°C 47.7°F8.7°C 91% Calm Calm -- 30.20 in1022.7 mb 0.00 in0.0 mm 0.00 in0.0 mm 0.00 in0.0 mm
12:57 AM 50.2°F10.1°C 47.7°F8.7°C 91% Calm Calm -- 30.20 in1022.7 mb 0.00 in0.0 mm 0.00 in0.0 mm 0.00 in0.0 mm
12:58 AM 50.2°F10.1°C 47.7°F8.7°C 91% Calm Calm -- 30.20 in1022.7 mb 0.00 in0.0 mm 0.00 in0.0 mm 0.00 in0.0 mm
12:59 AM 50.2°F10.1°C 47.7°F8.7°C 91% Calm Calm -- 30.20 in1022.7 mb 0.00 in0.0 mm 0.00 in0.0 mm 0.00 in0.0 mm
01:00 AM 50.2°F10.1°C 47.7°F8.7°C 91% Calm Calm -- 30.20 in1022.7 mb 0.00 in0.0 mm 0.00 in0.0 mm 0.00 in0.0 mm
01:01 AM 50.2°F10.1°C 47.7°F8.7°C 91% Calm Calm -- 30.20 in1022.7 mb 0.00 in0.0 mm 0.00 in0.0 mm 0.00 in0.0 mm
01:02 AM 50.2°F10.1°C 47.7°F8.7°C 91% Calm Calm -- 30.20 in1022.7 mb 0.00 in0.0 mm 0.00 in0.0 mm 0.00 in0.0 mm
01:03 AM 50.2°F10.1°C 47.7°F8.7°C 91% Calm Calm -- 30.20 in1022.7 mb 0.00 in0.0 mm 0.00 in0.0 mm 0.00 in0.0 mm
01:04 AM 50.0°F10.0°C 47.5°F8.6°C 91% Calm Calm -- 30.20 in1022.7 mb 0.00 in0.0 mm 0.00 in0.0 mm 0.00 in0.0 mm
01:05 AM 50.0°F10.0°C 47.5°F8.6°C 91% Calm Calm -- 30.20 in1022.7 mb 0.00 in0.0 mm 0.00 in0.0 mm 0.00 in0.0 mm
01:06 AM 50.0°F10.0°C 47.5°F8.6°C 91% Calm Calm -- 30.20 in1022.7 mb 0.00 in0.0 mm 0.00 in0.0 mm 0.00 in0.0 mm
01:07 AM 50.0°F10.0°C 47.5°F8.6°C 91% Calm Calm -- 30.20 in1022.7 mb 0.00 in0.0 mm 0.00 in0.0 mm 0.00 in0.0 mm
01:08 AM 50.0°F10.0°C 47.5°F8.6°C 91% Calm Calm -- 30.20 in1022.7 mb 0.00 in0.0 mm 0.00 in0.0 mm 0.00 in0.0 mm
01:09 AM 50.0°F10.0°C 47.5°F8.6°C 91% Calm Calm -- 30.20 in1022.7 mb 0.00 in0.0 mm 0.00 in0.0 mm 0.00 in0.0 mm
01:10 AM 49.8°F9.9°C 47.3°F8.5°C 91% Calm Calm -- 30.20 in1022.7 mb 0.00 in0.0 mm 0.00 in0.0 mm 0.00 in0.0 mm
01:11 AM 49.8°F9.9°C 47.3°F8.5°C 91% Calm Calm -- 30.20 in1022.7 mb 0.00 in0.0 mm 0.00 in0.0 mm 0.00 in0.0 mm
01:12 AM 49.8°F9.9°C 47.3°F8.5°C 91% Calm Calm -- 30.20 in1022.7 mb 0.00 in0.0 mm 0.00 in0.0 mm 0.00 in0.0 mm
01:13 AM 49.8°F9.9°C 47.3°F8.5°C 91% Calm Calm -- 30.20 in1022.7 mb 0.00 in0.0 mm 0.00 in0.0 mm 0.00 in0.0 mm
01:14 AM 49.8°F9.9°C 47.3°F8.5°C 91% Calm Calm -- 30.20 in1022.7 mb 0.00 in0.0 mm 0.00 in0.0 mm 0.00 in0.0 mm
01:15 AM 49.8°F9.9°C 47.3°F8.5°C 91% Calm Calm -- 30.20 in1022.7 mb 0.00 in0.0 mm 0.00 in0.0 mm 0.00 in0.0 mm
01:16 AM 49.8°F9.9°C 47.3°F8.5°C 91% Calm Calm -- 30.20 in1022.7 mb 0.00 in0.0 mm 0.00 in0.0 mm 0.00 in0.0 mm
01:17 AM 49.8°F9.9°C 47.3°F8.5°C 91% Calm Calm -- 30.20 in1022.7 mb 0.00 in0.0 mm 0.00 in0.0 mm 0.00 in0.0 mm
01:18 AM 49.6°F9.8°C 47.1°F8.4°C 91% Calm Calm -- 30.20 in1022.7 mb 0.00 in0.0 mm 0.00 in0.0 mm 0.00 in0.0 mm
01:19 AM 49.6°F9.8°C 47.1°F8.4°C 91% Calm Calm -- 30.20 in1022.7 mb 0.00 in0.0 mm 0.00 in0.0 mm 0.00 in0.0 mm
01:20 AM 49.6°F9.8°C 47.1°F8.4°C 91% Calm Calm -- 30.20 in1022.7 mb 0.00 in0.0 mm 0.00 in0.0 mm 0.00 in0.0 mm
01:21 AM 49.6°F9.8°C 47.1°F8.4°C 91% Calm Calm -- 30.20 in1022.7 mb 0.00 in0.0 mm 0.00 in0.0 mm 0.00 in0.0 mm
01:22 AM 49.8°F9.9°C 47.3°F8.5°C 91% Calm Calm -- 30.20 in1022.7 mb 0.00 in0.0 mm 0.00 in0.0 mm 0.00 in0.0 mm
01:23 AM 49.8°F9.9°C 47.3°F8.5°C 91% Calm Calm -- 30.20 in1022.7 mb 0.00 in0.0 mm 0.00 in0.0 mm 0.00 in0.0 mm
01:24 AM 49.8°F9.9°C 47.3°F8.5°C 91% Calm Calm -- 30.20 in1022.7 mb 0.00 in0.0 mm 0.00 in0.0 mm 0.00 in0.0 mm
01:25 AM 49.8°F9.9°C 47.3°F8.5°C 91% Calm Calm -- 30.20 in1022.7 mb 0.00 in0.0 mm 0.00 in0.0 mm 0.00 in0.0 mm
01:26 AM 49.8°F9.9°C 47.3°F8.5°C 91% Calm Calm -- 30.20 in1022.7 mb 0.00 in0.0 mm 0.00 in0.0 mm 0.00 in0.0 mm
01:27 AM 49.8°F9.9°C 47.3°F8.5°C 91% Calm Calm -- 30.20 in1022.7 mb 0.00 in0.0 mm 0.00 in0.0 mm 0.00 in0.0 mm
01:28 AM 49.8°F9.9°C 47.3°F8.5°C 91% Calm Calm -- 30.20 in1022.7 mb 0.00 in0.0 mm 0.00 in0.0 mm 0.00 in0.0 mm
01:29 AM 49.8°F9.9°C 47.3°F8.5°C 91% Calm Calm -- 30.20 in1022.7 mb 0.00 in0.0 mm 0.00 in0.0 mm 0.00 in0.0 mm
01:30 AM 49.8°F9.9°C 47.3°F8.5°C 91% Calm Calm -- 30.20 in1022.7 mb 0.00 in0.0 mm 0.00 in0.0 mm 0.00 in0.0 mm
01:31 AM 49.8°F9.9°C 47.3°F8.5°C 91% Calm Calm -- 30.20 in1022.7 mb 0.00 in0.0 mm 0.00 in0.0 mm 0.00 in0.0 mm
01:32 AM 49.8°F9.9°C 47.3°F8.5°C 91% Calm Calm -- 30.20 in1022.7 mb 0.00 in0.0 mm 0.00 in0.0 mm 0.00 in0.0 mm
01:33 AM 49.6°F9.8°C 47.1°F8.4°C 91% Calm Calm -- 30.20 in1022.7 mb 0.00 in0.0 mm 0.00 in0.0 mm 0.00 in0.0 mm
01:34 AM 49.6°F9.8°C 47.1°F8.4°C 91% Calm Calm -- 30.20 in1022.7 mb 0.00 in0.0 mm 0.00 in0.0 mm 0.00 in0.0 mm
01:35 AM 49.6°F9.8°C 47.1°F8.4°C 91% Calm Calm -- 30.20 in1022.7 mb 0.00 in0.0 mm 0.00 in0.0 mm 0.00 in0.0 mm
01:36 AM 49.6°F9.8°C 47.1°F8.4°C 91% Calm Calm -- 30.20 in1022.7 mb 0.00 in0.0 mm 0.00 in0.0 mm 0.00 in0.0 mm
01:37 AM 49.6°F9.8°C 47.1°F8.4°C 91% Calm Calm -- 30.20 in1022.7 mb 0.00 in0.0 mm 0.00 in0.0 mm 0.00 in0.0 mm
01:38 AM 49.5°F9.7°C 46.9°F8.3°C 91% Calm Calm -- 30.20 in1022.7 mb 0.00 in0.0 mm 0.00 in0.0 mm 0.00 in0.0 mm
01:39 AM 49.5°F9.7°C 46.9°F8.3°C 91% Calm Calm -- 30.20 in1022.7 mb 0.00 in0.0 mm 0.00 in0.0 mm 0.00 in0.0 mm
01:40 AM 49.5°F9.7°C 46.9°F8.3°C 91% Calm Calm -- 30.20 in1022.7 mb 0.00 in0.0 mm 0.00 in0.0 mm 0.00 in0.0 mm
01:41 AM 49.5°F9.7°C 46.9°F8.3°C 91% Calm Calm -- 30.20 in1022.7 mb 0.00 in0.0 mm 0.00 in0.0 mm 0.00 in0.0 mm
01:42 AM 49.5°F9.7°C 46.9°F8.3°C 91% Calm Calm -- 30.20 in1022.7 mb 0.00 in0.0 mm 0.00 in0.0 mm 0.00 in0.0 mm
01:43 AM 49.5°F9.7°C 46.9°F8.3°C 91% Calm Calm -- 30.20 in1022.7 mb 0.00 in0.0 mm 0.00 in0.0 mm 0.00 in0.0 mm
01:44 AM 49.5°F9.7°C 46.9°F8.3°C 91% Calm Calm -- 30.20 in1022.7 mb 0.00 in0.0 mm 0.00 in0.0 mm 0.00 in0.0 mm
01:45 AM 49.5°F9.7°C 46.9°F8.3°C 91% Calm Calm -- 30.20 in1022.7 mb 0.00 in0.0 mm 0.00 in0.0 mm 0.00 in0.0 mm
01:46 AM 49.5°F9.7°C 46.9°F8.3°C 91% Calm Calm -- 30.20 in1022.7 mb 0.00 in0.0 mm 0.00 in0.0 mm 0.00 in0.0 mm
01:47 AM 49.5°F9.7°C 46.9°F8.3°C 91% Calm Calm -- 30.20 in1022.7 mb 0.00 in0.0 mm 0.00 in0.0 mm 0.00 in0.0 mm
01:48 AM 49.5°F9.7°C 46.9°F8.3°C 91% Calm Calm -- 30.20 in1022.7 mb 0.00 in0.0 mm 0.00 in0.0 mm 0.00 in0.0 mm
01:49 AM 49.5°F9.7°C 46.9°F8.3°C 91% Calm Calm -- 30.21 in1023.0 mb 0.00 in0.0 mm 0.00 in0.0 mm 0.00 in0.0 mm
01:50 AM 49.5°F9.7°C 46.9°F8.3°C 91% Calm Calm -- 30.21 in1023.0 mb 0.00 in0.0 mm 0.00 in0.0 mm 0.00 in0.0 mm
01:51 AM 49.5°F9.7°C 46.9°F8.3°C 91% Calm Calm -- 30.21 in1023.0 mb 0.00 in0.0 mm 0.00 in0.0 mm 0.00 in0.0 mm
01:52 AM 49.5°F9.7°C 46.9°F8.3°C 91% Calm Calm -- 30.21 in1023.0 mb 0.00 in0.0 mm 0.00 in0.0 mm 0.00 in0.0 mm
01:53 AM 49.5°F9.7°C 46.9°F8.3°C 91% Calm Calm -- 30.21 in1023.0 mb 0.00 in0.0 mm 0.00 in0.0 mm 0.00 in0.0 mm
01:54 AM 49.5°F9.7°C 46.9°F8.3°C 91% Calm Calm -- 30.21 in1023.0 mb 0.00 in0.0 mm 0.00 in0.0 mm 0.00 in0.0 mm
01:55 AM 49.5°F9.7°C 46.9°F8.3°C 91% Calm Calm -- 30.21 in1023.0 mb 0.00 in0.0 mm 0.00 in0.0 mm 0.00 in0.0 mm
01:56 AM 49.5°F9.7°C 46.9°F8.3°C 91% Calm Calm -- 30.21 in1023.0 mb 0.00 in0.0 mm 0.00 in0.0 mm 0.00 in0.0 mm
01:57 AM 49.5°F9.7°C 46.9°F8.3°C 91% Calm Calm -- 30.21 in1023.0 mb 0.00 in0.0 mm 0.00 in0.0 mm 0.00 in0.0 mm
01:58 AM 49.3°F9.6°C 46.8°F8.2°C 91% Calm Calm -- 30.21 in1023.0 mb 0.00 in0.0 mm 0.00 in0.0 mm 0.00 in0.0 mm
01:59 AM 49.3°F9.6°C 46.8°F8.2°C 91% Calm Calm -- 30.21 in1023.0 mb 0.00 in0.0 mm 0.00 in0.0 mm 0.00 in0.0 mm
02:00 AM 49.3°F9.6°C 46.8°F8.2°C 91% Calm Calm -- 30.21 in1023.0 mb 0.00 in0.0 mm 0.00 in0.0 mm 0.00 in0.0 mm
02:01 AM 49.3°F9.6°C 46.8°F8.2°C 91% Calm Calm -- 30.21 in1023.0 mb 0.00 in0.0 mm 0.00 in0.0 mm 0.00 in0.0 mm
02:02 AM 49.3°F9.6°C 46.8°F8.2°C 91% Calm Calm -- 30.21 in1023.0 mb 0.00 in0.0 mm 0.00 in0.0 mm 0.00 in0.0 mm
02:03 AM 49.3°F9.6°C 46.8°F8.2°C 91% Calm Calm -- 30.21 in1023.0 mb 0.00 in0.0 mm 0.00 in0.0 mm 0.00 in0.0 mm
02:04 AM 49.3°F9.6°C 46.8°F8.2°C 91% Calm Calm -- 30.21 in1023.0 mb 0.00 in0.0 mm 0.00 in0.0 mm 0.00 in0.0 mm
02:05 AM 49.3°F9.6°C 46.8°F8.2°C 91% Calm Calm -- 30.21 in1023.0 mb 0.00 in0.0 mm 0.00 in0.0 mm 0.00 in0.0 mm
02:06 AM 49.3°F9.6°C 47.1°F8.4°C 92% Calm Calm -- 30.21 in1023.0 mb 0.00 in0.0 mm 0.00 in0.0 mm 0.00 in0.0 mm
02:07 AM 49.3°F9.6°C 47.1°F8.4°C 92% Calm Calm -- 30.21 in1023.0 mb 0.00 in0.0 mm 0.00 in0.0 mm 0.00 in0.0 mm
02:08 AM 49.3°F9.6°C 47.1°F8.4°C 92% Calm Calm -- 30.21 in1023.0 mb 0.00 in0.0 mm 0.00 in0.0 mm 0.00 in0.0 mm
02:09 AM 49.1°F9.5°C 46.9°F8.3°C 92% Calm Calm -- 30.21 in1023.0 mb 0.00 in0.0 mm 0.00 in0.0 mm 0.00 in0.0 mm
02:10 AM 49.1°F9.5°C 46.9°F8.3°C 92% Calm Calm -- 30.21 in1023.0 mb 0.00 in0.0 mm 0.00 in0.0 mm 0.00 in0.0 mm
02:11 AM 49.1°F9.5°C 46.9°F8.3°C 92% Calm Calm -- 30.21 in1023.0 mb 0.00 in0.0 mm 0.00 in0.0 mm 0.00 in0.0 mm
02:12 AM 48.9°F9.4°C 46.7°F8.2°C 92% Calm Calm -- 30.21 in1023.0 mb 0.00 in0.0 mm 0.00 in0.0 mm 0.00 in0.0 mm
02:13 AM 48.9°F9.4°C 46.7°F8.2°C 92% Calm Calm -- 30.21 in1023.0 mb 0.00 in0.0 mm 0.00 in0.0 mm 0.00 in0.0 mm
02:14 AM 48.7°F9.3°C 46.5°F8.1°C 92% Calm Calm -- 30.21 in1023.0 mb 0.00 in0.0 mm 0.00 in0.0 mm 0.00 in0.0 mm
02:15 AM 48.7°F9.3°C 46.5°F8.1°C 92% Calm Calm -- 30.21 in1023.0 mb 0.00 in0.0 mm 0.00 in0.0 mm 0.00 in0.0 mm
02:16 AM 48.7°F9.3°C 46.5°F8.1°C 92% Calm Calm -- 30.21 in1023.0 mb 0.00 in0.0 mm 0.00 in0.0 mm 0.00 in0.0 mm
02:17 AM 48.7°F9.3°C 46.5°F8.1°C 92% Calm Calm -- 30.21 in1023.0 mb 0.00 in0.0 mm 0.00 in0.0 mm 0.00 in0.0 mm
02:18 AM 48.7°F9.3°C 46.5°F8.1°C 92% Calm Calm -- 30.21 in1023.0 mb 0.00 in0.0 mm 0.00 in0.0 mm 0.00 in0.0 mm
02:19 AM 48.7°F9.3°C 46.5°F8.1°C 92% Calm Calm -- 30.21 in1023.0 mb 0.00 in0.0 mm 0.00 in0.0 mm 0.00 in0.0 mm
02:20 AM 48.7°F9.3°C 46.5°F8.1°C 92% Calm Calm -- 30.21 in1023.0 mb 0.00 in0.0 mm 0.00 in0.0 mm 0.00 in0.0 mm
02:21 AM 48.7°F9.3°C 46.5°F8.1°C 92% Calm Calm -- 30.21 in1023.0 mb 0.00 in0.0 mm 0.00 in0.0 mm 0.00 in0.0 mm
02:22 AM 48.7°F9.3°C 46.5°F8.1°C 92% Calm Calm -- 30.21 in1023.0 mb 0.00 in0.0 mm 0.00 in0.0 mm 0.00 in0.0 mm
02:23 AM 48.7°F9.3°C 46.5°F8.1°C 92% Calm Calm -- 30.21 in1023.0 mb 0.00 in0.0 mm 0.00 in0.0 mm 0.00 in0.0 mm
02:24 AM 48.9°F9.4°C 46.7°F8.2°C 92% Calm Calm -- 30.21 in1023.0 mb 0.00 in0.0 mm 0.00 in0.0 mm 0.00 in0.0 mm
02:25 AM 48.9°F9.4°C 46.7°F8.2°C 92% Calm Calm -- 30.21 in1023.0 mb 0.00 in0.0 mm 0.00 in0.0 mm 0.00 in0.0 mm
02:26 AM 48.9°F9.4°C 46.7°F8.2°C 92% Calm Calm -- 30.21 in1023.0 mb 0.00 in0.0 mm 0.00 in0.0 mm 0.00 in0.0 mm
02:27 AM 48.9°F9.4°C 46.7°F8.2°C 92% Calm Calm -- 30.21 in1023.0 mb 0.00 in0.0 mm 0.00 in0.0 mm 0.00 in0.0 mm
02:28 AM 49.1°F9.5°C 46.9°F8.3°C 92% Calm Calm -- 30.21 in1023.0 mb 0.00 in0.0 mm 0.00 in0.0 mm 0.00 in0.0 mm
02:29 AM 49.1°F9.5°C 46.9°F8.3°C 92% Calm Calm -- 30.21 in1023.0 mb 0.00 in0.0 mm 0.00 in0.0 mm 0.00 in0.0 mm
02:30 AM 49.1°F9.5°C 46.9°F8.3°C 92% Calm Calm -- 30.21 in1023.0 mb 0.00 in0.0 mm 0.00 in0.0 mm 0.00 in0.0 mm
02:31 AM 49.1°F9.5°C 46.9°F8.3°C 92% Calm Calm -- 30.21 in1023.0 mb 0.00 in0.0 mm 0.00 in0.0 mm 0.00 in0.0 mm
02:32 AM 49.1°F9.5°C 46.9°F8.3°C 92% Calm Calm -- 30.21 in1023.0 mb 0.00 in0.0 mm 0.00 in0.0 mm 0.00 in0.0 mm
02:33 AM 49.1°F9.5°C 46.9°F8.3°C 92% Calm Calm -- 30.21 in1023.0 mb 0.00 in0.0 mm 0.00 in0.0 mm 0.00 in0.0 mm
02:34 AM 49.1°F9.5°C 46.9°F8.3°C 92% Calm Calm -- 30.21 in1023.0 mb 0.00 in0.0 mm 0.00 in0.0 mm 0.00 in0.0 mm
02:35 AM 49.1°F9.5°C 46.9°F8.3°C 92% Calm Calm -- 30.21 in1023.0 mb 0.00 in0.0 mm 0.00 in0.0 mm 0.00 in0.0 mm
02:36 AM 48.9°F9.4°C 46.7°F8.2°C 92% Calm Calm -- 30.21 in1023.0 mb 0.00 in0.0 mm 0.00 in0.0 mm 0.00 in0.0 mm
02:37 AM 48.9°F9.4°C 46.7°F8.2°C 92% Calm Calm -- 30.21 in1023.0 mb 0.00 in0.0 mm 0.00 in0.0 mm 0.00 in0.0 mm
02:38 AM 48.9°F9.4°C 46.7°F8.2°C 92% Calm Calm -- 30.21 in1023.0 mb 0.00 in0.0 mm 0.00 in0.0 mm 0.00 in0.0 mm
02:39 AM 48.7°F9.3°C 46.5°F8.1°C 92% Calm Calm -- 30.21 in1023.0 mb 0.00 in0.0 mm 0.00 in0.0 mm 0.00 in0.0 mm
02:40 AM 48.7°F9.3°C 46.5°F8.1°C 92% Calm Calm -- 30.21 in1023.0 mb 0.00 in0.0 mm 0.00 in0.0 mm 0.00 in0.0 mm
02:41 AM 48.7°F9.3°C 46.5°F8.1°C 92% Calm Calm -- 30.21 in1023.0 mb 0.00 in0.0 mm 0.00 in0.0 mm 0.00 in0.0 mm
02:42 AM 48.6°F9.2°C 46.3°F7.9°C 92% Calm Calm -- 30.21 in1023.0 mb 0.00 in0.0 mm 0.00 in0.0 mm 0.00 in0.0 mm
02:43 AM 48.6°F9.2°C 46.3°F7.9°C 92% Calm Calm -- 30.21 in1023.0 mb 0.00 in0.0 mm 0.00 in0.0 mm 0.00 in0.0 mm
02:44 AM 48.6°F9.2°C 46.3°F7.9°C 92% Calm Calm -- 30.21 in1023.0 mb 0.00 in0.0 mm 0.00 in0.0 mm 0.00 in0.0 mm
02:45 AM 48.6°F9.2°C 46.3°F7.9°C 92% Calm Calm -- 30.21 in1023.0 mb 0.00 in0.0 mm 0.00 in0.0 mm 0.00 in0.0 mm
02:46 AM 48.2°F9.0°C 46.0°F7.8°C 92% Calm Calm -- 30.21 in1023.0 mb 0.00 in0.0 mm 0.00 in0.0 mm 0.00 in0.0 mm
02:47 AM 48.0°F8.9°C 45.8°F7.7°C 92% Calm Calm -- 30.21 in1023.0 mb 0.00 in0.0 mm 0.00 in0.0 mm 0.00 in0.0 mm
02:48 AM 47.8°F8.8°C 45.6°F7.6°C 92% Calm Calm -- 30.20 in1022.7 mb 0.00 in0.0 mm 0.00 in0.0 mm 0.00 in0.0 mm
02:49 AM 47.7°F8.7°C 45.5°F7.5°C 92% Calm Calm -- 30.20 in1022.7 mb 0.00 in0.0 mm 0.00 in0.0 mm 0.00 in0.0 mm
02:50 AM 47.7°F8.7°C 45.5°F7.5°C 92% Calm Calm -- 30.20 in1022.7 mb 0.00 in0.0 mm 0.00 in0.0 mm 0.00 in0.0 mm
02:51 AM 47.7°F8.7°C 45.5°F7.5°C 92% Calm Calm -- 30.20 in1022.7 mb 0.00 in0.0 mm 0.00 in0.0 mm 0.00 in0.0 mm
02:52 AM 47.7°F8.7°C 45.5°F7.5°C 92% Calm Calm -- 30.20 in1022.7 mb 0.00 in0.0 mm 0.00 in0.0 mm 0.00 in0.0 mm
02:53 AM 47.8°F8.8°C 45.6°F7.6°C 92% Calm Calm -- 30.20 in1022.7 mb 0.00 in0.0 mm 0.00 in0.0 mm 0.00 in0.0 mm
02:54 AM 47.8°F8.8°C 45.6°F7.6°C 92% Calm Calm -- 30.20 in1022.7 mb 0.00 in0.0 mm 0.00 in0.0 mm 0.00 in0.0 mm
02:55 AM 47.8°F8.8°C 45.6°F7.6°C 92% Calm Calm -- 30.20 in1022.7 mb 0.00 in0.0 mm 0.00 in0.0 mm 0.00 in0.0 mm
02:56 AM 47.8°F8.8°C 45.6°F7.6°C 92% Calm Calm -- 30.20 in1022.7 mb 0.00 in0.0 mm 0.00 in0.0 mm 0.00 in0.0 mm
02:57 AM 47.8°F8.8°C 45.6°F7.6°C 92% Calm Calm -- 30.20 in1022.7 mb 0.00 in0.0 mm 0.00 in0.0 mm 0.00 in0.0 mm
02:58 AM 47.7°F8.7°C 45.5°F7.5°C 92% Calm Calm -- 30.20 in1022.7 mb 0.00 in0.0 mm 0.00 in0.0 mm 0.00 in0.0 mm
02:59 AM 47.7°F8.7°C 45.5°F7.5°C 92% Calm Calm -- 30.20 in1022.7 mb 0.00 in0.0 mm 0.00 in0.0 mm 0.00 in0.0 mm
03:00 AM 47.7°F8.7°C 45.5°F7.5°C 92% Calm Calm -- 30.20 in1022.7 mb 0.00 in0.0 mm 0.00 in0.0 mm 0.00 in0.0 mm
03:01 AM 47.8°F8.8°C 45.6°F7.6°C 92% Calm Calm -- 30.20 in1022.7 mb 0.00 in0.0 mm 0.00 in0.0 mm 0.00 in0.0 mm
03:02 AM 47.8°F8.8°C 45.6°F7.6°C 92% Calm Calm -- 30.20 in1022.7 mb 0.00 in0.0 mm 0.00 in0.0 mm 0.00 in0.0 mm
03:03 AM 47.8°F8.8°C 45.6°F7.6°C 92% Calm Calm -- 30.20 in1022.7 mb 0.00 in0.0 mm 0.00 in0.0 mm 0.00 in0.0 mm
03:04 AM 47.8°F8.8°C 45.6°F7.6°C 92% Calm Calm -- 30.20 in1022.7 mb 0.00 in0.0 mm 0.00 in0.0 mm 0.00 in0.0 mm
03:05 AM 47.8°F8.8°C 45.6°F7.6°C 92% Calm Calm -- 30.20 in1022.7 mb 0.00 in0.0 mm 0.00 in0.0 mm 0.00 in0.0 mm
03:06 AM 47.8°F8.8°C 45.6°F7.6°C 92% Calm Calm -- 30.20 in1022.7 mb 0.00 in0.0 mm 0.00 in0.0 mm 0.00 in0.0 mm
03:07 AM 47.8°F8.8°C 45.6°F7.6°C 92% Calm Calm -- 30.20 in1022.7 mb 0.00 in0.0 mm 0.00 in0.0 mm 0.00 in0.0 mm
03:08 AM 47.8°F8.8°C 45.6°F7.6°C 92% Calm Calm -- 30.20 in1022.7 mb 0.00 in0.0 mm 0.00 in0.0 mm 0.00 in0.0 mm
03:09 AM 47.8°F8.8°C 45.6°F7.6°C 92% Calm Calm -- 30.20 in1022.7 mb 0.00 in0.0 mm 0.00 in0.0 mm 0.00 in0.0 mm
03:10 AM 47.8°F8.8°C 45.6°F7.6°C 92% Calm Calm -- 30.20 in1022.7 mb 0.00 in0.0 mm 0.00 in0.0 mm 0.00 in0.0 mm
03:11 AM 47.8°F8.8°C 45.6°F7.6°C 92% Calm Calm -- 30.20 in1022.7 mb 0.00 in0.0 mm 0.00 in0.0 mm 0.00 in0.0 mm
03:12 AM 47.8°F8.8°C 45.6°F7.6°C 92% Calm Calm -- 30.20 in1022.7 mb 0.00 in0.0 mm 0.00 in0.0 mm 0.00 in0.0 mm
03:13 AM 47.8°F8.8°C 45.6°F7.6°C 92% Calm Calm -- 30.20 in1022.7 mb 0.00 in0.0 mm 0.00 in0.0 mm 0.00 in0.0 mm
03:14 AM 47.8°F8.8°C 45.6°F7.6°C 92% Calm Calm -- 30.20 in1022.7 mb 0.00 in0.0 mm 0.00 in0.0 mm 0.00 in0.0 mm
03:15 AM 47.8°F8.8°C 45.6°F7.6°C 92% Calm Calm -- 30.20 in1022.7 mb 0.00 in0.0 mm 0.00 in0.0 mm 0.00 in0.0 mm
03:16 AM 47.7°F8.7°C 45.5°F7.5°C 92% Calm Calm -- 30.20 in1022.7 mb 0.00 in0.0 mm 0.00 in0.0 mm 0.00 in0.0 mm
03:17 AM 47.7°F8.7°C 45.5°F7.5°C 92% Calm Calm -- 30.20 in1022.7 mb 0.00 in0.0 mm 0.00 in0.0 mm 0.00 in0.0 mm
03:18 AM 47.7°F8.7°C 45.5°F7.5°C 92% Calm Calm -- 30.20 in1022.7 mb 0.00 in0.0 mm 0.00 in0.0 mm 0.00 in0.0 mm
03:19 AM 47.7°F8.7°C 45.5°F7.5°C 92% Calm Calm -- 30.20 in1022.7 mb 0.00 in0.0 mm 0.00 in0.0 mm 0.00 in0.0 mm
03:20 AM 47.7°F8.7°C 45.5°F7.5°C 92% Calm Calm -- 30.20 in1022.7 mb 0.00 in0.0 mm 0.00 in0.0 mm 0.00 in0.0 mm
03:21 AM 47.7°F8.7°C 45.5°F7.5°C 92% Calm Calm -- 30.20 in1022.7 mb 0.00 in0.0 mm 0.00 in0.0 mm 0.00 in0.0 mm
03:22 AM 47.7°F8.7°C 45.5°F7.5°C 92% Calm Calm -- 30.20 in1022.7 mb 0.00 in0.0 mm 0.00 in0.0 mm 0.00 in0.0 mm
03:23 AM 47.8°F8.8°C 45.6°F7.6°C 92% Calm Calm -- 30.20 in1022.7 mb 0.00 in0.0 mm 0.00 in0.0 mm 0.00 in0.0 mm
03:24 AM 47.8°F8.8°C 45.6°F7.6°C 92% Calm Calm -- 30.20 in1022.7 mb 0.00 in0.0 mm 0.00 in0.0 mm 0.00 in0.0 mm
03:25 AM 47.8°F8.8°C 45.6°F7.6°C 92% Calm Calm -- 30.20 in1022.7 mb 0.00 in0.0 mm 0.00 in0.0 mm 0.00 in0.0 mm
03:26 AM 47.8°F8.8°C 45.6°F7.6°C 92% Calm Calm -- 30.20 in1022.7 mb 0.00 in0.0 mm 0.00 in0.0 mm 0.00 in0.0 mm
03:27 AM 47.8°F8.8°C 45.6°F7.6°C 92% Calm Calm -- 30.20 in1022.7 mb 0.00 in0.0 mm 0.00 in0.0 mm 0.00 in0.0 mm
03:28 AM 47.8°F8.8°C 45.6°F7.6°C 92% Calm Calm -- 30.20 in1022.7 mb 0.00 in0.0 mm 0.00 in0.0 mm 0.00 in0.0 mm
03:29 AM 48.0°F8.9°C 45.8°F7.7°C 92% Calm Calm -- 30.20 in1022.7 mb 0.00 in0.0 mm 0.00 in0.0 mm 0.00 in0.0 mm
03:30 AM 48.0°F8.9°C 45.8°F7.7°C 92% Calm Calm -- 30.20 in1022.7 mb 0.00 in0.0 mm 0.00 in0.0 mm 0.00 in0.0 mm
03:31 AM 48.2°F9.0°C 46.0°F7.8°C 92% Calm Calm -- 30.20 in1022.7 mb 0.00 in0.0 mm 0.00 in0.0 mm 0.00 in0.0 mm
03:32 AM 48.2°F9.0°C 46.0°F7.8°C 92% Calm Calm -- 30.20 in1022.7 mb 0.00 in0.0 mm 0.00 in0.0 mm 0.00 in0.0 mm
03:33 AM 48.4°F9.1°C 46.2°F7.9°C 92% Calm Calm -- 30.20 in1022.7 mb 0.00 in0.0 mm 0.00 in0.0 mm 0.00 in0.0 mm
03:34 AM 48.4°F9.1°C 46.2°F7.9°C 92% Calm Calm -- 30.20 in1022.7 mb 0.00 in0.0 mm 0.00 in0.0 mm 0.00 in0.0 mm
03:35 AM 48.6°F9.2°C 46.3°F7.9°C 92% Calm Calm -- 30.20 in1022.7 mb 0.00 in0.0 mm 0.00 in0.0 mm 0.00 in0.0 mm
03:36 AM 48.6°F9.2°C 46.3°F7.9°C 92% Calm Calm -- 30.20 in1022.7 mb 0.00 in0.0 mm 0.00 in0.0 mm 0.00 in0.0 mm
03:37 AM 48.6°F9.2°C 46.3°F7.9°C 92% Calm Calm -- 30.20 in1022.7 mb 0.00 in0.0 mm 0.00 in0.0 mm 0.00 in0.0 mm
03:38 AM 48.6°F9.2°C 46.3°F7.9°C 92% Calm Calm -- 30.20 in1022.7 mb 0.00 in0.0 mm 0.00 in0.0 mm 0.00 in0.0 mm
03:39 AM 48.6°F9.2°C 46.3°F7.9°C 92% Calm Calm -- 30.20 in1022.7 mb 0.00 in0.0 mm 0.00 in0.0 mm 0.00 in0.0 mm
03:40 AM 48.6°F9.2°C 46.3°F7.9°C 92% Calm Calm -- 30.20 in1022.7 mb 0.00 in0.0 mm 0.00 in0.0 mm 0.00 in0.0 mm
03:41 AM 48.6°F9.2°C 46.3°F7.9°C 92% Calm Calm -- 30.20 in1022.7 mb 0.00 in0.0 mm 0.00 in0.0 mm 0.00 in0.0 mm
03:42 AM 48.7°F9.3°C 46.5°F8.1°C 92% Calm Calm -- 30.20 in1022.7 mb 0.00 in0.0 mm 0.00 in0.0 mm 0.00 in0.0 mm
03:43 AM 48.7°F9.3°C 46.5°F8.1°C 92% Calm Calm -- 30.20 in1022.7 mb 0.00 in0.0 mm 0.00 in0.0 mm 0.00 in0.0 mm
03:44 AM 48.7°F9.3°C 46.5°F8.1°C 92% Calm Calm -- 30.20 in1022.7 mb 0.00 in0.0 mm 0.00 in0.0 mm 0.00 in0.0 mm
03:45 AM 48.7°F9.3°C 46.5°F8.1°C 92% Calm Calm -- 30.20 in1022.7 mb 0.00 in0.0 mm 0.00 in0.0 mm 0.00 in0.0 mm
03:46 AM 48.7°F9.3°C 46.5°F8.1°C 92% Calm Calm -- 30.20 in1022.7 mb 0.00 in0.0 mm 0.00 in0.0 mm 0.00 in0.0 mm
03:47 AM 48.7°F9.3°C 46.5°F8.1°C 92% Calm Calm -- 30.20 in1022.7 mb 0.00 in0.0 mm 0.00 in0.0 mm 0.00 in0.0 mm
03:48 AM 48.7°F9.3°C 46.5°F8.1°C 92% Calm Calm -- 30.20 in1022.7 mb 0.00 in0.0 mm 0.00 in0.0 mm 0.00 in0.0 mm
03:49 AM 48.9°F9.4°C 46.7°F8.2°C 92% Calm Calm -- 30.20 in1022.7 mb 0.00 in0.0 mm 0.00 in0.0 mm 0.00 in0.0 mm
03:50 AM 48.9°F9.4°C 46.7°F8.2°C 92% Calm Calm -- 30.20 in1022.7 mb 0.00 in0.0 mm 0.00 in0.0 mm 0.00 in0.0 mm
03:51 AM 48.9°F9.4°C 46.7°F8.2°C 92% Calm Calm -- 30.20 in1022.7 mb 0.00 in0.0 mm 0.00 in0.0 mm 0.00 in0.0 mm
03:52 AM 48.9°F9.4°C 46.7°F8.2°C 92% Calm Calm -- 30.20 in1022.7 mb 0.00 in0.0 mm 0.00 in0.0 mm 0.00 in0.0 mm
03:53 AM 48.9°F9.4°C 46.7°F8.2°C 92% Calm Calm -- 30.20 in1022.7 mb 0.00 in0.0 mm 0.00 in0.0 mm 0.00 in0.0 mm
03:54 AM 48.7°F9.3°C 46.5°F8.1°C 92% Calm Calm -- 30.20 in1022.7 mb 0.00 in0.0 mm 0.00 in0.0 mm 0.00 in0.0 mm
03:55 AM 48.7°F9.3°C 46.5°F8.1°C 92% Calm Calm -- 30.20 in1022.7 mb 0.00 in0.0 mm 0.00 in0.0 mm 0.00 in0.0 mm
03:56 AM 48.7°F9.3°C 46.5°F8.1°C 92% Calm Calm -- 30.20 in1022.7 mb 0.00 in0.0 mm 0.00 in0.0 mm 0.00 in0.0 mm
03:57 AM 48.7°F9.3°C 46.5°F8.1°C 92% Calm Calm -- 30.20 in1022.7 mb 0.00 in0.0 mm 0.00 in0.0 mm 0.00 in0.0 mm
03:58 AM 48.7°F9.3°C 46.5°F8.1°C 92% Calm Calm -- 30.20 in1022.7 mb 0.00 in0.0 mm 0.00 in0.0 mm 0.00 in0.0 mm
03:59 AM 48.7°F9.3°C 46.5°F8.1°C 92% Calm Calm -- 30.20 in1022.7 mb 0.00 in0.0 mm 0.00 in0.0 mm 0.00 in0.0 mm
04:00 AM 48.7°F9.3°C 46.5°F8.1°C 92% Calm Calm -- 30.20 in1022.7 mb 0.00 in0.0 mm 0.00 in0.0 mm 0.00 in0.0 mm
04:01 AM 48.6°F9.2°C 46.3°F7.9°C 92% Calm Calm -- 30.20 in1022.7 mb 0.00 in0.0 mm 0.00 in0.0 mm 0.00 in0.0 mm
04:02 AM 48.4°F9.1°C 46.2°F7.9°C 92% Calm Calm -- 30.20 in1022.7 mb 0.00 in0.0 mm 0.00 in0.0 mm 0.00 in0.0 mm
04:03 AM 48.2°F9.0°C 46.0°F7.8°C 92% Calm Calm -- 30.20 in1022.7 mb 0.00 in0.0 mm 0.00 in0.0 mm 0.00 in0.0 mm
04:04 AM 48.2°F9.0°C 46.0°F7.8°C 92% Calm Calm -- 30.20 in1022.7 mb 0.00 in0.0 mm 0.00 in0.0 mm 0.00 in0.0 mm
04:05 AM 48.0°F8.9°C 45.8°F7.7°C 92% Calm Calm -- 30.20 in1022.7 mb 0.00 in0.0 mm 0.00 in0.0 mm 0.00 in0.0 mm
04:06 AM 48.0°F8.9°C 45.8°F7.7°C 92% Calm Calm -- 30.20 in1022.7 mb 0.00 in0.0 mm 0.00 in0.0 mm 0.00 in0.0 mm
04:07 AM 48.0°F8.9°C 45.8°F7.7°C 92% Calm Calm -- 30.20 in1022.7 mb 0.00 in0.0 mm 0.00 in0.0 mm 0.00 in0.0 mm
04:08 AM 47.8°F8.8°C 45.6°F7.6°C 92% Calm Calm -- 30.20 in1022.7 mb 0.00 in0.0 mm 0.00 in0.0 mm 0.00 in0.0 mm
04:09 AM 47.8°F8.8°C 45.6°F7.6°C 92% Calm Calm -- 30.20 in1022.7 mb 0.00 in0.0 mm 0.00 in0.0 mm 0.00 in0.0 mm
04:10 AM 47.8°F8.8°C 45.6°F7.6°C 92% Calm Calm -- 30.20 in1022.7 mb 0.00 in0.0 mm 0.00 in0.0 mm 0.00 in0.0 mm
04:11 AM 47.8°F8.8°C 45.6°F7.6°C 92% Calm Calm -- 30.20 in1022.7 mb 0.00 in0.0 mm 0.00 in0.0 mm 0.00 in0.0 mm
04:12 AM 47.8°F8.8°C 45.6°F7.6°C 92% Calm Calm -- 30.20 in1022.7 mb 0.00 in0.0 mm 0.00 in0.0 mm 0.00 in0.0 mm
04:13 AM 47.7°F8.7°C 45.5°F7.5°C 92% Calm Calm -- 30.20 in1022.7 mb 0.00 in0.0 mm 0.00 in0.0 mm 0.00 in0.0 mm
04:14 AM 47.5°F8.6°C 45.3°F7.4°C 92% Calm Calm -- 30.20 in1022.7 mb 0.00 in0.0 mm 0.00 in0.0 mm 0.00 in0.0 mm
04:15 AM 47.3°F8.5°C 45.1°F7.3°C 92% Calm Calm -- 30.20 in1022.7 mb 0.00 in0.0 mm 0.00 in0.0 mm 0.00 in0.0 mm
04:16 AM 47.1°F8.4°C 44.9°F7.2°C 92% Calm Calm -- 30.20 in1022.7 mb 0.00 in0.0 mm 0.00 in0.0 mm 0.00 in0.0 mm
04:17 AM 47.1°F8.4°C 44.9°F7.2°C 92% Calm Calm -- 30.20 in1022.7 mb 0.00 in0.0 mm 0.00 in0.0 mm 0.00 in0.0 mm
04:18 AM 46.8°F8.2°C 44.6°F7.0°C 92% Calm Calm -- 30.20 in1022.7 mb 0.00 in0.0 mm 0.00 in0.0 mm 0.00 in0.0 mm
04:19 AM 46.6°F8.1°C 44.4°F6.9°C 92% Calm Calm -- 30.20 in1022.7 mb 0.00 in0.0 mm 0.00 in0.0 mm 0.00 in0.0 mm
04:20 AM 46.4°F8.0°C 44.2°F6.8°C 92% Calm Calm -- 30.20 in1022.7 mb 0.00 in0.0 mm 0.00 in0.0 mm 0.00 in0.0 mm
04:21 AM 46.4°F8.0°C 44.2°F6.8°C 92% Calm Calm -- 30.20 in1022.7 mb 0.00 in0.0 mm 0.00 in0.0 mm 0.00 in0.0 mm
04:22 AM 46.4°F8.0°C 44.2°F6.8°C 92% Calm Calm -- 30.20 in1022.7 mb 0.00 in0.0 mm 0.00 in0.0 mm 0.00 in0.0 mm
04:23 AM 46.4°F8.0°C 44.2°F6.8°C 92% Calm Calm -- 30.20 in1022.7 mb 0.00 in0.0 mm 0.00 in0.0 mm 0.00 in0.0 mm
04:24 AM 46.4°F8.0°C 44.2°F6.8°C 92% Calm Calm -- 30.20 in1022.7 mb 0.00 in0.0 mm 0.00 in0.0 mm 0.00 in0.0 mm
04:25 AM 46.4°F8.0°C 44.2°F6.8°C 92% Calm Calm -- 30.19 in1022.4 mb 0.00 in0.0 mm 0.00 in0.0 mm 0.00 in0.0 mm
04:26 AM 46.6°F8.1°C 44.4°F6.9°C 92% Calm Calm -- 30.19 in1022.4 mb 0.00 in0.0 mm 0.00 in0.0 mm 0.00 in0.0 mm
04:27 AM 46.8°F8.2°C 44.6°F7.0°C 92% Calm Calm -- 30.19 in1022.4 mb 0.00 in0.0 mm 0.00 in0.0 mm 0.00 in0.0 mm
04:28 AM 46.8°F8.2°C 44.6°F7.0°C 92% Calm Calm -- 30.19 in1022.4 mb 0.00 in0.0 mm 0.00 in0.0 mm 0.00 in0.0 mm
04:29 AM 46.9°F8.3°C 44.7°F7.1°C 92% Calm Calm -- 30.19 in1022.4 mb 0.00 in0.0 mm 0.00 in0.0 mm 0.00 in0.0 mm
04:30 AM 46.9°F8.3°C 44.7°F7.1°C 92% Calm Calm -- 30.19 in1022.4 mb 0.00 in0.0 mm 0.00 in0.0 mm 0.00 in0.0 mm
04:31 AM 46.9°F8.3°C 44.7°F7.1°C 92% Calm Calm -- 30.19 in1022.4 mb 0.00 in0.0 mm 0.00 in0.0 mm 0.00 in0.0 mm
04:32 AM 46.9°F8.3°C 44.7°F7.1°C 92% Calm Calm -- 30.19 in1022.4 mb 0.00 in0.0 mm 0.00 in0.0 mm 0.00 in0.0 mm
04:33 AM 46.9°F8.3°C 44.7°F7.1°C 92% Calm Calm -- 30.19 in1022.4 mb 0.00 in0.0 mm 0.00 in0.0 mm 0.00 in0.0 mm
04:34 AM 46.9°F8.3°C 44.7°F7.1°C 92% Calm Calm -- 30.19 in1022.4 mb 0.00 in0.0 mm 0.00 in0.0 mm 0.00 in0.0 mm
04:35 AM 46.9°F8.3°C 44.7°F7.1°C 92% Calm Calm -- 30.19 in1022.4 mb 0.00 in0.0 mm 0.00 in0.0 mm 0.00 in0.0 mm
04:36 AM 47.1°F8.4°C 44.9°F7.2°C 92% Calm Calm -- 30.19 in1022.4 mb 0.00 in0.0 mm 0.00 in0.0 mm 0.00 in0.0 mm
04:37 AM 47.1°F8.4°C 44.9°F7.2°C 92% Calm Calm -- 30.19 in1022.4 mb 0.00 in0.0 mm 0.00 in0.0 mm 0.00 in0.0 mm
04:38 AM 47.1°F8.4°C 44.9°F7.2°C 92% Calm Calm -- 30.19 in1022.4 mb 0.00 in0.0 mm 0.00 in0.0 mm 0.00 in0.0 mm
04:39 AM 47.1°F8.4°C 44.9°F7.2°C 92% Calm Calm -- 30.19 in1022.4 mb 0.00 in0.0 mm 0.00 in0.0 mm 0.00 in0.0 mm
04:40 AM 47.1°F8.4°C 44.9°F7.2°C 92% Calm Calm -- 30.19 in1022.4 mb 0.00 in0.0 mm 0.00 in0.0 mm 0.00 in0.0 mm
04:41 AM 47.3°F8.5°C 45.1°F7.3°C 92% Calm Calm -- 30.19 in1022.4 mb 0.00 in0.0 mm 0.00 in0.0 mm 0.00 in0.0 mm
04:42 AM 47.5°F8.6°C 45.3°F7.4°C 92% Calm Calm -- 30.19 in1022.4 mb 0.00 in0.0 mm 0.00 in0.0 mm 0.00 in0.0 mm
04:43 AM 47.3°F8.5°C 45.1°F7.3°C 92% Calm Calm -- 30.19 in1022.4 mb 0.00 in0.0 mm 0.00 in0.0 mm 0.00 in0.0 mm
04:44 AM 47.1°F8.4°C 44.9°F7.2°C 92% Calm Calm -- 30.19 in1022.4 mb 0.00 in0.0 mm 0.00 in0.0 mm 0.00 in0.0 mm
04:45 AM 47.1°F8.4°C 44.9°F7.2°C 92% Calm Calm -- 30.19 in1022.4 mb 0.00 in0.0 mm 0.00 in0.0 mm 0.00 in0.0 mm
04:46 AM 47.1°F8.4°C 44.9°F7.2°C 92% Calm Calm -- 30.19 in1022.4 mb 0.00 in0.0 mm 0.00 in0.0 mm 0.00 in0.0 mm
04:47 AM 47.1°F8.4°C 44.9°F7.2°C 92% Calm Calm -- 30.19 in1022.4 mb 0.00 in0.0 mm 0.00 in0.0 mm 0.00 in0.0 mm
04:48 AM 47.1°F8.4°C 44.9°F7.2°C 92% Calm Calm -- 30.19 in1022.4 mb 0.00 in0.0 mm 0.00 in0.0 mm 0.00 in0.0 mm
04:49 AM 47.1°F8.4°C 44.9°F7.2°C 92% Calm Calm -- 30.19 in1022.4 mb 0.00 in0.0 mm 0.00 in0.0 mm 0.00 in0.0 mm
04:50 AM 47.1°F8.4°C 44.9°F7.2°C 92% Calm Calm -- 30.19 in1022.4 mb 0.00 in0.0 mm 0.00 in0.0 mm 0.00 in0.0 mm
04:51 AM 47.1°F8.4°C 44.9°F7.2°C 92% Calm Calm -- 30.19 in1022.4 mb 0.00 in0.0 mm 0.00 in0.0 mm 0.00 in0.0 mm
04:52 AM 47.1°F8.4°C 44.9°F7.2°C 92% Calm Calm -- 30.19 in1022.4 mb 0.00 in0.0 mm 0.00 in0.0 mm 0.00 in0.0 mm
04:53 AM 47.1°F8.4°C 44.9°F7.2°C 92% Calm Calm -- 30.19 in1022.4 mb 0.00 in0.0 mm 0.00 in0.0 mm 0.00 in0.0 mm
04:54 AM 47.1°F8.4°C 44.9°F7.2°C 92% Calm Calm -- 30.19 in1022.4 mb 0.00 in0.0 mm 0.00 in0.0 mm 0.00 in0.0 mm
04:55 AM 47.1°F8.4°C 44.9°F7.2°C 92% Calm Calm -- 30.19 in1022.4 mb 0.00 in0.0 mm 0.00 in0.0 mm 0.00 in0.0 mm
04:56 AM 47.1°F8.4°C 44.9°F7.2°C 92% Calm Calm -- 30.19 in1022.4 mb 0.00 in0.0 mm 0.00 in0.0 mm 0.00 in0.0 mm
04:57 AM 47.1°F8.4°C 44.9°F7.2°C 92% Calm Calm -- 30.19 in1022.4 mb 0.00 in0.0 mm 0.00 in0.0 mm 0.00 in0.0 mm
04:58 AM 47.1°F8.4°C 44.9°F7.2°C 92% Calm Calm -- 30.19 in1022.4 mb 0.00 in0.0 mm 0.00 in0.0 mm 0.00 in0.0 mm
04:59 AM 46.9°F8.3°C 44.7°F7.1°C 92% Calm Calm -- 30.19 in1022.4 mb 0.00 in0.0 mm 0.00 in0.0 mm 0.00 in0.0 mm
05:00 AM 46.9°F8.3°C 44.7°F7.1°C 92% Calm Calm -- 30.19 in1022.4 mb 0.00 in0.0 mm 0.00 in0.0 mm 0.00 in0.0 mm
05:01 AM 46.9°F8.3°C 44.7°F7.1°C 92% Calm Calm -- 30.19 in1022.4 mb 0.00 in0.0 mm 0.00 in0.0 mm 0.00 in0.0 mm
05:02 AM 46.9°F8.3°C 44.7°F7.1°C 92% Calm Calm -- 30.19 in1022.4 mb 0.00 in0.0 mm 0.00 in0.0 mm 0.00 in0.0 mm
05:03 AM 46.9°F8.3°C 44.7°F7.1°C 92% Calm Calm -- 30.19 in1022.4 mb 0.00 in0.0 mm 0.00 in0.0 mm 0.00 in0.0 mm
05:04 AM 46.9°F8.3°C 44.7°F7.1°C 92% Calm Calm -- 30.19 in1022.4 mb 0.00 in0.0 mm 0.00 in0.0 mm 0.00 in0.0 mm
05:05 AM 46.9°F8.3°C 44.7°F7.1°C 92% Calm Calm -- 30.19 in1022.4 mb 0.00 in0.0 mm 0.00 in0.0 mm 0.00 in0.0 mm
05:06 AM 46.9°F8.3°C 44.7°F7.1°C 92% Calm Calm -- 30.19 in1022.4 mb 0.00 in0.0 mm 0.00 in0.0 mm 0.00 in0.0 mm
05:07 AM 46.9°F8.3°C 44.7°F7.1°C 92% Calm Calm -- 30.19 in1022.4 mb 0.00 in0.0 mm 0.00 in0.0 mm 0.00 in0.0 mm
05:08 AM 46.9°F8.3°C 44.7°F7.1°C 92% Calm Calm -- 30.19 in1022.4 mb 0.00 in0.0 mm 0.00 in0.0 mm 0.00 in0.0 mm
05:09 AM 46.9°F8.3°C 44.7°F7.1°C 92% Calm Calm -- 30.19 in1022.4 mb 0.00 in0.0 mm 0.00 in0.0 mm 0.00 in0.0 mm
05:10 AM 46.9°F8.3°C 44.7°F7.1°C 92% Calm Calm -- 30.19 in1022.4 mb 0.00 in0.0 mm 0.00 in0.0 mm 0.00 in0.0 mm
05:11 AM 46.9°F8.3°C 44.7°F7.1°C 92% Calm Calm -- 30.19 in1022.4 mb 0.00 in0.0 mm 0.00 in0.0 mm 0.00 in0.0 mm
05:12 AM 46.9°F8.3°C 44.7°F7.1°C 92% Calm Calm -- 30.19 in1022.4 mb 0.00 in0.0 mm 0.00 in0.0 mm 0.00 in0.0 mm
05:13 AM 46.9°F8.3°C 44.7°F7.1°C 92% Calm Calm -- 30.19 in1022.4 mb 0.00 in0.0 mm 0.00 in0.0 mm 0.00 in0.0 mm
05:14 AM 42.4°F5.8°C 40.3°F4.6°C 92% Calm Calm -- 30.19 in1022.4 mb 0.00 in0.0 mm 0.00 in0.0 mm 0.00 in0.0 mm
05:15 AM 44.8°F7.1°C 42.6°F5.9°C 92% Calm Calm -- 30.19 in1022.4 mb 0.00 in0.0 mm 0.00 in0.0 mm 0.00 in0.0 mm
05:16 AM 46.4°F8.0°C 44.2°F6.8°C 92% Calm Calm -- 30.19 in1022.4 mb 0.00 in0.0 mm 0.00 in0.0 mm 0.00 in0.0 mm
05:17 AM 46.4°F8.0°C 44.2°F6.8°C 92% Calm Calm -- 30.19 in1022.4 mb 0.00 in0.0 mm 0.00 in0.0 mm 0.00 in0.0 mm
05:18 AM 46.4°F8.0°C 44.2°F6.8°C 92% Calm Calm -- 30.19 in1022.4 mb 0.00 in0.0 mm 0.00 in0.0 mm 0.00 in0.0 mm
05:19 AM 46.4°F8.0°C 44.2°F6.8°C 92% Calm Calm -- 30.19 in1022.4 mb 0.00 in0.0 mm 0.00 in0.0 mm 0.00 in0.0 mm
05:20 AM 28.0°F-2.2°C 26.0°F-3.3°C 92% Calm Calm -- 30.19 in1022.4 mb 0.00 in0.0 mm 0.00 in0.0 mm 0.00 in0.0 mm
05:21 AM 27.7°F-2.4°C 25.7°F-3.5°C 92% Calm Calm -- 30.19 in1022.4 mb 0.00 in0.0 mm 0.00 in0.0 mm 0.00 in0.0 mm
05:22 AM 27.5°F-2.5°C 25.5°F-3.6°C 92% Calm Calm -- 30.19 in1022.4 mb 0.00 in0.0 mm 0.00 in0.0 mm 0.00 in0.0 mm
05:23 AM 27.1°F-2.7°C 25.1°F-3.8°C 92% Calm Calm -- 30.19 in1022.4 mb 0.00 in0.0 mm 0.00 in0.0 mm 0.00 in0.0 mm
05:24 AM 27.1°F-2.7°C 25.1°F-3.8°C 92% Calm Calm -- 30.19 in1022.4 mb 0.00 in0.0 mm 0.00 in0.0 mm 0.00 in0.0 mm
05:25 AM 27.0°F-2.8°C 25.0°F-3.9°C 92% Calm Calm -- 30.20 in1022.7 mb 0.00 in0.0 mm 0.00 in0.0 mm 0.00 in0.0 mm
05:26 AM 26.6°F-3.0°C 24.6°F-4.1°C 92% Calm Calm -- 30.20 in1022.7 mb 0.00 in0.0 mm 0.00 in0.0 mm 0.00 in0.0 mm
05:27 AM 26.2°F-3.2°C 24.2°F-4.3°C 92% Calm Calm -- 30.20 in1022.7 mb 0.00 in0.0 mm 0.00 in0.0 mm 0.00 in0.0 mm
05:28 AM 25.7°F-3.5°C 23.7°F-4.6°C 92% Calm Calm -- 30.20 in1022.7 mb 0.00 in0.0 mm 0.00 in0.0 mm 0.00 in0.0 mm
05:29 AM 25.5°F-3.6°C 23.5°F-4.7°C 92% Calm Calm -- 30.20 in1022.7 mb 0.00 in0.0 mm 0.00 in0.0 mm 0.00 in0.0 mm
05:30 AM 25.5°F-3.6°C 23.5°F-4.7°C 92% Calm Calm -- 30.20 in1022.7 mb 0.00 in0.0 mm 0.00 in0.0 mm 0.00 in0.0 mm
05:31 AM 25.7°F-3.5°C 23.7°F-4.6°C 92% Calm Calm -- 30.20 in1022.7 mb 0.00 in0.0 mm 0.00 in0.0 mm 0.00 in0.0 mm
05:32 AM 25.9°F-3.4°C 23.9°F-4.5°C 92% Calm Calm -- 30.20 in1022.7 mb 0.00 in0.0 mm 0.00 in0.0 mm 0.00 in0.0 mm
05:33 AM 26.2°F-3.2°C 24.2°F-4.3°C 92% Calm Calm -- 30.20 in1022.7 mb 0.00 in0.0 mm 0.00 in0.0 mm 0.00 in0.0 mm
05:34 AM 26.4°F-3.1°C 24.4°F-4.2°C 92% Calm Calm -- 30.20 in1022.7 mb 0.00 in0.0 mm 0.00 in0.0 mm 0.00 in0.0 mm
05:35 AM 26.4°F-3.1°C 24.4°F-4.2°C 92% Calm Calm -- 30.20 in1022.7 mb 0.00 in0.0 mm 0.00 in0.0 mm 0.00 in0.0 mm
05:36 AM 26.4°F-3.1°C 24.4°F-4.2°C 92% Calm Calm -- 30.20 in1022.7 mb 0.00 in0.0 mm 0.00 in0.0 mm 0.00 in0.0 mm
05:37 AM 26.4°F-3.1°C 24.4°F-4.2°C 92% Calm Calm -- 30.20 in1022.7 mb 0.00 in0.0 mm 0.00 in0.0 mm 0.00 in0.0 mm
05:38 AM 26.6°F-3.0°C 24.6°F-4.1°C 92% Calm Calm -- 30.20 in1022.7 mb 0.00 in0.0 mm 0.00 in0.0 mm 0.00 in0.0 mm
05:39 AM 26.6°F-3.0°C 24.6°F-4.1°C 92% Calm Calm -- 30.20 in1022.7 mb 0.00 in0.0 mm 0.00 in0.0 mm 0.00 in0.0 mm
05:40 AM 26.6°F-3.0°C 24.6°F-4.1°C 92% Calm Calm -- 30.20 in1022.7 mb 0.00 in0.0 mm 0.00 in0.0 mm 0.00 in0.0 mm
05:41 AM 26.6°F-3.0°C 24.6°F-4.1°C 92% Calm Calm -- 30.20 in1022.7 mb 0.00 in0.0 mm 0.00 in0.0 mm 0.00 in0.0 mm
05:42 AM 26.6°F-3.0°C 24.6°F-4.1°C 92% Calm Calm -- 30.20 in1022.7 mb 0.00 in0.0 mm 0.00 in0.0 mm 0.00 in0.0 mm
05:43 AM 27.0°F-2.8°C 25.0°F-3.9°C 92% Calm Calm -- 30.20 in1022.7 mb 0.00 in0.0 mm 0.00 in0.0 mm 0.00 in0.0 mm
05:44 AM 27.7°F-2.4°C 25.7°F-3.5°C 92% Calm Calm -- 30.20 in1022.7 mb 0.00 in0.0 mm 0.00 in0.0 mm 0.00 in0.0 mm
05:45 AM 27.7°F-2.4°C 25.7°F-3.5°C 92% Calm Calm -- 30.20 in1022.7 mb 0.00 in0.0 mm 0.00 in0.0 mm 0.00 in0.0 mm
05:46 AM 27.9°F-2.3°C 25.8°F-3.4°C 92% Calm Calm -- 30.20 in1022.7 mb 0.00 in0.0 mm 0.00 in0.0 mm 0.00 in0.0 mm
05:47 AM 27.9°F-2.3°C 25.8°F-3.4°C 92% Calm Calm -- 30.20 in1022.7 mb 0.00 in0.0 mm 0.00 in0.0 mm 0.00 in0.0 mm
05:48 AM 27.5°F-2.5°C 25.5°F-3.6°C 92% Calm Calm -- 30.20 in1022.7 mb 0.00 in0.0 mm 0.00 in0.0 mm 0.00 in0.0 mm
05:49 AM 27.5°F-2.5°C 25.5°F-3.6°C 92% Calm Calm -- 30.20 in1022.7 mb 0.00 in0.0 mm 0.00 in0.0 mm 0.00 in0.0 mm
05:50 AM 27.7°F-2.4°C 25.7°F-3.5°C 92% Calm Calm -- 30.20 in1022.7 mb 0.00 in0.0 mm 0.00 in0.0 mm 0.00 in0.0 mm
05:51 AM 27.5°F-2.5°C 25.5°F-3.6°C 92% Calm Calm -- 30.20 in1022.7 mb 0.00 in0.0 mm 0.00 in0.0 mm 0.00 in0.0 mm
05:52 AM 27.3°F-2.6°C 25.3°F-3.7°C 92% Calm Calm -- 30.20 in1022.7 mb 0.00 in0.0 mm 0.00 in0.0 mm 0.00 in0.0 mm
05:53 AM 27.3°F-2.6°C 25.3°F-3.7°C 92% Calm Calm -- 30.20 in1022.7 mb 0.00 in0.0 mm 0.00 in0.0 mm 0.00 in0.0 mm
05:54 AM 27.1°F-2.7°C 25.1°F-3.8°C 92% Calm Calm -- 30.20 in1022.7 mb 0.00 in0.0 mm 0.00 in0.0 mm 0.00 in0.0 mm
05:55 AM 27.1°F-2.7°C 25.1°F-3.8°C 92% Calm Calm -- 30.20 in1022.7 mb 0.00 in0.0 mm 0.00 in0.0 mm 0.00 in0.0 mm
05:56 AM 27.1°F-2.7°C 25.1°F-3.8°C 92% Calm Calm -- 30.20 in1022.7 mb 0.00 in0.0 mm 0.00 in0.0 mm 0.00 in0.0 mm
05:57 AM 27.0°F-2.8°C 25.0°F-3.9°C 92% Calm Calm -- 30.20 in1022.7 mb 0.00 in0.0 mm 0.00 in0.0 mm 0.00 in0.0 mm
05:58 AM 27.0°F-2.8°C 25.0°F-3.9°C 92% Calm Calm -- 30.20 in1022.7 mb 0.00 in0.0 mm 0.00 in0.0 mm 0.00 in0.0 mm
05:59 AM 26.8°F-2.9°C 24.8°F-4.0°C 92% Calm Calm -- 30.20 in1022.7 mb 0.00 in0.0 mm 0.00 in0.0 mm 0.00 in0.0 mm
06:00 AM 26.6°F-3.0°C 24.6°F-4.1°C 92% Calm Calm -- 30.20 in1022.7 mb 0.00 in0.0 mm 0.00 in0.0 mm 0.00 in0.0 mm
06:01 AM 26.6°F-3.0°C 24.6°F-4.1°C 92% Calm Calm -- 30.20 in1022.7 mb 0.00 in0.0 mm 0.00 in0.0 mm 0.00 in0.0 mm
06:02 AM 26.4°F-3.1°C 24.4°F-4.2°C 92% Calm Calm -- 30.20 in1022.7 mb 0.00 in0.0 mm 0.00 in0.0 mm 0.00 in0.0 mm
06:03 AM 26.2°F-3.2°C 24.2°F-4.3°C 92% Calm Calm -- 30.20 in1022.7 mb 0.00 in0.0 mm 0.00 in0.0 mm 0.00 in0.0 mm
06:04 AM 26.1°F-3.3°C 24.1°F-4.4°C 92% Calm Calm -- 30.20 in1022.7 mb 0.00 in0.0 mm 0.00 in0.0 mm 0.00 in0.0 mm
06:05 AM 26.1°F-3.3°C 24.1°F-4.4°C 92% Calm Calm -- 30.20 in1022.7 mb 0.00 in0.0 mm 0.00 in0.0 mm 0.00 in0.0 mm
06:06 AM 26.1°F-3.3°C 24.1°F-4.4°C 92% Calm Calm -- 30.20 in1022.7 mb 0.00 in0.0 mm 0.00 in0.0 mm 0.00 in0.0 mm
06:07 AM 25.9°F-3.4°C 23.9°F-4.5°C 92% Calm Calm -- 30.20 in1022.7 mb 0.00 in0.0 mm 0.00 in0.0 mm 0.00 in0.0 mm
06:08 AM 25.7°F-3.5°C 23.7°F-4.6°C 92% Calm Calm -- 30.20 in1022.7 mb 0.00 in0.0 mm 0.00 in0.0 mm 0.00 in0.0 mm
06:09 AM 25.7°F-3.5°C 23.7°F-4.6°C 92% Calm Calm -- 30.20 in1022.7 mb 0.00 in0.0 mm 0.00 in0.0 mm 0.00 in0.0 mm
06:10 AM 25.5°F-3.6°C 23.5°F-4.7°C 92% Calm Calm -- 30.20 in1022.7 mb 0.00 in0.0 mm 0.00 in0.0 mm 0.00 in0.0 mm
06:11 AM 25.5°F-3.6°C 23.5°F-4.7°C 92% Calm Calm -- 30.20 in1022.7 mb 0.00 in0.0 mm 0.00 in0.0 mm 0.00 in0.0 mm
06:12 AM 25.3°F-3.7°C 23.3°F-4.8°C 92% Calm Calm -- 30.20 in1022.7 mb 0.00 in0.0 mm 0.00 in0.0 mm 0.00 in0.0 mm
06:13 AM 25.0°F-3.9°C 23.0°F-5.0°C 92% Calm Calm -- 30.21 in1023.0 mb 0.00 in0.0 mm 0.00 in0.0 mm 0.00 in0.0 mm
06:14 AM 24.8°F-4.0°C 22.8°F-5.1°C 92% Calm Calm -- 30.21 in1023.0 mb 0.00 in0.0 mm 0.00 in0.0 mm 0.00 in0.0 mm
06:15 AM 24.6°F-4.1°C 22.6°F-5.2°C 92% Calm Calm -- 30.21 in1023.0 mb 0.00 in0.0 mm 0.00 in0.0 mm 0.00 in0.0 mm
06:16 AM 24.4°F-4.2°C 22.5°F-5.3°C 92% Calm Calm -- 30.21 in1023.0 mb 0.00 in0.0 mm 0.00 in0.0 mm 0.00 in0.0 mm
06:17 AM 24.4°F-4.2°C 22.5°F-5.3°C 92% Calm Calm -- 30.21 in1023.0 mb 0.00 in0.0 mm 0.00 in0.0 mm 0.00 in0.0 mm
06:18 AM 24.4°F-4.2°C 22.5°F-5.3°C 92% Calm Calm -- 30.21 in1023.0 mb 0.00 in0.0 mm 0.00 in0.0 mm 0.00 in0.0 mm
06:19 AM 24.3°F-4.3°C 22.3°F-5.4°C 92% Calm Calm -- 30.21 in1023.0 mb 0.00 in0.0 mm 0.00 in0.0 mm 0.00 in0.0 mm
06:20 AM 24.3°F-4.3°C 22.3°F-5.4°C 92% Calm Calm -- 30.21 in1023.0 mb 0.00 in0.0 mm 0.00 in0.0 mm 0.00 in0.0 mm
06:21 AM 23.9°F-4.5°C 21.9°F-5.6°C 92% Calm Calm -- 30.21 in1023.0 mb 0.00 in0.0 mm 0.00 in0.0 mm 0.00 in0.0 mm
06:22 AM 23.9°F-4.5°C 21.9°F-5.6°C 92% Calm Calm -- 30.21 in1023.0 mb 0.00 in0.0 mm 0.00 in0.0 mm 0.00 in0.0 mm
06:23 AM 24.1°F-4.4°C 22.1°F-5.5°C 92% Calm Calm -- 30.21 in1023.0 mb 0.00 in0.0 mm 0.00 in0.0 mm 0.00 in0.0 mm
06:24 AM 24.4°F-4.2°C 22.5°F-5.3°C 92% Calm Calm -- 30.21 in1023.0 mb 0.00 in0.0 mm 0.00 in0.0 mm 0.00 in0.0 mm
06:25 AM 24.4°F-4.2°C 22.5°F-5.3°C 92% Calm Calm -- 30.21 in1023.0 mb 0.00 in0.0 mm 0.00 in0.0 mm 0.00 in0.0 mm
06:26 AM 24.6°F-4.1°C 22.6°F-5.2°C 92% Calm Calm -- 30.21 in1023.0 mb 0.00 in0.0 mm 0.00 in0.0 mm 0.00 in0.0 mm
06:27 AM 24.8°F-4.0°C 22.8°F-5.1°C 92% Calm Calm -- 30.21 in1023.0 mb 0.00 in0.0 mm 0.00 in0.0 mm 0.00 in0.0 mm
06:28 AM 24.8°F-4.0°C 22.8°F-5.1°C 92% Calm Calm -- 30.21 in1023.0 mb 0.00 in0.0 mm 0.00 in0.0 mm 0.00 in0.0 mm
06:29 AM 24.8°F-4.0°C 22.8°F-5.1°C 92% Calm Calm -- 30.21 in1023.0 mb 0.00 in0.0 mm 0.00 in0.0 mm 0.00 in0.0 mm
06:30 AM 25.0°F-3.9°C 23.0°F-5.0°C 92% Calm Calm -- 30.21 in1023.0 mb 0.00 in0.0 mm 0.00 in0.0 mm 0.00 in0.0 mm
06:31 AM 25.0°F-3.9°C 23.0°F-5.0°C 92% Calm Calm -- 30.21 in1023.0 mb 0.00 in0.0 mm 0.00 in0.0 mm 0.00 in0.0 mm
06:32 AM 25.0°F-3.9°C 23.0°F-5.0°C 92% Calm Calm -- 30.21 in1023.0 mb 0.00 in0.0 mm 0.00 in0.0 mm 0.00 in0.0 mm
06:33 AM 25.2°F-3.8°C 23.2°F-4.9°C 92% Calm Calm -- 30.21 in1023.0 mb 0.00 in0.0 mm 0.00 in0.0 mm 0.00 in0.0 mm
06:34 AM 25.0°F-3.9°C 23.0°F-5.0°C 92% Calm Calm -- 30.21 in1023.0 mb 0.00 in0.0 mm 0.00 in0.0 mm 0.00 in0.0 mm
06:35 AM 25.0°F-3.9°C 23.0°F-5.0°C 92% Calm Calm -- 30.21 in1023.0 mb 0.00 in0.0 mm 0.00 in0.0 mm 0.00 in0.0 mm
06:36 AM 25.0°F-3.9°C 23.0°F-5.0°C 92% Calm Calm -- 30.21 in1023.0 mb 0.00 in0.0 mm 0.00 in0.0 mm 0.00 in0.0 mm
06:37 AM 25.0°F-3.9°C 23.0°F-5.0°C 92% Calm Calm -- 30.22 in1023.4 mb 0.00 in0.0 mm 0.00 in0.0 mm 0.00 in0.0 mm
06:38 AM 25.3°F-3.7°C 23.3°F-4.8°C 92% Calm Calm -- 30.22 in1023.4 mb 0.00 in0.0 mm 0.00 in0.0 mm 0.00 in0.0 mm
06:39 AM 25.0°F-3.9°C 23.0°F-5.0°C 92% Calm Calm -- 30.22 in1023.4 mb 0.00 in0.0 mm 0.00 in0.0 mm 0.00 in0.0 mm
06:40 AM 24.8°F-4.0°C 22.8°F-5.1°C 92% Calm Calm -- 30.22 in1023.4 mb 0.00 in0.0 mm 0.00 in0.0 mm 0.00 in0.0 mm
06:41 AM 24.4°F-4.2°C 22.5°F-5.3°C 92% Calm Calm -- 30.22 in1023.4 mb 0.00 in0.0 mm 0.00 in0.0 mm 0.00 in0.0 mm
06:42 AM 24.4°F-4.2°C 22.5°F-5.3°C 92% Calm Calm -- 30.22 in1023.4 mb 0.00 in0.0 mm 0.00 in0.0 mm 0.00 in0.0 mm
06:43 AM 24.4°F-4.2°C 22.5°F-5.3°C 92% Calm Calm -- 30.22 in1023.4 mb 0.00 in0.0 mm 0.00 in0.0 mm 0.00 in0.0 mm
06:44 AM 24.4°F-4.2°C 22.5°F-5.3°C 92% Calm Calm -- 30.22 in1023.4 mb 0.00 in0.0 mm 0.00 in0.0 mm 0.00 in0.0 mm
06:45 AM 24.4°F-4.2°C 22.5°F-5.3°C 92% Calm Calm -- 30.22 in1023.4 mb 0.00 in0.0 mm 0.00 in0.0 mm 0.00 in0.0 mm
06:46 AM 24.4°F-4.2°C 22.5°F-5.3°C 92% Calm Calm -- 30.22 in1023.4 mb 0.00 in0.0 mm 0.00 in0.0 mm 0.00 in0.0 mm
06:47 AM 24.4°F-4.2°C 22.5°F-5.3°C 92% Calm Calm -- 30.22 in1023.4 mb 0.00 in0.0 mm 0.00 in0.0 mm 0.00 in0.0 mm
06:48 AM 24.4°F-4.2°C 22.5°F-5.3°C 92% Calm Calm -- 30.22 in1023.4 mb 0.00 in0.0 mm 0.00 in0.0 mm 0.00 in0.0 mm
06:49 AM 24.4°F-4.2°C 22.5°F-5.3°C 92% Calm Calm -- 30.21 in1023.0 mb 0.00 in0.0 mm 0.00 in0.0 mm 0.00 in0.0 mm
06:50 AM 24.4°F-4.2°C 22.5°F-5.3°C 92% Calm Calm -- 30.21 in1023.0 mb 0.00 in0.0 mm 0.00 in0.0 mm 0.00 in0.0 mm
06:51 AM 24.4°F-4.2°C 22.5°F-5.3°C 92% Calm Calm -- 30.21 in1023.0 mb 0.00 in0.0 mm 0.00 in0.0 mm 0.00 in0.0 mm
06:52 AM 24.4°F-4.2°C 22.5°F-5.3°C 92% Calm Calm -- 30.21 in1023.0 mb 0.00 in0.0 mm 0.00 in0.0 mm 0.00 in0.0 mm
06:53 AM 24.4°F-4.2°C 22.5°F-5.3°C 92% Calm Calm -- 30.21 in1023.0 mb 0.00 in0.0 mm 0.00 in0.0 mm 0.00 in0.0 mm
06:54 AM 24.4°F-4.2°C 22.5°F-5.3°C 92% Calm Calm -- 30.21 in1023.0 mb 0.00 in0.0 mm 0.00 in0.0 mm 0.00 in0.0 mm
06:55 AM 24.4°F-4.2°C 22.5°F-5.3°C 92% Calm Calm -- 30.21 in1023.0 mb 0.00 in0.0 mm 0.00 in0.0 mm 0.00 in0.0 mm
06:56 AM 24.4°F-4.2°C 22.5°F-5.3°C 92% Calm Calm -- 30.21 in1023.0 mb 0.00 in0.0 mm 0.00 in0.0 mm 0.00 in0.0 mm
06:57 AM 24.8°F-4.0°C 22.8°F-5.1°C 92% Calm Calm -- 30.21 in1023.0 mb 0.00 in0.0 mm 0.00 in0.0 mm 0.00 in0.0 mm
06:58 AM 25.0°F-3.9°C 23.0°F-5.0°C 92% Calm Calm -- 30.21 in1023.0 mb 0.00 in0.0 mm 0.00 in0.0 mm 0.00 in0.0 mm
06:59 AM 25.2°F-3.8°C 23.2°F-4.9°C 92% Calm Calm -- 30.21 in1023.0 mb 0.00 in0.0 mm 0.00 in0.0 mm 0.00 in0.0 mm
07:00 AM 25.2°F-3.8°C 23.2°F-4.9°C 92% Calm Calm -- 30.21 in1023.0 mb 0.00 in0.0 mm 0.00 in0.0 mm 0.00 in0.0 mm
07:01 AM 25.2°F-3.8°C 23.2°F-4.9°C 92% Calm Calm -- 30.21 in1023.0 mb 0.00 in0.0 mm 0.00 in0.0 mm 0.00 in0.0 mm
07:02 AM 25.2°F-3.8°C 23.2°F-4.9°C 92% Calm Calm -- 30.21 in1023.0 mb 0.00 in0.0 mm 0.00 in0.0 mm 0.00 in0.0 mm
07:03 AM 25.2°F-3.8°C 23.2°F-4.9°C 92% Calm Calm -- 30.21 in1023.0 mb 0.00 in0.0 mm 0.00 in0.0 mm 0.00 in0.0 mm
07:04 AM 25.5°F-3.6°C 23.5°F-4.7°C 92% Calm Calm -- 30.21 in1023.0 mb 0.00 in0.0 mm 0.00 in0.0 mm 0.00 in0.0 mm
07:05 AM 25.7°F-3.5°C 23.7°F-4.6°C 92% Calm Calm -- 30.21 in1023.0 mb 0.00 in0.0 mm 0.00 in0.0 mm 0.00 in0.0 mm
07:06 AM 25.7°F-3.5°C 23.7°F-4.6°C 92% Calm Calm -- 30.21 in1023.0 mb 0.00 in0.0 mm 0.00 in0.0 mm 0.00 in0.0 mm
07:07 AM 25.9°F-3.4°C 23.9°F-4.5°C 92% Calm Calm -- 30.21 in1023.0 mb 0.00 in0.0 mm 0.00 in0.0 mm 0.00 in0.0 mm
07:08 AM 25.9°F-3.4°C 23.9°F-4.5°C 92% Calm Calm -- 30.21 in1023.0 mb 0.00 in0.0 mm 0.00 in0.0 mm 0.00 in0.0 mm
07:09 AM 26.2°F-3.2°C 24.2°F-4.3°C 92% Calm Calm -- 30.21 in1023.0 mb 0.00 in0.0 mm 0.00 in0.0 mm 0.00 in0.0 mm
07:10 AM 26.4°F-3.1°C 24.4°F-4.2°C 92% Calm Calm -- 30.21 in1023.0 mb 0.00 in0.0 mm 0.00 in0.0 mm 0.00 in0.0 mm
07:11 AM 26.6°F-3.0°C 24.6°F-4.1°C 92% Calm Calm -- 30.21 in1023.0 mb 0.00 in0.0 mm 0.00 in0.0 mm 0.00 in0.0 mm
07:12 AM 26.8°F-2.9°C 24.8°F-4.0°C 92% Calm Calm -- 30.21 in1023.0 mb 0.00 in0.0 mm 0.00 in0.0 mm 0.00 in0.0 mm
07:13 AM 27.0°F-2.8°C 25.0°F-3.9°C 92% Calm Calm -- 30.22 in1023.4 mb 0.00 in0.0 mm 0.00 in0.0 mm 0.00 in0.0 mm
07:14 AM 27.1°F-2.7°C 25.1°F-3.8°C 92% Calm Calm -- 30.22 in1023.4 mb 0.00 in0.0 mm 0.00 in0.0 mm 0.00 in0.0 mm
07:15 AM 27.1°F-2.7°C 25.1°F-3.8°C 92% Calm Calm -- 30.22 in1023.4 mb 0.00 in0.0 mm 0.00 in0.0 mm 0.00 in0.0 mm
07:16 AM 27.1°F-2.7°C 25.1°F-3.8°C 92% Calm Calm -- 30.22 in1023.4 mb 0.00 in0.0 mm 0.00 in0.0 mm 0.00 in0.0 mm
07:17 AM 27.1°F-2.7°C 25.1°F-3.8°C 92% Calm Calm -- 30.22 in1023.4 mb 0.00 in0.0 mm 0.00 in0.0 mm 0.00 in0.0 mm
07:18 AM 27.0°F-2.8°C 25.0°F-3.9°C 92% Calm Calm -- 30.22 in1023.4 mb 0.00 in0.0 mm 0.00 in0.0 mm 0.00 in0.0 mm
07:19 AM 26.4°F-3.1°C 24.4°F-4.2°C 92% Calm Calm -- 30.22 in1023.4 mb 0.00 in0.0 mm 0.00 in0.0 mm 0.00 in0.0 mm
07:20 AM 26.2°F-3.2°C 24.2°F-4.3°C 92% Calm Calm -- 30.22 in1023.4 mb 0.00 in0.0 mm 0.00 in0.0 mm 0.00 in0.0 mm
07:21 AM 25.9°F-3.4°C 23.9°F-4.5°C 92% Calm Calm -- 30.22 in1023.4 mb 0.00 in0.0 mm 0.00 in0.0 mm 0.00 in0.0 mm
07:22 AM 25.9°F-3.4°C 23.9°F-4.5°C 92% Calm Calm -- 30.22 in1023.4 mb 0.00 in0.0 mm 0.00 in0.0 mm 0.00 in0.0 mm
07:23 AM 25.7°F-3.5°C 23.7°F-4.6°C 92% Calm Calm -- 30.22 in1023.4 mb 0.00 in0.0 mm 0.00 in0.0 mm 0.00 in0.0 mm
07:24 AM 25.7°F-3.5°C 23.7°F-4.6°C 92% Calm Calm -- 30.22 in1023.4 mb 0.00 in0.0 mm 0.00 in0.0 mm 0.00 in0.0 mm
07:25 AM 25.5°F-3.6°C 23.5°F-4.7°C 92% Calm Calm -- 30.23 in1023.7 mb 0.00 in0.0 mm 0.00 in0.0 mm 0.00 in0.0 mm
07:26 AM 25.2°F-3.8°C 23.2°F-4.9°C 92% Calm Calm -- 30.23 in1023.7 mb 0.00 in0.0 mm 0.00 in0.0 mm 0.00 in0.0 mm
07:27 AM 25.2°F-3.8°C 23.2°F-4.9°C 92% Calm Calm -- 30.23 in1023.7 mb 0.00 in0.0 mm 0.00 in0.0 mm 0.00 in0.0 mm
07:28 AM 25.0°F-3.9°C 23.0°F-5.0°C 92% Calm Calm -- 30.23 in1023.7 mb 0.00 in0.0 mm 0.00 in0.0 mm 0.00 in0.0 mm
07:29 AM 24.6°F-4.1°C 22.6°F-5.2°C 92% Calm Calm -- 30.23 in1023.7 mb 0.00 in0.0 mm 0.00 in0.0 mm 0.00 in0.0 mm
07:30 AM 24.4°F-4.2°C 22.5°F-5.3°C 92% Calm Calm -- 30.23 in1023.7 mb 0.00 in0.0 mm 0.00 in0.0 mm 0.00 in0.0 mm
07:31 AM 24.4°F-4.2°C 22.5°F-5.3°C 92% Calm Calm -- 30.23 in1023.7 mb 0.00 in0.0 mm 0.00 in0.0 mm 0.00 in0.0 mm
07:32 AM 24.4°F-4.2°C 22.5°F-5.3°C 92% Calm Calm -- 30.23 in1023.7 mb 0.00 in0.0 mm 0.00 in0.0 mm 0.00 in0.0 mm
07:33 AM 24.6°F-4.1°C 22.6°F-5.2°C 92% Calm Calm -- 30.23 in1023.7 mb 0.00 in0.0 mm 0.00 in0.0 mm 0.00 in0.0 mm
07:34 AM 24.8°F-4.0°C 22.8°F-5.1°C 92% Calm Calm -- 30.23 in1023.7 mb 0.00 in0.0 mm 0.00 in0.0 mm 0.00 in0.0 mm
07:35 AM 24.8°F-4.0°C 22.8°F-5.1°C 92% Calm Calm -- 30.23 in1023.7 mb 0.00 in0.0 mm 0.00 in0.0 mm 0.00 in0.0 mm
07:36 AM 25.0°F-3.9°C 23.0°F-5.0°C 92% Calm Calm -- 30.23 in1023.7 mb 0.00 in0.0 mm 0.00 in0.0 mm 0.00 in0.0 mm
07:37 AM 25.2°F-3.8°C 23.2°F-4.9°C 92% Calm Calm -- 30.23 in1023.7 mb 0.00 in0.0 mm 0.00 in0.0 mm 0.00 in0.0 mm
07:38 AM 25.3°F-3.7°C 23.3°F-4.8°C 92% Calm Calm -- 30.23 in1023.7 mb 0.00 in0.0 mm 0.00 in0.0 mm 0.00 in0.0 mm
07:39 AM 25.3°F-3.7°C 23.3°F-4.8°C 92% Calm Calm -- 30.23 in1023.7 mb 0.00 in0.0 mm 0.00 in0.0 mm 0.00 in0.0 mm
07:40 AM 25.3°F-3.7°C 23.3°F-4.8°C 92% Calm Calm -- 30.23 in1023.7 mb 0.00 in0.0 mm 0.00 in0.0 mm 0.00 in0.0 mm
07:41 AM 25.7°F-3.5°C 23.7°F-4.6°C 92% Calm Calm -- 30.23 in1023.7 mb 0.00 in0.0 mm 0.00 in0.0 mm 0.00 in0.0 mm
07:42 AM 25.7°F-3.5°C 23.7°F-4.6°C 92% Calm Calm -- 30.23 in1023.7 mb 0.00 in0.0 mm 0.00 in0.0 mm 0.00 in0.0 mm
07:43 AM 26.1°F-3.3°C 24.1°F-4.4°C 92% Calm Calm -- 30.23 in1023.7 mb 0.00 in0.0 mm 0.00 in0.0 mm 0.00 in0.0 mm
07:44 AM 26.4°F-3.1°C 24.4°F-4.2°C 92% Calm Calm -- 30.23 in1023.7 mb 0.00 in0.0 mm 0.00 in0.0 mm 0.00 in0.0 mm
07:45 AM 26.6°F-3.0°C 24.6°F-4.1°C 92% Calm Calm -- 30.23 in1023.7 mb 0.00 in0.0 mm 0.00 in0.0 mm 0.00 in0.0 mm
07:46 AM 26.8°F-2.9°C 24.8°F-4.0°C 92% Calm Calm -- 30.23 in1023.7 mb 0.00 in0.0 mm 0.00 in0.0 mm 0.00 in0.0 mm
07:47 AM 26.8°F-2.9°C 24.8°F-4.0°C 92% Calm Calm -- 30.23 in1023.7 mb 0.00 in0.0 mm 0.00 in0.0 mm 0.00 in0.0 mm
07:48 AM 27.0°F-2.8°C 25.0°F-3.9°C 92% Calm Calm -- 30.23 in1023.7 mb 0.00 in0.0 mm 0.00 in0.0 mm 0.00 in0.0 mm
07:49 AM 27.1°F-2.7°C 25.1°F-3.8°C 92% Calm Calm -- 30.23 in1023.7 mb 0.00 in0.0 mm 0.00 in0.0 mm 0.00 in0.0 mm
07:50 AM 27.1°F-2.7°C 25.1°F-3.8°C 92% Calm Calm -- 30.23 in1023.7 mb 0.00 in0.0 mm 0.00 in0.0 mm 0.00 in0.0 mm
07:51 AM 27.5°F-2.5°C 25.5°F-3.6°C 92% Calm Calm -- 30.23 in1023.7 mb 0.00 in0.0 mm 0.00 in0.0 mm 0.00 in0.0 mm
07:52 AM 27.5°F-2.5°C 25.5°F-3.6°C 92% Calm Calm -- 30.23 in1023.7 mb 0.00 in0.0 mm 0.00 in0.0 mm 0.00 in0.0 mm
07:53 AM 27.5°F-2.5°C 25.5°F-3.6°C 92% Calm Calm -- 30.23 in1023.7 mb 0.00 in0.0 mm 0.00 in0.0 mm 0.00 in0.0 mm
07:54 AM 27.7°F-2.4°C 25.7°F-3.5°C 92% Calm Calm -- 30.23 in1023.7 mb 0.00 in0.0 mm 0.00 in0.0 mm 0.00 in0.0 mm
07:55 AM 27.7°F-2.4°C 25.7°F-3.5°C 92% Calm Calm -- 30.23 in1023.7 mb 0.00 in0.0 mm 0.00 in0.0 mm 0.00 in0.0 mm
07:56 AM 27.7°F-2.4°C 25.7°F-3.5°C 92% Calm Calm -- 30.23 in1023.7 mb 0.00 in0.0 mm 0.00 in0.0 mm 0.00 in0.0 mm
07:57 AM 27.7°F-2.4°C 25.7°F-3.5°C 92% Calm Calm -- 30.23 in1023.7 mb 0.00 in0.0 mm 0.00 in0.0 mm 0.00 in0.0 mm
07:58 AM 27.9°F-2.3°C 25.8°F-3.4°C 92% Calm Calm -- 30.23 in1023.7 mb 0.00 in0.0 mm 0.00 in0.0 mm 0.00 in0.0 mm
07:59 AM 28.6°F-1.9°C 26.6°F-3.0°C 92% Calm Calm -- 30.23 in1023.7 mb 0.00 in0.0 mm 0.00 in0.0 mm 0.00 in0.0 mm
08:00 AM 28.8°F-1.8°C 26.7°F-2.9°C 92% Calm Calm -- 30.23 in1023.7 mb 0.00 in0.0 mm 0.00 in0.0 mm 0.00 in0.0 mm
08:01 AM 28.9°F-1.7°C 26.9°F-2.8°C 92% Calm Calm -- 30.23 in1023.7 mb 0.00 in0.0 mm 0.00 in0.0 mm 0.00 in0.0 mm
08:02 AM 29.3°F-1.5°C 27.3°F-2.6°C 92% Calm Calm -- 30.23 in1023.7 mb 0.00 in0.0 mm 0.00 in0.0 mm 0.00 in0.0 mm
08:03 AM 29.8°F-1.2°C 27.8°F-2.3°C 92% Calm Calm -- 30.23 in1023.7 mb 0.00 in0.0 mm 0.00 in0.0 mm 0.00 in0.0 mm
08:04 AM 30.2°F-1.0°C 28.2°F-2.1°C 92% Calm Calm -- 30.23 in1023.7 mb 0.00 in0.0 mm 0.00 in0.0 mm 0.00 in0.0 mm
08:05 AM 30.2°F-1.0°C 28.2°F-2.1°C 92% Calm Calm -- 30.23 in1023.7 mb 0.00 in0.0 mm 0.00 in0.0 mm 0.00 in0.0 mm
08:06 AM 30.4°F-0.9°C 28.3°F-2.1°C 92% Calm Calm -- 30.23 in1023.7 mb 0.00 in0.0 mm 0.00 in0.0 mm 0.00 in0.0 mm
08:07 AM 30.6°F-0.8°C 28.5°F-1.9°C 92% Calm Calm -- 30.23 in1023.7 mb 0.00 in0.0 mm 0.00 in0.0 mm 0.00 in0.0 mm
08:08 AM 30.7°F-0.7°C 28.7°F-1.8°C 92% Calm Calm -- 30.23 in1023.7 mb 0.00 in0.0 mm 0.00 in0.0 mm 0.00 in0.0 mm
08:09 AM 30.9°F-0.6°C 28.9°F-1.7°C 92% Calm Calm -- 30.23 in1023.7 mb 0.00 in0.0 mm 0.00 in0.0 mm 0.00 in0.0 mm
08:10 AM 30.9°F-0.6°C 28.9°F-1.7°C 92% Calm Calm -- 30.23 in1023.7 mb 0.00 in0.0 mm 0.00 in0.0 mm 0.00 in0.0 mm
08:11 AM 30.9°F-0.6°C 28.9°F-1.7°C 92% Calm Calm -- 30.23 in1023.7 mb 0.00 in0.0 mm 0.00 in0.0 mm 0.00 in0.0 mm
08:12 AM 30.9°F-0.6°C 28.9°F-1.7°C 92% Calm Calm -- 30.23 in1023.7 mb 0.00 in0.0 mm 0.00 in0.0 mm 0.00 in0.0 mm
08:13 AM 42.8°F6.0°C 40.6°F4.8°C 92% Calm Calm -- 30.23 in1023.7 mb 0.00 in0.0 mm 0.00 in0.0 mm 0.00 in0.0 mm
08:14 AM 37.8°F3.2°C 35.6°F2.0°C 92% Calm Calm -- 30.23 in1023.7 mb 0.00 in0.0 mm 0.00 in0.0 mm 0.00 in0.0 mm
08:15 AM 35.2°F1.8°C 33.2°F0.7°C 92% Calm Calm -- 30.23 in1023.7 mb 0.00 in0.0 mm 0.00 in0.0 mm 0.00 in0.0 mm
08:16 AM 34.0°F1.1°C 31.9°F-0.1°C 92% Calm Calm -- 30.23 in1023.7 mb 0.00 in0.0 mm 0.00 in0.0 mm 0.00 in0.0 mm
08:17 AM 33.6°F0.9°C 31.5°F-0.3°C 92% Calm Calm -- 30.23 in1023.7 mb 0.00 in0.0 mm 0.00 in0.0 mm 0.00 in0.0 mm
08:18 AM 33.4°F0.8°C 31.4°F-0.3°C 92% Calm Calm -- 30.23 in1023.7 mb 0.00 in0.0 mm 0.00 in0.0 mm 0.00 in0.0 mm
08:19 AM 33.6°F0.9°C 31.5°F-0.3°C 92% Calm Calm -- 30.23 in1023.7 mb 0.00 in0.0 mm 0.00 in0.0 mm 0.00 in0.0 mm
08:20 AM 33.6°F0.9°C 31.5°F-0.3°C 92% Calm Calm -- 30.23 in1023.7 mb 0.00 in0.0 mm 0.00 in0.0 mm 0.00 in0.0 mm
08:21 AM 34.2°F1.2°C 32.1°F0.1°C 92% Calm Calm -- 30.23 in1023.7 mb 0.00 in0.0 mm 0.00 in0.0 mm 0.00 in0.0 mm
08:22 AM 34.5°F1.4°C 32.4°F0.2°C 92% Calm Calm -- 30.23 in1023.7 mb 0.00 in0.0 mm 0.00 in0.0 mm 0.00 in0.0 mm
08:23 AM 38.7°F3.7°C 36.5°F2.5°C 92% Calm Calm -- 30.23 in1023.7 mb 0.00 in0.0 mm 0.00 in0.0 mm 0.00 in0.0 mm
08:24 AM 37.0°F2.8°C 34.9°F1.6°C 92% Calm Calm -- 30.23 in1023.7 mb 0.00 in0.0 mm 0.00 in0.0 mm 0.00 in0.0 mm
08:25 AM 37.0°F2.8°C 34.9°F1.6°C 92% Calm Calm -- 30.24 in1024.0 mb 0.00 in0.0 mm 0.00 in0.0 mm 0.00 in0.0 mm
08:26 AM 37.2°F2.9°C 35.1°F1.7°C 92% Calm Calm -- 30.24 in1024.0 mb 0.00 in0.0 mm 0.00 in0.0 mm 0.00 in0.0 mm
08:27 AM 37.2°F2.9°C 35.1°F1.7°C 92% Calm Calm -- 30.24 in1024.0 mb 0.00 in0.0 mm 0.00 in0.0 mm 0.00 in0.0 mm
08:28 AM 37.4°F3.0°C 35.3°F1.8°C 92% Calm Calm -- 30.24 in1024.0 mb 0.00 in0.0 mm 0.00 in0.0 mm 0.00 in0.0 mm
08:29 AM 37.8°F3.2°C 35.6°F2.0°C 92% Calm Calm -- 30.24 in1024.0 mb 0.00 in0.0 mm 0.00 in0.0 mm 0.00 in0.0 mm
08:30 AM 38.1°F3.4°C 36.0°F2.2°C 92% Calm Calm -- 30.24 in1024.0 mb 0.00 in0.0 mm 0.00 in0.0 mm 0.00 in0.0 mm
08:31 AM 44.1°F6.7°C 41.9°F5.5°C 92% Calm Calm -- 30.24 in1024.0 mb 0.00 in0.0 mm 0.00 in0.0 mm 0.00 in0.0 mm
08:32 AM 41.9°F5.5°C 39.7°F4.3°C 92% Calm Calm -- 30.24 in1024.0 mb 0.00 in0.0 mm 0.00 in0.0 mm 0.00 in0.0 mm
08:33 AM 40.8°F4.9°C 38.7°F3.7°C 92% Calm Calm -- 30.24 in1024.0 mb 0.00 in0.0 mm 0.00 in0.0 mm 0.00 in0.0 mm
08:34 AM 41.5°F5.3°C 39.4°F4.1°C 92% Calm Calm -- 30.24 in1024.0 mb 0.00 in0.0 mm 0.00 in0.0 mm 0.00 in0.0 mm
08:35 AM 41.9°F5.5°C 39.7°F4.3°C 92% Calm Calm -- 30.24 in1024.0 mb 0.00 in0.0 mm 0.00 in0.0 mm 0.00 in0.0 mm
08:36 AM 42.4°F5.8°C 40.3°F4.6°C 92% Calm Calm -- 30.24 in1024.0 mb 0.00 in0.0 mm 0.00 in0.0 mm 0.00 in0.0 mm
08:37 AM 42.6°F5.9°C 40.5°F4.7°C 92% Calm Calm -- 30.24 in1024.0 mb 0.00 in0.0 mm 0.00 in0.0 mm 0.00 in0.0 mm
08:38 AM 42.8°F6.0°C 40.6°F4.8°C 92% Calm Calm -- 30.24 in1024.0 mb 0.00 in0.0 mm 0.00 in0.0 mm 0.00 in0.0 mm
08:39 AM 42.8°F6.0°C 40.6°F4.8°C 92% Calm Calm -- 30.24 in1024.0 mb 0.00 in0.0 mm 0.00 in0.0 mm 0.00 in0.0 mm
08:40 AM 42.8°F6.0°C 40.6°F4.8°C 92% Calm Calm -- 30.24 in1024.0 mb 0.00 in0.0 mm 0.00 in0.0 mm 0.00 in0.0 mm
08:41 AM 42.8°F6.0°C 40.6°F4.8°C 92% Calm Calm -- 30.24 in1024.0 mb 0.00 in0.0 mm 0.00 in0.0 mm 0.00 in0.0 mm
08:42 AM 42.8°F6.0°C 40.6°F4.8°C 92% Calm Calm -- 30.24 in1024.0 mb 0.00 in0.0 mm 0.00 in0.0 mm 0.00 in0.0 mm
08:43 AM 43.7°F6.5°C 41.5°F5.3°C 92% Calm Calm -- 30.24 in1024.0 mb 0.00 in0.0 mm 0.00 in0.0 mm 0.00 in0.0 mm
08:44 AM 44.4°F6.9°C 42.2°F5.7°C 92% Calm Calm -- 30.24 in1024.0 mb 0.00 in0.0 mm 0.00 in0.0 mm 0.00 in0.0 mm
08:45 AM 45.0°F7.2°C 42.8°F6.0°C 92% Calm Calm -- 30.24 in1024.0 mb 0.00 in0.0 mm 0.00 in0.0 mm 0.00 in0.0 mm
08:46 AM 48.2°F9.0°C 46.0°F7.8°C 92% Calm Calm -- 30.24 in1024.0 mb 0.00 in0.0 mm 0.00 in0.0 mm 0.00 in0.0 mm
08:47 AM 48.4°F9.1°C 46.2°F7.9°C 92% Calm Calm -- 30.24 in1024.0 mb 0.00 in0.0 mm 0.00 in0.0 mm 0.00 in0.0 mm
08:48 AM 49.5°F9.7°C 47.2°F8.4°C 92% Calm Calm -- 30.24 in1024.0 mb 0.00 in0.0 mm 0.00 in0.0 mm 0.00 in0.0 mm
08:49 AM 51.4°F10.8°C 49.2°F9.6°C 92% Calm Calm -- 30.24 in1024.0 mb 0.00 in0.0 mm 0.00 in0.0 mm 0.00 in0.0 mm
08:50 AM 52.0°F11.1°C 49.7°F9.8°C 92% Calm Calm -- 30.24 in1024.0 mb 0.00 in0.0 mm 0.00 in0.0 mm 0.00 in0.0 mm
08:51 AM 52.3°F11.3°C 50.1°F10.1°C 92% Calm Calm -- 30.24 in1024.0 mb 0.00 in0.0 mm 0.00 in0.0 mm 0.00 in0.0 mm
08:52 AM 52.7°F11.5°C 50.4°F10.2°C 92% Calm Calm -- 30.24 in1024.0 mb 0.00 in0.0 mm 0.00 in0.0 mm 0.00 in0.0 mm
08:53 AM 53.1°F11.7°C 50.8°F10.4°C 92% 1.1 mph ESE1.8 kmh ESE 1.1 mph1.8 kmh 30.24 in1024.0 mb 0.00 in0.0 mm 0.00 in0.0 mm 0.00 in0.0 mm
08:54 AM 54.0°F12.2°C 51.7°F10.9°C 92% Calm Calm 1.1 mph1.8 kmh 30.24 in1024.0 mb 0.00 in0.0 mm 0.00 in0.0 mm 0.00 in0.0 mm
08:55 AM 54.5°F12.5°C 52.2°F11.2°C 92% 1.7 mph SE2.7 kmh SE 2.2 mph3.5 kmh 30.24 in1024.0 mb 0.00 in0.0 mm 0.00 in0.0 mm 0.00 in0.0 mm
08:56 AM 54.3°F12.4°C 52.0°F11.1°C 92% Calm Calm 2.2 mph3.5 kmh 30.24 in1024.0 mb 0.00 in0.0 mm 0.00 in0.0 mm 0.00 in0.0 mm
08:57 AM 54.3°F12.4°C 52.0°F11.1°C 92% Calm Calm 2.2 mph3.5 kmh 30.24 in1024.0 mb 0.00 in0.0 mm 0.00 in0.0 mm 0.00 in0.0 mm
08:58 AM 56.3°F13.5°C 54.0°F12.2°C 92% Calm Calm 2.2 mph3.5 kmh 30.24 in1024.0 mb 0.00 in0.0 mm 0.00 in0.0 mm 0.00 in0.0 mm
08:59 AM 57.7°F14.3°C 55.4°F13.0°C 92% 1.1 mph ESE1.8 kmh ESE 2.2 mph3.5 kmh 30.24 in1024.0 mb 0.00 in0.0 mm 0.00 in0.0 mm 0.00 in0.0 mm
09:00 AM 57.6°F14.2°C 55.3°F12.9°C 92% Calm Calm 2.2 mph3.5 kmh 30.24 in1024.0 mb 0.00 in0.0 mm 0.00 in0.0 mm 0.00 in0.0 mm
09:01 AM 58.1°F14.5°C 55.8°F13.2°C 92% 2.2 mph E3.5 kmh E 2.2 mph3.5 kmh 30.24 in1024.0 mb 0.00 in0.0 mm 0.00 in0.0 mm 0.00 in0.0 mm
09:02 AM 58.5°F14.7°C 56.1°F13.4°C 92% 1.1 mph E1.8 kmh E 2.2 mph3.5 kmh 30.24 in1024.0 mb 0.00 in0.0 mm 0.00 in0.0 mm 0.00 in0.0 mm
09:03 AM 58.5°F14.7°C 56.1°F13.4°C 92% 1.7 mph ESE2.7 kmh ESE 2.2 mph3.5 kmh 30.24 in1024.0 mb 0.00 in0.0 mm 0.00 in0.0 mm 0.00 in0.0 mm
09:04 AM 58.8°F14.9°C 56.5°F13.6°C 92% 1.7 mph ESE2.7 kmh ESE 2.2 mph3.5 kmh 30.24 in1024.0 mb 0.00 in0.0 mm 0.00 in0.0 mm 0.00 in0.0 mm
09:05 AM 59.0°F15.0°C 56.7°F13.7°C 92% 2.7 mph ESE4.3 kmh ESE 2.7 mph4.3 kmh 30.24 in1024.0 mb 0.00 in0.0 mm 0.00 in0.0 mm 0.00 in0.0 mm
09:06 AM 60.3°F15.7°C 57.9°F14.4°C 92% 1.1 mph ENE1.8 kmh ENE 2.7 mph4.3 kmh 30.24 in1024.0 mb 0.00 in0.0 mm 0.00 in0.0 mm 0.00 in0.0 mm
09:07 AM 60.6°F15.9°C 58.3°F14.6°C 92% 1.7 mph ESE2.7 kmh ESE 2.7 mph4.3 kmh 30.24 in1024.0 mb 0.00 in0.0 mm 0.00 in0.0 mm 0.00 in0.0 mm
09:08 AM 60.6°F15.9°C 58.3°F14.6°C 92% Calm Calm 2.7 mph4.3 kmh 30.24 in1024.0 mb 0.00 in0.0 mm 0.00 in0.0 mm 0.00 in0.0 mm
09:09 AM 60.8°F16.0°C 58.5°F14.7°C 92% Calm Calm 2.7 mph4.3 kmh 30.24 in1024.0 mb 0.00 in0.0 mm 0.00 in0.0 mm 0.00 in0.0 mm
09:10 AM 61.7°F16.5°C 59.3°F15.2°C 92% Calm Calm 2.7 mph4.3 kmh 30.24 in1024.0 mb 0.00 in0.0 mm 0.00 in0.0 mm 0.00 in0.0 mm
09:11 AM 63.0°F17.2°C 60.6°F15.9°C 92% Calm Calm 2.7 mph4.3 kmh 30.24 in1024.0 mb 0.00 in0.0 mm 0.00 in0.0 mm 0.00 in0.0 mm
09:12 AM 63.3°F17.4°C 61.0°F16.1°C 92% 1.1 mph ESE1.8 kmh ESE 2.7 mph4.3 kmh 30.24 in1024.0 mb 0.00 in0.0 mm 0.00 in0.0 mm 0.00 in0.0 mm
09:13 AM 57.6°F14.2°C 53.4°F11.9°C 86% 1.7 mph ESE2.7 kmh ESE 2.7 mph4.3 kmh 30.25 in1024.4 mb 0.00 in0.0 mm 0.00 in0.0 mm 0.00 in0.0 mm
09:14 AM 56.8°F13.8°C 52.4°F11.3°C 85% Calm Calm 2.7 mph4.3 kmh 30.25 in1024.4 mb 0.00 in0.0 mm 0.00 in0.0 mm 0.00 in0.0 mm
09:15 AM 56.3°F13.5°C 51.2°F10.7°C 83% 1.7 mph ESE2.7 kmh ESE 2.7 mph4.3 kmh 30.25 in1024.4 mb 0.00 in0.0 mm 0.00 in0.0 mm 0.00 in0.0 mm
09:16 AM 56.3°F13.5°C 51.2°F10.7°C 83% Calm Calm 2.7 mph4.3 kmh 30.25 in1024.4 mb 0.00 in0.0 mm 0.00 in0.0 mm 0.00 in0.0 mm
09:17 AM 56.5°F13.6°C 51.1°F10.6°C 82% 2.2 mph ESE3.5 kmh ESE 2.7 mph4.3 kmh 30.25 in1024.4 mb 0.00 in0.0 mm 0.00 in0.0 mm 0.00 in0.0 mm
09:18 AM 56.7°F13.7°C 51.2°F10.7°C 82% Calm Calm 2.7 mph4.3 kmh 30.25 in1024.4 mb 0.00 in0.0 mm 0.00 in0.0 mm 0.00 in0.0 mm
09:19 AM 56.8°F13.8°C 51.4°F10.8°C 82% 1.7 mph ENE2.7 kmh ENE 2.7 mph4.3 kmh 30.25 in1024.4 mb 0.00 in0.0 mm 0.00 in0.0 mm 0.00 in0.0 mm
09:20 AM 56.8°F13.8°C 51.4°F10.8°C 82% Calm Calm 2.7 mph4.3 kmh 30.25 in1024.4 mb 0.00 in0.0 mm 0.00 in0.0 mm 0.00 in0.0 mm
09:21 AM 57.0°F13.9°C 51.2°F10.7°C 81% Calm Calm 2.7 mph4.3 kmh 30.25 in1024.4 mb 0.00 in0.0 mm 0.00 in0.0 mm 0.00 in0.0 mm
09:22 AM 57.0°F13.9°C 51.2°F10.7°C 81% 1.1 mph ESE1.8 kmh ESE 2.7 mph4.3 kmh 30.25 in1024.4 mb 0.00 in0.0 mm 0.00 in0.0 mm 0.00 in0.0 mm
09:23 AM 57.0°F13.9°C 50.9°F10.5°C 80% 1.1 mph ESE1.8 kmh ESE 2.7 mph4.3 kmh 30.25 in1024.4 mb 0.00 in0.0 mm 0.00 in0.0 mm 0.00 in0.0 mm
09:24 AM 57.4°F14.1°C 50.9°F10.5°C 79% 1.1 mph ESE1.8 kmh ESE 2.7 mph4.3 kmh 30.25 in1024.4 mb 0.00 in0.0 mm 0.00 in0.0 mm 0.00 in0.0 mm
09:25 AM 57.4°F14.1°C 50.9°F10.5°C 79% 1.7 mph E2.7 kmh E 2.7 mph4.3 kmh 30.26 in1024.7 mb 0.00 in0.0 mm 0.00 in0.0 mm 0.00 in0.0 mm
09:26 AM 57.6°F14.2°C 51.1°F10.6°C 79% 2.7 mph ESE4.3 kmh ESE 2.7 mph4.3 kmh 30.26 in1024.7 mb 0.00 in0.0 mm 0.00 in0.0 mm 0.00 in0.0 mm
09:27 AM 57.4°F14.1°C 50.9°F10.5°C 79% 1.7 mph ESE2.7 kmh ESE 2.7 mph4.3 kmh 30.26 in1024.7 mb 0.00 in0.0 mm 0.00 in0.0 mm 0.00 in0.0 mm
09:28 AM 57.7°F14.3°C 51.3°F10.7°C 79% Calm Calm 2.7 mph4.3 kmh 30.26 in1024.7 mb 0.00 in0.0 mm 0.00 in0.0 mm 0.00 in0.0 mm
09:29 AM 57.9°F14.4°C 51.4°F10.8°C 79% Calm Calm 2.7 mph4.3 kmh 30.26 in1024.7 mb 0.00 in0.0 mm 0.00 in0.0 mm 0.00 in0.0 mm
09:30 AM 58.1°F14.5°C 51.3°F10.7°C 78% Calm Calm 2.7 mph4.3 kmh 30.26 in1024.7 mb 0.00 in0.0 mm 0.00 in0.0 mm 0.00 in0.0 mm
09:31 AM 58.1°F14.5°C 51.3°F10.7°C 78% 1.7 mph SSE2.7 kmh SSE 2.7 mph4.3 kmh 30.26 in1024.7 mb 0.00 in0.0 mm 0.00 in0.0 mm 0.00 in0.0 mm
09:32 AM 58.1°F14.5°C 51.3°F10.7°C 78% Calm Calm 2.7 mph4.3 kmh 30.26 in1024.7 mb 0.00 in0.0 mm 0.00 in0.0 mm 0.00 in0.0 mm
09:33 AM 58.5°F14.7°C 52.0°F11.1°C 79% Calm Calm 2.7 mph4.3 kmh 30.26 in1024.7 mb 0.00 in0.0 mm 0.00 in0.0 mm 0.00 in0.0 mm
09:34 AM 58.6°F14.8°C 51.4°F10.8°C 77% 1.1 mph ESE1.8 kmh ESE 2.7 mph4.3 kmh 30.26 in1024.7 mb 0.00 in0.0 mm 0.00 in0.0 mm 0.00 in0.0 mm
09:35 AM 58.8°F14.9°C 51.6°F10.9°C 77% 1.1 mph NE1.8 kmh NE 2.7 mph4.3 kmh 30.26 in1024.7 mb 0.00 in0.0 mm 0.00 in0.0 mm 0.00 in0.0 mm
09:36 AM 59.0°F15.0°C 51.8°F11.0°C 77% Calm Calm 2.7 mph4.3 kmh 30.26 in1024.7 mb 0.00 in0.0 mm 0.00 in0.0 mm 0.00 in0.0 mm
09:37 AM 59.0°F15.0°C 51.8°F11.0°C 77% Calm Calm 2.2 mph3.5 kmh 30.27 in1025.1 mb 0.00 in0.0 mm 0.00 in0.0 mm 0.00 in0.0 mm
09:38 AM 59.2°F15.1°C 51.6°F10.9°C 76% 1.7 mph ESE2.7 kmh ESE 2.2 mph3.5 kmh 30.27 in1025.1 mb 0.00 in0.0 mm 0.00 in0.0 mm 0.00 in0.0 mm
09:39 AM 59.4°F15.2°C 51.8°F11.0°C 76% 1.1 mph ESE1.8 kmh ESE 2.2 mph3.5 kmh 30.27 in1025.1 mb 0.00 in0.0 mm 0.00 in0.0 mm 0.00 in0.0 mm
09:40 AM 59.4°F15.2°C 51.8°F11.0°C 76% 2.2 mph ESE3.5 kmh ESE 2.2 mph3.5 kmh 30.27 in1025.1 mb 0.00 in0.0 mm 0.00 in0.0 mm 0.00 in0.0 mm
09:41 AM 59.2°F15.1°C 51.6°F10.9°C 76% 1.7 mph NNE2.7 kmh NNE 2.2 mph3.5 kmh 30.27 in1025.1 mb 0.00 in0.0 mm 0.00 in0.0 mm 0.00 in0.0 mm
09:42 AM 59.2°F15.1°C 51.6°F10.9°C 76% Calm Calm 2.2 mph3.5 kmh 30.27 in1025.1 mb 0.00 in0.0 mm 0.00 in0.0 mm 0.00 in0.0 mm
09:43 AM 59.4°F15.2°C 51.8°F11.0°C 76% Calm Calm 2.2 mph3.5 kmh 30.27 in1025.1 mb 0.00 in0.0 mm 0.00 in0.0 mm 0.00 in0.0 mm
09:44 AM 59.7°F15.4°C 51.8°F11.0°C 75% 2.7 mph ESE4.3 kmh ESE 2.7 mph4.3 kmh 30.27 in1025.1 mb 0.00 in0.0 mm 0.00 in0.0 mm 0.00 in0.0 mm
09:45 AM 59.9°F15.5°C 52.0°F11.1°C 75% Calm Calm 2.7 mph4.3 kmh 30.27 in1025.1 mb 0.00 in0.0 mm 0.00 in0.0 mm 0.00 in0.0 mm
09:46 AM 59.9°F15.5°C 52.0°F11.1°C 75% 1.1 mph ESE1.8 kmh ESE 2.7 mph4.3 kmh 30.27 in1025.1 mb 0.00 in0.0 mm 0.00 in0.0 mm 0.00 in0.0 mm
09:47 AM 59.9°F15.5°C 52.0°F11.1°C 75% Calm Calm 2.7 mph4.3 kmh 30.27 in1025.1 mb 0.00 in0.0 mm 0.00 in0.0 mm 0.00 in0.0 mm
09:48 AM 60.3°F15.7°C 52.3°F11.3°C 75% Calm Calm 2.7 mph4.3 kmh 30.27 in1025.1 mb 0.00 in0.0 mm 0.00 in0.0 mm 0.00 in0.0 mm
09:49 AM 60.1°F15.6°C 52.1°F11.2°C 75% Calm Calm 2.7 mph4.3 kmh 30.27 in1025.1 mb 0.00 in0.0 mm 0.00 in0.0 mm 0.00 in0.0 mm
09:50 AM 59.9°F15.5°C 52.0°F11.1°C 75% 1.1 mph ESE1.8 kmh ESE 2.7 mph4.3 kmh 30.27 in1025.1 mb 0.00 in0.0 mm 0.00 in0.0 mm 0.00 in0.0 mm
09:51 AM 60.4°F15.8°C 52.1°F11.2°C 74% Calm Calm 2.7 mph4.3 kmh 30.27 in1025.1 mb 0.00 in0.0 mm 0.00 in0.0 mm 0.00 in0.0 mm
09:52 AM 60.4°F15.8°C 52.1°F11.2°C 74% 1.7 mph ESE2.7 kmh ESE 2.7 mph4.3 kmh 30.27 in1025.1 mb 0.00 in0.0 mm 0.00 in0.0 mm 0.00 in0.0 mm
09:53 AM 60.8°F16.0°C 52.5°F11.4°C 74% Calm Calm 2.7 mph4.3 kmh 30.27 in1025.1 mb 0.00 in0.0 mm 0.00 in0.0 mm 0.00 in0.0 mm
09:54 AM 61.0°F16.1°C 53.0°F11.7°C 75% Calm Calm 2.7 mph4.3 kmh 30.27 in1025.1 mb 0.00 in0.0 mm 0.00 in0.0 mm 0.00 in0.0 mm
09:55 AM 61.0°F16.1°C 53.0°F11.7°C 75% Calm Calm 1.7 mph2.7 kmh 30.27 in1025.1 mb 0.00 in0.0 mm 0.00 in0.0 mm 0.00 in0.0 mm
09:56 AM 61.2°F16.2°C 52.8°F11.6°C 74% 1.7 mph ESE2.7 kmh ESE 1.7 mph2.7 kmh 30.27 in1025.1 mb 0.00 in0.0 mm 0.00 in0.0 mm 0.00 in0.0 mm
09:57 AM 61.3°F16.3°C 53.3°F11.8°C 75% 1.7 mph ESE2.7 kmh ESE 2.2 mph3.5 kmh 30.27 in1025.1 mb 0.00 in0.0 mm 0.00 in0.0 mm 0.00 in0.0 mm
09:58 AM 61.2°F16.2°C 52.4°F11.3°C 73% 2.2 mph ESE3.5 kmh ESE 2.2 mph3.5 kmh 30.27 in1025.1 mb 0.00 in0.0 mm 0.00 in0.0 mm 0.00 in0.0 mm
09:59 AM 61.2°F16.2°C 52.1°F11.2°C 72% 2.2 mph ESE3.5 kmh ESE 2.7 mph4.3 kmh 30.27 in1025.1 mb 0.00 in0.0 mm 0.00 in0.0 mm 0.00 in0.0 mm
10:00 AM 61.2°F16.2°C 52.1°F11.2°C 72% 2.7 mph N4.3 kmh N 2.7 mph4.3 kmh 30.27 in1025.1 mb 0.00 in0.0 mm 0.00 in0.0 mm 0.00 in0.0 mm
10:01 AM 61.2°F16.2°C 52.1°F11.2°C 72% Calm Calm 2.7 mph4.3 kmh 30.27 in1025.1 mb 0.00 in0.0 mm 0.00 in0.0 mm 0.00 in0.0 mm
10:02 AM 61.3°F16.3°C 52.2°F11.2°C 72% 2.2 mph NNE3.5 kmh NNE 2.7 mph4.3 kmh 30.27 in1025.1 mb 0.00 in0.0 mm 0.00 in0.0 mm 0.00 in0.0 mm
10:03 AM 61.7°F16.5°C 52.6°F11.4°C 72% 2.7 mph ESE4.3 kmh ESE 2.7 mph4.3 kmh 30.27 in1025.1 mb 0.00 in0.0 mm 0.00 in0.0 mm 0.00 in0.0 mm
10:04 AM 61.7°F16.5°C 52.6°F11.4°C 72% 2.7 mph ESE4.3 kmh ESE 2.7 mph4.3 kmh 30.27 in1025.1 mb 0.00 in0.0 mm 0.00 in0.0 mm 0.00 in0.0 mm
10:05 AM 61.9°F16.6°C 52.8°F11.6°C 72% Calm Calm 2.7 mph4.3 kmh 30.27 in1025.1 mb 0.00 in0.0 mm 0.00 in0.0 mm 0.00 in0.0 mm
10:06 AM 62.1°F16.7°C 53.3°F11.8°C 73% Calm Calm 2.7 mph4.3 kmh 30.27 in1025.1 mb 0.00 in0.0 mm 0.00 in0.0 mm 0.00 in0.0 mm
10:07 AM 62.1°F16.7°C 52.9°F11.6°C 72% 1.1 mph SE1.8 kmh SE 2.7 mph4.3 kmh 30.27 in1025.1 mb 0.00 in0.0 mm 0.00 in0.0 mm 0.00 in0.0 mm
10:08 AM 61.9°F16.6°C 52.8°F11.6°C 72% 2.2 mph NW3.5 kmh NW 2.7 mph4.3 kmh 30.27 in1025.1 mb 0.00 in0.0 mm 0.00 in0.0 mm 0.00 in0.0 mm
10:09 AM 62.2°F16.8°C 53.1°F11.7°C 72% 1.1 mph ESE1.8 kmh ESE 2.7 mph4.3 kmh 30.27 in1025.1 mb 0.00 in0.0 mm 0.00 in0.0 mm 0.00 in0.0 mm
10:10 AM 62.4°F16.9°C 53.3°F11.8°C 72% Calm Calm 2.7 mph4.3 kmh 30.27 in1025.1 mb 0.00 in0.0 mm 0.00 in0.0 mm 0.00 in0.0 mm
10:11 AM 62.6°F17.0°C 53.8°F12.1°C 73% 1.1 mph ESE1.8 kmh ESE 2.7 mph4.3 kmh 30.27 in1025.1 mb 0.00 in0.0 mm 0.00 in0.0 mm 0.00 in0.0 mm
10:12 AM 62.6°F17.0°C 53.4°F11.9°C 72% Calm Calm 2.7 mph4.3 kmh 30.27 in1025.1 mb 0.00 in0.0 mm 0.00 in0.0 mm 0.00 in0.0 mm
10:13 AM 62.8°F17.1°C 53.2°F11.8°C 71% 2.7 mph ESE4.3 kmh ESE 2.7 mph4.3 kmh 30.27 in1025.1 mb 0.00 in0.0 mm 0.00 in0.0 mm 0.00 in0.0 mm
10:14 AM 63.0°F17.2°C 53.0°F11.7°C 70% Calm Calm 2.7 mph4.3 kmh 30.27 in1025.1 mb 0.00 in0.0 mm 0.00 in0.0 mm 0.00 in0.0 mm
10:15 AM 63.1°F17.3°C 53.2°F11.8°C 70% 2.2 mph ESE3.5 kmh ESE 2.7 mph4.3 kmh 30.27 in1025.1 mb 0.00 in0.0 mm 0.00 in0.0 mm 0.00 in0.0 mm
10:16 AM 63.5°F17.5°C 52.7°F11.5°C 68% 2.7 mph ESE4.3 kmh ESE 3.2 mph5.1 kmh 30.27 in1025.1 mb 0.00 in0.0 mm 0.00 in0.0 mm 0.00 in0.0 mm
10:17 AM 63.5°F17.5°C 52.7°F11.5°C 68% 3.2 mph ESE5.1 kmh ESE 3.2 mph5.1 kmh 30.27 in1025.1 mb 0.00 in0.0 mm 0.00 in0.0 mm 0.00 in0.0 mm
10:18 AM 63.5°F17.5°C 52.7°F11.5°C 68% 2.7 mph ESE4.3 kmh ESE 3.2 mph5.1 kmh 30.27 in1025.1 mb 0.00 in0.0 mm 0.00 in0.0 mm 0.00 in0.0 mm
10:19 AM 63.7°F17.6°C 52.9°F11.6°C 68% 3.2 mph ESE5.1 kmh ESE 3.7 mph6.0 kmh 30.27 in1025.1 mb 0.00 in0.0 mm 0.00 in0.0 mm 0.00 in0.0 mm
10:20 AM 63.7°F17.6°C 52.5°F11.4°C 67% 3.2 mph ESE5.1 kmh ESE 4.7 mph7.6 kmh 30.27 in1025.1 mb 0.00 in0.0 mm 0.00 in0.0 mm 0.00 in0.0 mm
10:21 AM 63.7°F17.6°C 52.5°F11.4°C 67% 3.2 mph SSE5.1 kmh SSE 4.7 mph7.6 kmh 30.27 in1025.1 mb 0.00 in0.0 mm 0.00 in0.0 mm 0.00 in0.0 mm
10:22 AM 63.7°F17.6°C 52.5°F11.4°C 67% 2.2 mph ESE3.5 kmh ESE 4.7 mph7.6 kmh 30.27 in1025.1 mb 0.00 in0.0 mm 0.00 in0.0 mm 0.00 in0.0 mm
10:23 AM 63.7°F17.6°C 52.9°F11.6°C 68% 2.2 mph ENE3.5 kmh ENE 4.7 mph7.6 kmh 30.27 in1025.1 mb 0.00 in0.0 mm 0.00 in0.0 mm 0.00 in0.0 mm
10:24 AM 63.9°F17.7°C 53.1°F11.7°C 68% 3.7 mph ESE6.0 kmh ESE 4.7 mph7.6 kmh 30.27 in1025.1 mb 0.00 in0.0 mm 0.00 in0.0 mm 0.00 in0.0 mm
10:25 AM 64.0°F17.8°C 53.3°F11.8°C 68% 1.7 mph ESE2.7 kmh ESE 4.7 mph7.6 kmh 30.27 in1025.1 mb 0.00 in0.0 mm 0.00 in0.0 mm 0.00 in0.0 mm
10:26 AM 63.9°F17.7°C 53.1°F11.7°C 68% 2.2 mph ESE3.5 kmh ESE 4.7 mph7.6 kmh 30.27 in1025.1 mb 0.00 in0.0 mm 0.00 in0.0 mm 0.00 in0.0 mm
10:27 AM 64.0°F17.8°C 53.3°F11.8°C 68% 2.2 mph ESE3.5 kmh ESE 4.7 mph7.6 kmh 30.27 in1025.1 mb 0.00 in0.0 mm 0.00 in0.0 mm 0.00 in0.0 mm
10:28 AM 64.4°F18.0°C 53.6°F12.0°C 68% 3.2 mph SE5.1 kmh SE 4.7 mph7.6 kmh 30.27 in1025.1 mb 0.00 in0.0 mm 0.00 in0.0 mm 0.00 in0.0 mm
10:29 AM 64.4°F18.0°C 53.2°F11.8°C 67% 3.7 mph SE6.0 kmh SE 4.7 mph7.6 kmh 30.27 in1025.1 mb 0.00 in0.0 mm 0.00 in0.0 mm 0.00 in0.0 mm
10:30 AM 64.4°F18.0°C 53.2°F11.8°C 67% 1.1 mph ESE1.8 kmh ESE 4.7 mph7.6 kmh 30.27 in1025.1 mb 0.00 in0.0 mm 0.00 in0.0 mm 0.00 in0.0 mm
10:31 AM 64.6°F18.1°C 53.4°F11.9°C 67% 1.1 mph ESE1.8 kmh ESE 4.7 mph7.6 kmh 30.27 in1025.1 mb 0.00 in0.0 mm 0.00 in0.0 mm 0.00 in0.0 mm
10:32 AM 64.6°F18.1°C 53.4°F11.9°C 67% 1.7 mph ESE2.7 kmh ESE 4.7 mph7.6 kmh 30.27 in1025.1 mb 0.00 in0.0 mm 0.00 in0.0 mm 0.00 in0.0 mm
10:33 AM 64.6°F18.1°C 53.4°F11.9°C 67% 2.7 mph ESE4.3 kmh ESE 4.7 mph7.6 kmh 30.27 in1025.1 mb 0.00 in0.0 mm 0.00 in0.0 mm 0.00 in0.0 mm
10:34 AM 64.9°F18.3°C 53.3°F11.8°C 66% 3.7 mph ESE6.0 kmh ESE 4.7 mph7.6 kmh 30.27 in1025.1 mb 0.00 in0.0 mm 0.00 in0.0 mm 0.00 in0.0 mm
10:35 AM 65.1°F18.4°C 53.5°F11.9°C 66% 3.7 mph ESE6.0 kmh ESE 3.7 mph6.0 kmh 30.27 in1025.1 mb 0.00 in0.0 mm 0.00 in0.0 mm 0.00 in0.0 mm
10:36 AM 64.9°F18.3°C 52.5°F11.4°C 64% 2.2 mph E3.5 kmh E 4.2 mph6.8 kmh 30.27 in1025.1 mb 0.00 in0.0 mm 0.00 in0.0 mm 0.00 in0.0 mm
10:37 AM 65.1°F18.4°C 53.1°F11.7°C 65% 2.2 mph ESE3.5 kmh ESE 4.2 mph6.8 kmh 30.27 in1025.1 mb 0.00 in0.0 mm 0.00 in0.0 mm 0.00 in0.0 mm
10:38 AM 65.3°F18.5°C 53.6°F12.0°C 66% 2.2 mph ESE3.5 kmh ESE 4.2 mph6.8 kmh 30.27 in1025.1 mb 0.00 in0.0 mm 0.00 in0.0 mm 0.00 in0.0 mm
10:39 AM 65.5°F18.6°C 53.8°F12.1°C 66% 1.7 mph ESE2.7 kmh ESE 4.2 mph6.8 kmh 30.27 in1025.1 mb 0.00 in0.0 mm 0.00 in0.0 mm 0.00 in0.0 mm
10:40 AM 65.5°F18.6°C 53.0°F11.7°C 64% 3.2 mph SE5.1 kmh SE 4.2 mph6.8 kmh 30.27 in1025.1 mb 0.00 in0.0 mm 0.00 in0.0 mm 0.00 in0.0 mm
10:41 AM 65.3°F18.5°C 52.8°F11.6°C 64% 2.7 mph SSE4.3 kmh SSE 4.2 mph6.8 kmh 30.27 in1025.1 mb 0.00 in0.0 mm 0.00 in0.0 mm 0.00 in0.0 mm
10:42 AM 65.7°F18.7°C 53.6°F12.0°C 65% Calm Calm 4.2 mph6.8 kmh 30.27 in1025.1 mb 0.00 in0.0 mm 0.00 in0.0 mm 0.00 in0.0 mm
10:43 AM 65.8°F18.8°C 53.3°F11.8°C 64% 3.7 mph ESE6.0 kmh ESE 4.2 mph6.8 kmh 30.27 in1025.1 mb 0.00 in0.0 mm 0.00 in0.0 mm 0.00 in0.0 mm
10:44 AM 66.0°F18.9°C 53.1°F11.7°C 63% 4.2 mph ESE6.8 kmh ESE 4.2 mph6.8 kmh 30.27 in1025.1 mb 0.00 in0.0 mm 0.00 in0.0 mm 0.00 in0.0 mm
10:45 AM 65.7°F18.7°C 52.7°F11.5°C 63% 2.2 mph ESE3.5 kmh ESE 4.2 mph6.8 kmh 30.27 in1025.1 mb 0.00 in0.0 mm 0.00 in0.0 mm 0.00 in0.0 mm
10:46 AM 65.7°F18.7°C 52.7°F11.5°C 63% 1.7 mph SE2.7 kmh SE 4.2 mph6.8 kmh 30.27 in1025.1 mb 0.00 in0.0 mm 0.00 in0.0 mm 0.00 in0.0 mm
10:47 AM 65.8°F18.8°C 52.9°F11.6°C 63% Calm Calm 4.2 mph6.8 kmh 30.27 in1025.1 mb 0.00 in0.0 mm 0.00 in0.0 mm 0.00 in0.0 mm
10:48 AM 66.2°F19.0°C 53.2°F11.8°C 63% Calm Calm 4.2 mph6.8 kmh 30.27 in1025.1 mb 0.00 in0.0 mm 0.00 in0.0 mm 0.00 in0.0 mm
10:49 AM 66.4°F19.1°C 53.4°F11.9°C 63% 1.7 mph ESE2.7 kmh ESE 4.2 mph6.8 kmh 30.26 in1024.7 mb 0.00 in0.0 mm 0.00 in0.0 mm 0.00 in0.0 mm
10:50 AM 66.6°F19.2°C 53.6°F12.0°C 63% Calm Calm 4.2 mph6.8 kmh 30.26 in1024.7 mb 0.00 in0.0 mm 0.00 in0.0 mm 0.00 in0.0 mm
10:51 AM 66.7°F19.3°C 53.3°F11.8°C 62% 1.1 mph ESE1.8 kmh ESE 4.2 mph6.8 kmh 30.26 in1024.7 mb 0.00 in0.0 mm 0.00 in0.0 mm 0.00 in0.0 mm
10:52 AM 66.6°F19.2°C 53.1°F11.7°C 62% 2.2 mph ESE3.5 kmh ESE 4.2 mph6.8 kmh 30.26 in1024.7 mb 0.00 in0.0 mm 0.00 in0.0 mm 0.00 in0.0 mm
10:53 AM 66.9°F19.4°C 53.9°F12.2°C 63% 1.7 mph ESE2.7 kmh ESE 4.2 mph6.8 kmh 30.26 in1024.7 mb 0.00 in0.0 mm 0.00 in0.0 mm 0.00 in0.0 mm
10:54 AM 66.7°F19.3°C 53.3°F11.8°C 62% Calm Calm 4.2 mph6.8 kmh 30.26 in1024.7 mb 0.00 in0.0 mm 0.00 in0.0 mm 0.00 in0.0 mm
10:55 AM 66.9°F19.4°C 53.5°F11.9°C 62% 1.7 mph NE2.7 kmh NE 4.2 mph6.8 kmh 30.26 in1024.7 mb 0.00 in0.0 mm 0.00 in0.0 mm 0.00 in0.0 mm
10:56 AM 67.3°F19.6°C 53.8°F12.1°C 62% 3.7 mph ESE6.0 kmh ESE 4.2 mph6.8 kmh 30.26 in1024.7 mb 0.00 in0.0 mm 0.00 in0.0 mm 0.00 in0.0 mm
10:57 AM 67.5°F19.7°C 54.0°F12.2°C 62% 1.7 mph ESE2.7 kmh ESE 4.2 mph6.8 kmh 30.26 in1024.7 mb 0.00 in0.0 mm 0.00 in0.0 mm 0.00 in0.0 mm
10:58 AM 67.3°F19.6°C 53.8°F12.1°C 62% 1.7 mph ESE2.7 kmh ESE 4.2 mph6.8 kmh 30.26 in1024.7 mb 0.00 in0.0 mm 0.00 in0.0 mm 0.00 in0.0 mm
10:59 AM 67.3°F19.6°C 53.8°F12.1°C 62% 2.2 mph ESE3.5 kmh ESE 4.2 mph6.8 kmh 30.26 in1024.7 mb 0.00 in0.0 mm 0.00 in0.0 mm 0.00 in0.0 mm
11:00 AM 67.5°F19.7°C 53.5°F11.9°C 61% Calm Calm 4.2 mph6.8 kmh 30.26 in1024.7 mb 0.00 in0.0 mm 0.00 in0.0 mm 0.00 in0.0 mm
11:01 AM 67.8°F19.9°C 53.9°F12.2°C 61% 2.7 mph SSE4.3 kmh SSE 4.2 mph6.8 kmh 30.26 in1024.7 mb 0.00 in0.0 mm 0.00 in0.0 mm 0.00 in0.0 mm
11:02 AM 67.8°F19.9°C 53.4°F11.9°C 60% 2.2 mph ESE3.5 kmh ESE 4.2 mph6.8 kmh 30.26 in1024.7 mb 0.00 in0.0 mm 0.00 in0.0 mm 0.00 in0.0 mm
11:03 AM 68.0°F20.0°C 53.1°F11.7°C 59% 3.2 mph ENE5.1 kmh ENE 4.2 mph6.8 kmh 30.26 in1024.7 mb 0.00 in0.0 mm 0.00 in0.0 mm 0.00 in0.0 mm
11:04 AM 68.0°F20.0°C 53.1°F11.7°C 59% 1.1 mph ESE1.8 kmh ESE 4.2 mph6.8 kmh 30.26 in1024.7 mb 0.00 in0.0 mm 0.00 in0.0 mm 0.00 in0.0 mm
11:05 AM 68.0°F20.0°C 53.6°F12.0°C 60% 4.2 mph SE6.8 kmh SE 4.2 mph6.8 kmh 30.26 in1024.7 mb 0.00 in0.0 mm 0.00 in0.0 mm 0.00 in0.0 mm
11:06 AM 68.0°F20.0°C 53.1°F11.7°C 59% 2.7 mph ESE4.3 kmh ESE 4.7 mph7.6 kmh 30.26 in1024.7 mb 0.00 in0.0 mm 0.00 in0.0 mm 0.00 in0.0 mm
11:07 AM 68.0°F20.0°C 53.1°F11.7°C 59% 1.7 mph ESE2.7 kmh ESE 4.7 mph7.6 kmh 30.26 in1024.7 mb 0.00 in0.0 mm 0.00 in0.0 mm 0.00 in0.0 mm
11:08 AM 68.2°F20.1°C 53.3°F11.8°C 59% 1.1 mph SSE1.8 kmh SSE 4.7 mph7.6 kmh 30.26 in1024.7 mb 0.00 in0.0 mm 0.00 in0.0 mm 0.00 in0.0 mm
11:09 AM 68.5°F20.3°C 53.2°F11.8°C 58% 2.2 mph S3.5 kmh S 4.7 mph7.6 kmh 30.26 in1024.7 mb 0.00 in0.0 mm 0.00 in0.0 mm 0.00 in0.0 mm
11:10 AM 68.7°F20.4°C 53.3°F11.8°C 58% 1.7 mph ESE2.7 kmh ESE 4.7 mph7.6 kmh 30.26 in1024.7 mb 0.00 in0.0 mm 0.00 in0.0 mm 0.00 in0.0 mm
11:11 AM 68.7°F20.4°C 53.3°F11.8°C 58% 3.2 mph ESE5.1 kmh ESE 4.7 mph7.6 kmh 30.26 in1024.7 mb 0.00 in0.0 mm 0.00 in0.0 mm 0.00 in0.0 mm
11:12 AM 68.7°F20.4°C 53.3°F11.8°C 58% 3.2 mph SSE5.1 kmh SSE 4.7 mph7.6 kmh 30.26 in1024.7 mb 0.00 in0.0 mm 0.00 in0.0 mm 0.00 in0.0 mm
11:13 AM 68.9°F20.5°C 53.5°F11.9°C 58% 2.7 mph ESE4.3 kmh ESE 4.7 mph7.6 kmh 30.26 in1024.7 mb 0.00 in0.0 mm 0.00 in0.0 mm 0.00 in0.0 mm
11:14 AM 68.7°F20.4°C 52.9°F11.6°C 57% 2.7 mph ESE4.3 kmh ESE 4.7 mph7.6 kmh 30.26 in1024.7 mb 0.00 in0.0 mm 0.00 in0.0 mm 0.00 in0.0 mm
11:15 AM 68.7°F20.4°C 52.9°F11.6°C 57% 3.7 mph SE6.0 kmh SE 4.7 mph7.6 kmh 30.26 in1024.7 mb 0.00 in0.0 mm 0.00 in0.0 mm 0.00 in0.0 mm
11:16 AM 69.1°F20.6°C 53.2°F11.8°C 57% Calm Calm 3.7 mph6.0 kmh 30.26 in1024.7 mb 0.00 in0.0 mm 0.00 in0.0 mm 0.00 in0.0 mm
11:17 AM 69.1°F20.6°C 53.2°F11.8°C 57% 2.2 mph ESE3.5 kmh ESE 3.7 mph6.0 kmh 30.26 in1024.7 mb 0.00 in0.0 mm 0.00 in0.0 mm 0.00 in0.0 mm
11:18 AM 69.3°F20.7°C 53.4°F11.9°C 57% 3.7 mph SE6.0 kmh SE 3.7 mph6.0 kmh 30.26 in1024.7 mb 0.00 in0.0 mm 0.00 in0.0 mm 0.00 in0.0 mm
11:19 AM 69.1°F20.6°C 53.2°F11.8°C 57% 1.7 mph SSE2.7 kmh SSE 3.7 mph6.0 kmh 30.26 in1024.7 mb 0.00 in0.0 mm 0.00 in0.0 mm 0.00 in0.0 mm
11:20 AM 69.3°F20.7°C 53.4°F11.9°C 57% 3.2 mph SSE5.1 kmh SSE 4.2 mph6.8 kmh 30.26 in1024.7 mb 0.00 in0.0 mm 0.00 in0.0 mm 0.00 in0.0 mm
11:21 AM 69.1°F20.6°C 53.2°F11.8°C 57% 2.7 mph SSE4.3 kmh SSE 4.2 mph6.8 kmh 30.26 in1024.7 mb 0.00 in0.0 mm 0.00 in0.0 mm 0.00 in0.0 mm
11:22 AM 69.1°F20.6°C 53.7°F12.1°C 58% Calm Calm 4.2 mph6.8 kmh 30.26 in1024.7 mb 0.00 in0.0 mm 0.00 in0.0 mm 0.00 in0.0 mm
11:23 AM 69.3°F20.7°C 53.4°F11.9°C 57% 3.7 mph ESE6.0 kmh ESE 4.2 mph6.8 kmh 30.26 in1024.7 mb 0.00 in0.0 mm 0.00 in0.0 mm 0.00 in0.0 mm
11:24 AM 69.4°F20.8°C 53.1°F11.7°C 56% 4.2 mph E6.8 kmh E 4.7 mph7.6 kmh 30.26 in1024.7 mb 0.00 in0.0 mm 0.00 in0.0 mm 0.00 in0.0 mm
11:25 AM 69.3°F20.7°C 52.9°F11.6°C 56% Calm Calm 4.7 mph7.6 kmh 30.25 in1024.4 mb 0.00 in0.0 mm 0.00 in0.0 mm 0.00 in0.0 mm
11:26 AM 69.1°F20.6°C 53.2°F11.8°C 57% 1.7 mph ESE2.7 kmh ESE 4.7 mph7.6 kmh 30.25 in1024.4 mb 0.00 in0.0 mm 0.00 in0.0 mm 0.00 in0.0 mm
11:27 AM 69.4°F20.8°C 54.0°F12.2°C 58% 4.7 mph ESE7.6 kmh ESE 4.7 mph7.6 kmh 30.25 in1024.4 mb 0.00 in0.0 mm 0.00 in0.0 mm 0.00 in0.0 mm
11:28 AM 69.4°F20.8°C 53.5°F11.9°C 57% 1.7 mph ESE2.7 kmh ESE 4.7 mph7.6 kmh 30.25 in1024.4 mb 0.00 in0.0 mm 0.00 in0.0 mm 0.00 in0.0 mm
11:29 AM 69.1°F20.6°C 53.2°F11.8°C 57% 3.2 mph ESE5.1 kmh ESE 4.7 mph7.6 kmh 30.25 in1024.4 mb 0.00 in0.0 mm 0.00 in0.0 mm 0.00 in0.0 mm
11:30 AM 69.3°F20.7°C 52.9°F11.6°C 56% 3.2 mph SE5.1 kmh SE 4.7 mph7.6 kmh 30.25 in1024.4 mb 0.00 in0.0 mm 0.00 in0.0 mm 0.00 in0.0 mm
11:31 AM 69.4°F20.8°C 53.5°F11.9°C 57% 2.7 mph ESE4.3 kmh ESE 5.3 mph8.5 kmh 30.25 in1024.4 mb 0.00 in0.0 mm 0.00 in0.0 mm 0.00 in0.0 mm
11:32 AM 69.3°F20.7°C 53.4°F11.9°C 57% 3.7 mph ESE6.0 kmh ESE 5.3 mph8.5 kmh 30.25 in1024.4 mb 0.00 in0.0 mm 0.00 in0.0 mm 0.00 in0.0 mm
11:33 AM 69.1°F20.6°C 52.7°F11.5°C 56% 2.7 mph ESE4.3 kmh ESE 5.3 mph8.5 kmh 30.25 in1024.4 mb 0.00 in0.0 mm 0.00 in0.0 mm 0.00 in0.0 mm
11:34 AM 68.9°F20.5°C 53.0°F11.7°C 57% 4.2 mph ESE6.8 kmh ESE 5.3 mph8.5 kmh 30.25 in1024.4 mb 0.00 in0.0 mm 0.00 in0.0 mm 0.00 in0.0 mm
11:35 AM 68.9°F20.5°C 53.0°F11.7°C 57% 2.2 mph SSE3.5 kmh SSE 5.3 mph8.5 kmh 30.25 in1024.4 mb 0.00 in0.0 mm 0.00 in0.0 mm 0.00 in0.0 mm
11:36 AM 68.9°F20.5°C 53.0°F11.7°C 57% 2.2 mph ESE3.5 kmh ESE 5.3 mph8.5 kmh 30.25 in1024.4 mb 0.00 in0.0 mm 0.00 in0.0 mm 0.00 in0.0 mm
11:37 AM 69.1°F20.6°C 53.2°F11.8°C 57% 4.2 mph ESE6.8 kmh ESE 5.3 mph8.5 kmh 30.25 in1024.4 mb 0.00 in0.0 mm 0.00 in0.0 mm 0.00 in0.0 mm
11:38 AM 69.1°F20.6°C 53.2°F11.8°C 57% 2.2 mph NNE3.5 kmh NNE 5.3 mph8.5 kmh 30.25 in1024.4 mb 0.00 in0.0 mm 0.00 in0.0 mm 0.00 in0.0 mm
11:39 AM 68.7°F20.4°C 52.9°F11.6°C 57% 2.7 mph ESE4.3 kmh ESE 5.3 mph8.5 kmh 30.25 in1024.4 mb 0.00 in0.0 mm 0.00 in0.0 mm 0.00 in0.0 mm
11:40 AM 68.5°F20.3°C 52.7°F11.5°C 57% Calm Calm 5.3 mph8.5 kmh 30.25 in1024.4 mb 0.00 in0.0 mm 0.00 in0.0 mm 0.00 in0.0 mm
11:41 AM 68.5°F20.3°C 52.7°F11.5°C 57% Calm Calm 4.7 mph7.6 kmh 30.25 in1024.4 mb 0.00 in0.0 mm 0.00 in0.0 mm 0.00 in0.0 mm
11:42 AM 68.5°F20.3°C 52.7°F11.5°C 57% Calm Calm 4.7 mph7.6 kmh 30.25 in1024.4 mb 0.00 in0.0 mm 0.00 in0.0 mm 0.00 in0.0 mm
11:43 AM 68.7°F20.4°C 52.9°F11.6°C 57% Calm Calm 4.7 mph7.6 kmh 30.25 in1024.4 mb 0.00 in0.0 mm 0.00 in0.0 mm 0.00 in0.0 mm
11:44 AM 68.9°F20.5°C 53.0°F11.7°C 57% Calm Calm 4.7 mph7.6 kmh 30.25 in1024.4 mb 0.00 in0.0 mm 0.00 in0.0 mm 0.00 in0.0 mm
11:45 AM 69.4°F20.8°C 53.5°F11.9°C 57% Calm Calm 4.7 mph7.6 kmh 30.25 in1024.4 mb 0.00 in0.0 mm 0.00 in0.0 mm 0.00 in0.0 mm
11:46 AM 70.2°F21.2°C 53.7°F12.1°C 56% 5.8 mph ENE9.3 kmh ENE 5.8 mph9.3 kmh 30.25 in1024.4 mb 0.00 in0.0 mm 0.00 in0.0 mm 0.00 in0.0 mm
11:47 AM 70.2°F21.2°C 53.7°F12.1°C 56% 2.2 mph ESE3.5 kmh ESE 5.8 mph9.3 kmh 30.25 in1024.4 mb 0.00 in0.0 mm 0.00 in0.0 mm 0.00 in0.0 mm
11:48 AM 70.0°F21.1°C 53.6°F12.0°C 56% 3.2 mph SSE5.1 kmh SSE 5.8 mph9.3 kmh 30.24 in1024.0 mb 0.00 in0.0 mm 0.00 in0.0 mm 0.00 in0.0 mm
11:49 AM 70.2°F21.2°C 53.2°F11.8°C 55% 4.2 mph ESE6.8 kmh ESE 5.8 mph9.3 kmh 30.24 in1024.0 mb 0.00 in0.0 mm 0.00 in0.0 mm 0.00 in0.0 mm
11:50 AM 70.5°F21.4°C 53.6°F12.0°C 55% 1.1 mph S1.8 kmh S 5.8 mph9.3 kmh 30.24 in1024.0 mb 0.00 in0.0 mm 0.00 in0.0 mm 0.00 in0.0 mm
11:51 AM 70.9°F21.6°C 53.9°F12.2°C 55% 3.7 mph WSW6.0 kmh WSW 5.8 mph9.3 kmh 30.24 in1024.0 mb 0.00 in0.0 mm 0.00 in0.0 mm 0.00 in0.0 mm
11:52 AM 70.5°F21.4°C 53.6°F12.0°C 55% 2.7 mph SE4.3 kmh SE 5.8 mph9.3 kmh 30.24 in1024.0 mb 0.00 in0.0 mm 0.00 in0.0 mm 0.00 in0.0 mm
11:53 AM 70.3°F21.3°C 53.9°F12.2°C 56% 2.7 mph SSE4.3 kmh SSE 5.8 mph9.3 kmh 30.24 in1024.0 mb 0.00 in0.0 mm 0.00 in0.0 mm 0.00 in0.0 mm
11:54 AM 70.5°F21.4°C 53.6°F12.0°C 55% 4.7 mph SSE7.6 kmh SSE 5.8 mph9.3 kmh 30.24 in1024.0 mb 0.00 in0.0 mm 0.00 in0.0 mm 0.00 in0.0 mm
11:55 AM 70.7°F21.5°C 53.7°F12.1°C 55% 1.1 mph S1.8 kmh S 5.8 mph9.3 kmh 30.24 in1024.0 mb 0.00 in0.0 mm 0.00 in0.0 mm 0.00 in0.0 mm
11:56 AM 70.5°F21.4°C 53.6°F12.0°C 55% 3.7 mph S6.0 kmh S 5.8 mph9.3 kmh 30.24 in1024.0 mb 0.00 in0.0 mm 0.00 in0.0 mm 0.00 in0.0 mm
11:57 AM 70.3°F21.3°C 53.4°F11.9°C 55% 4.7 mph SSE7.6 kmh SSE 4.7 mph7.6 kmh 30.24 in1024.0 mb 0.00 in0.0 mm 0.00 in0.0 mm 0.00 in0.0 mm
11:58 AM 70.3°F21.3°C 53.4°F11.9°C 55% 2.2 mph SSE3.5 kmh SSE 4.7 mph7.6 kmh 30.24 in1024.0 mb 0.00 in0.0 mm 0.00 in0.0 mm 0.00 in0.0 mm
11:59 AM 70.5°F21.4°C 53.6°F12.0°C 55% 3.2 mph SSE5.1 kmh SSE 4.7 mph7.6 kmh 30.24 in1024.0 mb 0.00 in0.0 mm 0.00 in0.0 mm 0.00 in0.0 mm
12:00 PM 70.5°F21.4°C 53.6°F12.0°C 55% 4.2 mph ESE6.8 kmh ESE 4.7 mph7.6 kmh 30.24 in1024.0 mb 0.00 in0.0 mm 0.00 in0.0 mm 0.00 in0.0 mm
12:01 PM 70.7°F21.5°C 53.7°F12.1°C 55% 1.7 mph ESE2.7 kmh ESE 4.7 mph7.6 kmh 30.24 in1024.0 mb 0.00 in0.0 mm 0.00 in0.0 mm 0.00 in0.0 mm
12:02 PM 70.9°F21.6°C 53.9°F12.2°C 55% 3.2 mph SSE5.1 kmh SSE 4.7 mph7.6 kmh 30.24 in1024.0 mb 0.00 in0.0 mm 0.00 in0.0 mm 0.00 in0.0 mm
12:03 PM 70.3°F21.3°C 53.4°F11.9°C 55% 3.2 mph SE5.1 kmh SE 4.7 mph7.6 kmh 30.24 in1024.0 mb 0.00 in0.0 mm 0.00 in0.0 mm 0.00 in0.0 mm
12:04 PM 70.3°F21.3°C 53.4°F11.9°C 55% 2.7 mph ESE4.3 kmh ESE 4.7 mph7.6 kmh 30.24 in1024.0 mb 0.00 in0.0 mm 0.00 in0.0 mm 0.00 in0.0 mm
12:05 PM 70.7°F21.5°C 53.2°F11.8°C 54% 3.7 mph SE6.0 kmh SE 4.7 mph7.6 kmh 30.24 in1024.0 mb 0.00 in0.0 mm 0.00 in0.0 mm 0.00 in0.0 mm
12:06 PM 70.9°F21.6°C 53.4°F11.9°C 54% 2.2 mph SE3.5 kmh SE 4.7 mph7.6 kmh 30.24 in1024.0 mb 0.00 in0.0 mm 0.00 in0.0 mm 0.00 in0.0 mm
12:07 PM 71.1°F21.7°C 54.1°F12.3°C 55% 3.2 mph ESE5.1 kmh ESE 4.7 mph7.6 kmh 30.24 in1024.0 mb 0.00 in0.0 mm 0.00 in0.0 mm 0.00 in0.0 mm
12:08 PM 71.1°F21.7°C 54.1°F12.3°C 55% 4.2 mph ESE6.8 kmh ESE 4.7 mph7.6 kmh 30.24 in1024.0 mb 0.00 in0.0 mm 0.00 in0.0 mm 0.00 in0.0 mm
12:09 PM 71.1°F21.7°C 53.6°F12.0°C 54% 2.7 mph ESE4.3 kmh ESE 4.7 mph7.6 kmh 30.24 in1024.0 mb 0.00 in0.0 mm 0.00 in0.0 mm 0.00 in0.0 mm
12:10 PM 70.9°F21.6°C 53.9°F12.2°C 55% 3.2 mph ESE5.1 kmh ESE 4.7 mph7.6 kmh 30.24 in1024.0 mb 0.00 in0.0 mm 0.00 in0.0 mm 0.00 in0.0 mm
12:11 PM 70.9°F21.6°C 53.9°F12.2°C 55% 3.2 mph E5.1 kmh E 4.7 mph7.6 kmh 30.24 in1024.0 mb 0.00 in0.0 mm 0.00 in0.0 mm 0.00 in0.0 mm
12:12 PM 71.4°F21.9°C 54.9°F12.7°C 56% 3.2 mph SSE5.1 kmh SSE 4.7 mph7.6 kmh 30.24 in1024.0 mb 0.00 in0.0 mm 0.00 in0.0 mm 0.00 in0.0 mm
12:13 PM 71.6°F22.0°C 54.6°F12.6°C 55% 2.7 mph ESE4.3 kmh ESE 4.7 mph7.6 kmh 30.23 in1023.7 mb 0.00 in0.0 mm 0.00 in0.0 mm 0.00 in0.0 mm
12:14 PM 71.4°F21.9°C 54.4°F12.4°C 55% 3.2 mph SSE5.1 kmh SSE 4.7 mph7.6 kmh 30.23 in1023.7 mb 0.00 in0.0 mm 0.00 in0.0 mm 0.00 in0.0 mm
12:15 PM 71.4°F21.9°C 53.9°F12.2°C 54% 2.7 mph ESE4.3 kmh ESE 4.7 mph7.6 kmh 30.23 in1023.7 mb 0.00 in0.0 mm 0.00 in0.0 mm 0.00 in0.0 mm
12:16 PM 71.2°F21.8°C 53.7°F12.1°C 54% 2.2 mph SE3.5 kmh SE 4.7 mph7.6 kmh 30.23 in1023.7 mb 0.00 in0.0 mm 0.00 in0.0 mm 0.00 in0.0 mm
12:17 PM 71.4°F21.9°C 54.4°F12.4°C 55% 4.7 mph SSE7.6 kmh SSE 4.7 mph7.6 kmh 30.23 in1023.7 mb 0.00 in0.0 mm 0.00 in0.0 mm 0.00 in0.0 mm
12:18 PM 71.4°F21.9°C 54.4°F12.4°C 55% 3.2 mph SSE5.1 kmh SSE 4.7 mph7.6 kmh 30.23 in1023.7 mb 0.00 in0.0 mm 0.00 in0.0 mm 0.00 in0.0 mm
12:19 PM 71.1°F21.7°C 54.1°F12.3°C 55% 1.7 mph SSE2.7 kmh SSE 4.7 mph7.6 kmh 30.23 in1023.7 mb 0.00 in0.0 mm 0.00 in0.0 mm 0.00 in0.0 mm
12:20 PM 71.4°F21.9°C 54.4°F12.4°C 55% 2.2 mph S3.5 kmh S 4.7 mph7.6 kmh 30.23 in1023.7 mb 0.00 in0.0 mm 0.00 in0.0 mm 0.00 in0.0 mm
12:21 PM 71.4°F21.9°C 54.4°F12.4°C 55% 4.7 mph SSW7.6 kmh SSW 4.7 mph7.6 kmh 30.23 in1023.7 mb 0.00 in0.0 mm 0.00 in0.0 mm 0.00 in0.0 mm
12:22 PM 70.9°F21.6°C 54.9°F12.7°C 57% 2.2 mph S3.5 kmh S 4.7 mph7.6 kmh 30.23 in1023.7 mb 0.00 in0.0 mm 0.00 in0.0 mm 0.00 in0.0 mm
12:23 PM 71.1°F21.7°C 55.0°F12.8°C 57% 3.2 mph SSW5.1 kmh SSW 4.7 mph7.6 kmh 30.23 in1023.7 mb 0.00 in0.0 mm 0.00 in0.0 mm 0.00 in0.0 mm
12:24 PM 71.1°F21.7°C 54.6°F12.6°C 56% 2.7 mph SSW4.3 kmh SSW 4.7 mph7.6 kmh 30.23 in1023.7 mb 0.00 in0.0 mm 0.00 in0.0 mm 0.00 in0.0 mm
12:25 PM 71.1°F21.7°C 54.6°F12.6°C 56% 1.7 mph ESE2.7 kmh ESE 4.7 mph7.6 kmh 30.23 in1023.7 mb 0.00 in0.0 mm 0.00 in0.0 mm 0.00 in0.0 mm
12:26 PM 70.9°F21.6°C 54.4°F12.4°C 56% 2.2 mph S3.5 kmh S 4.7 mph7.6 kmh 30.23 in1023.7 mb 0.00 in0.0 mm 0.00 in0.0 mm 0.00 in0.0 mm
12:27 PM 70.9°F21.6°C 54.4°F12.4°C 56% Calm Calm 4.7 mph7.6 kmh 30.23 in1023.7 mb 0.00 in0.0 mm 0.00 in0.0 mm 0.00 in0.0 mm
12:28 PM 70.9°F21.6°C 54.4°F12.4°C 56% 2.2 mph S3.5 kmh S 4.7 mph7.6 kmh 30.23 in1023.7 mb 0.00 in0.0 mm 0.00 in0.0 mm 0.00 in0.0 mm
12:29 PM 71.1°F21.7°C 54.6°F12.6°C 56% 3.2 mph SSW5.1 kmh SSW 4.7 mph7.6 kmh 30.23 in1023.7 mb 0.00 in0.0 mm 0.00 in0.0 mm 0.00 in0.0 mm
12:30 PM 71.1°F21.7°C 54.6°F12.6°C 56% 1.7 mph SSW2.7 kmh SSW 4.7 mph7.6 kmh 30.23 in1023.7 mb 0.00 in0.0 mm 0.00 in0.0 mm 0.00 in0.0 mm
12:31 PM 71.1°F21.7°C 55.0°F12.8°C 57% Calm Calm 4.2 mph6.8 kmh 30.23 in1023.7 mb 0.00 in0.0 mm 0.00 in0.0 mm 0.00 in0.0 mm
12:32 PM 71.2°F21.8°C 54.7°F12.6°C 56% 2.7 mph S4.3 kmh S 3.7 mph6.0 kmh 30.23 in1023.7 mb 0.00 in0.0 mm 0.00 in0.0 mm 0.00 in0.0 mm
12:33 PM 71.4°F21.9°C 55.4°F13.0°C 57% 2.7 mph SSW4.3 kmh SSW 3.7 mph6.0 kmh 30.23 in1023.7 mb 0.00 in0.0 mm 0.00 in0.0 mm 0.00 in0.0 mm
12:34 PM 71.2°F21.8°C 55.2°F12.9°C 57% 4.7 mph SSW7.6 kmh SSW 4.7 mph7.6 kmh 30.23 in1023.7 mb 0.00 in0.0 mm 0.00 in0.0 mm 0.00 in0.0 mm
12:35 PM 71.1°F21.7°C 55.0°F12.8°C 57% 3.7 mph SSW6.0 kmh SSW 4.7 mph7.6 kmh 30.23 in1023.7 mb 0.00 in0.0 mm 0.00 in0.0 mm 0.00 in0.0 mm
12:36 PM 70.7°F21.5°C 55.2°F12.9°C 58% 2.7 mph S4.3 kmh S 5.3 mph8.5 kmh 30.23 in1023.7 mb 0.00 in0.0 mm 0.00 in0.0 mm 0.00 in0.0 mm
12:37 PM 70.7°F21.5°C 55.7°F13.2°C 59% 4.2 mph SSW6.8 kmh SSW 5.3 mph8.5 kmh 30.23 in1023.7 mb 0.00 in0.0 mm 0.00 in0.0 mm 0.00 in0.0 mm
12:38 PM 70.0°F21.1°C 55.4°F13.0°C 60% 3.7 mph SSW6.0 kmh SSW 5.8 mph9.3 kmh 30.22 in1023.4 mb 0.00 in0.0 mm 0.00 in0.0 mm 0.00 in0.0 mm
12:39 PM 69.8°F21.0°C 55.7°F13.2°C 61% 3.2 mph S5.1 kmh S 5.8 mph9.3 kmh 30.22 in1023.4 mb 0.00 in0.0 mm 0.00 in0.0 mm 0.00 in0.0 mm
12:40 PM 69.6°F20.9°C 55.1°F12.8°C 60% 5.3 mph S8.5 kmh S 5.8 mph9.3 kmh 30.22 in1023.4 mb 0.00 in0.0 mm 0.00 in0.0 mm 0.00 in0.0 mm
12:41 PM 69.6°F20.9°C 55.1°F12.8°C 60% 2.2 mph S3.5 kmh S 5.8 mph9.3 kmh 30.22 in1023.4 mb 0.00 in0.0 mm 0.00 in0.0 mm 0.00 in0.0 mm
12:42 PM 70.0°F21.1°C 55.4°F13.0°C 60% 1.7 mph S2.7 kmh S 5.8 mph9.3 kmh 30.22 in1023.4 mb 0.00 in0.0 mm 0.00 in0.0 mm 0.00 in0.0 mm
12:43 PM 70.7°F21.5°C 55.7°F13.2°C 59% 4.2 mph SSW6.8 kmh SSW 5.8 mph9.3 kmh 30.22 in1023.4 mb 0.00 in0.0 mm 0.00 in0.0 mm 0.00 in0.0 mm
12:44 PM 70.3°F21.3°C 55.3°F12.9°C 59% 2.2 mph S3.5 kmh S 5.8 mph9.3 kmh 30.22 in1023.4 mb 0.00 in0.0 mm 0.00 in0.0 mm 0.00 in0.0 mm
12:45 PM 70.0°F21.1°C 55.0°F12.8°C 59% 3.7 mph SSW6.0 kmh SSW 5.8 mph9.3 kmh 30.22 in1023.4 mb 0.00 in0.0 mm 0.00 in0.0 mm 0.00 in0.0 mm
12:46 PM 69.8°F21.0°C 55.7°F13.2°C 61% 4.2 mph SSW6.8 kmh SSW 5.8 mph9.3 kmh 30.22 in1023.4 mb 0.00 in0.0 mm 0.00 in0.0 mm 0.00 in0.0 mm
12:47 PM 69.8°F21.0°C 55.3°F12.9°C 60% 3.7 mph SSW6.0 kmh SSW 5.8 mph9.3 kmh 30.22 in1023.4 mb 0.00 in0.0 mm 0.00 in0.0 mm 0.00 in0.0 mm
12:48 PM 69.6°F20.9°C 55.1°F12.8°C 60% 4.2 mph S6.8 kmh S 5.8 mph9.3 kmh 30.22 in1023.4 mb 0.00 in0.0 mm 0.00 in0.0 mm 0.00 in0.0 mm
12:49 PM 69.6°F20.9°C 55.1°F12.8°C 60% 4.7 mph SSW7.6 kmh SSW 5.8 mph9.3 kmh 30.22 in1023.4 mb 0.00 in0.0 mm 0.00 in0.0 mm 0.00 in0.0 mm
12:50 PM 69.4°F20.8°C 55.4°F13.0°C 61% 7.3 mph SSW11.7 kmh SSW 7.3 mph11.7 kmh 30.22 in1023.4 mb 0.00 in0.0 mm 0.00 in0.0 mm 0.00 in0.0 mm
12:51 PM 69.3°F20.7°C 54.8°F12.7°C 60% 3.7 mph S6.0 kmh S 7.3 mph11.7 kmh 30.22 in1023.4 mb 0.00 in0.0 mm 0.00 in0.0 mm 0.00 in0.0 mm
12:52 PM 69.4°F20.8°C 55.4°F13.0°C 61% 1.1 mph SSW1.8 kmh SSW 7.3 mph11.7 kmh 30.22 in1023.4 mb 0.00 in0.0 mm 0.00 in0.0 mm 0.00 in0.0 mm
12:53 PM 69.8°F21.0°C 55.3°F12.9°C 60% 3.2 mph SSW5.1 kmh SSW 7.3 mph11.7 kmh 30.22 in1023.4 mb 0.00 in0.0 mm 0.00 in0.0 mm 0.00 in0.0 mm
12:54 PM 69.8°F21.0°C 55.3°F12.9°C 60% 2.7 mph SSW4.3 kmh SSW 7.3 mph11.7 kmh 30.22 in1023.4 mb 0.00 in0.0 mm 0.00 in0.0 mm 0.00 in0.0 mm
12:55 PM 69.8°F21.0°C 55.3°F12.9°C 60% 4.2 mph SSW6.8 kmh SSW 7.3 mph11.7 kmh 30.22 in1023.4 mb 0.00 in0.0 mm 0.00 in0.0 mm 0.00 in0.0 mm
12:56 PM 69.8°F21.0°C 55.3°F12.9°C 60% 4.2 mph SSW6.8 kmh SSW 7.3 mph11.7 kmh 30.22 in1023.4 mb 0.00 in0.0 mm 0.00 in0.0 mm 0.00 in0.0 mm
12:57 PM 69.8°F21.0°C 55.3°F12.9°C 60% 4.2 mph SSW6.8 kmh SSW 7.3 mph11.7 kmh 30.22 in1023.4 mb 0.00 in0.0 mm 0.00 in0.0 mm 0.00 in0.0 mm
12:58 PM 69.8°F21.0°C 55.3°F12.9°C 60% 3.2 mph SSW5.1 kmh SSW 7.3 mph11.7 kmh 30.22 in1023.4 mb 0.00 in0.0 mm 0.00 in0.0 mm 0.00 in0.0 mm
12:59 PM 69.8°F21.0°C 54.8°F12.7°C 59% 3.2 mph S5.1 kmh S 7.3 mph11.7 kmh 30.22 in1023.4 mb 0.00 in0.0 mm 0.00 in0.0 mm 0.00 in0.0 mm
01:00 PM 69.8°F21.0°C 54.8°F12.7°C 59% 3.7 mph S6.0 kmh S 7.3 mph11.7 kmh 30.22 in1023.4 mb 0.00 in0.0 mm 0.00 in0.0 mm 0.00 in0.0 mm
01:01 PM 70.2°F21.2°C 55.2°F12.9°C 59% 3.7 mph SSW6.0 kmh SSW 4.2 mph6.8 kmh 30.22 in1023.4 mb 0.00 in0.0 mm 0.00 in0.0 mm 0.00 in0.0 mm
01:02 PM 70.3°F21.3°C 55.3°F12.9°C 59% 3.7 mph SSW6.0 kmh SSW 4.2 mph6.8 kmh 30.21 in1023.0 mb 0.00 in0.0 mm 0.00 in0.0 mm 0.00 in0.0 mm
01:03 PM 70.3°F21.3°C 55.3°F12.9°C 59% 1.7 mph S2.7 kmh S 4.2 mph6.8 kmh 30.21 in1023.0 mb 0.00 in0.0 mm 0.00 in0.0 mm 0.00 in0.0 mm
01:04 PM 70.5°F21.4°C 55.0°F12.8°C 58% 3.7 mph SSW6.0 kmh SSW 4.2 mph6.8 kmh 30.21 in1023.0 mb 0.00 in0.0 mm 0.00 in0.0 mm 0.00 in0.0 mm
01:05 PM 70.7°F21.5°C 55.7°F13.2°C 59% 2.2 mph S3.5 kmh S 4.2 mph6.8 kmh 30.21 in1023.0 mb 0.00 in0.0 mm 0.00 in0.0 mm 0.00 in0.0 mm
01:06 PM 70.7°F21.5°C 55.2°F12.9°C 58% 4.2 mph SSW6.8 kmh SSW 5.3 mph8.5 kmh 30.21 in1023.0 mb 0.00 in0.0 mm 0.00 in0.0 mm 0.00 in0.0 mm
01:07 PM 70.5°F21.4°C 55.0°F12.8°C 58% 3.7 mph S6.0 kmh S 5.3 mph8.5 kmh 30.21 in1023.0 mb 0.00 in0.0 mm 0.00 in0.0 mm 0.00 in0.0 mm
01:08 PM 70.7°F21.5°C 55.2°F12.9°C 58% 3.7 mph S6.0 kmh S 5.3 mph8.5 kmh 30.21 in1023.0 mb 0.00 in0.0 mm 0.00 in0.0 mm 0.00 in0.0 mm
01:09 PM 70.5°F21.4°C 55.0°F12.8°C 58% 2.7 mph SSW4.3 kmh SSW 5.3 mph8.5 kmh 30.21 in1023.0 mb 0.00 in0.0 mm 0.00 in0.0 mm 0.00 in0.0 mm
01:10 PM 70.3°F21.3°C 55.3°F12.9°C 59% 2.7 mph S4.3 kmh S 5.3 mph8.5 kmh 30.21 in1023.0 mb 0.00 in0.0 mm 0.00 in0.0 mm 0.00 in0.0 mm
01:11 PM 70.7°F21.5°C 55.2°F12.9°C 58% Calm Calm 5.3 mph8.5 kmh 30.21 in1023.0 mb 0.00 in0.0 mm 0.00 in0.0 mm 0.00 in0.0 mm
01:12 PM 70.9°F21.6°C 55.4°F13.0°C 58% 2.2 mph SSW3.5 kmh SSW 5.3 mph8.5 kmh 30.21 in1023.0 mb 0.00 in0.0 mm 0.00 in0.0 mm 0.00 in0.0 mm
01:13 PM 71.4°F21.9°C 55.9°F13.3°C 58% 1.7 mph SW2.7 kmh SW 5.3 mph8.5 kmh 30.21 in1023.0 mb 0.00 in0.0 mm 0.00 in0.0 mm 0.00 in0.0 mm
01:14 PM 71.4°F21.9°C 55.9°F13.3°C 58% 3.2 mph SSW5.1 kmh SSW 5.3 mph8.5 kmh 30.21 in1023.0 mb 0.00 in0.0 mm 0.00 in0.0 mm 0.00 in0.0 mm
01:15 PM 71.8°F22.1°C 55.7°F13.2°C 57% 1.7 mph SE2.7 kmh SE 5.3 mph8.5 kmh 30.21 in1023.0 mb 0.00 in0.0 mm 0.00 in0.0 mm 0.00 in0.0 mm
01:16 PM 72.0°F22.2°C 55.4°F13.0°C 56% 2.2 mph SSE3.5 kmh SSE 4.7 mph7.6 kmh 30.21 in1023.0 mb 0.00 in0.0 mm 0.00 in0.0 mm 0.00 in0.0 mm
01:17 PM 71.8°F22.1°C 55.7°F13.2°C 57% 3.7 mph SSW6.0 kmh SSW 4.7 mph7.6 kmh 30.21 in1023.0 mb 0.00 in0.0 mm 0.00 in0.0 mm 0.00 in0.0 mm
01:18 PM 71.1°F21.7°C 55.5°F13.1°C 58% 2.7 mph SSW4.3 kmh SSW 4.7 mph7.6 kmh 30.21 in1023.0 mb 0.00 in0.0 mm 0.00 in0.0 mm 0.00 in0.0 mm
01:19 PM 70.9°F21.6°C 55.4°F13.0°C 58% 2.7 mph S4.3 kmh S 4.2 mph6.8 kmh 30.21 in1023.0 mb 0.00 in0.0 mm 0.00 in0.0 mm 0.00 in0.0 mm
01:20 PM 71.2°F21.8°C 55.7°F13.2°C 58% 1.7 mph SSE2.7 kmh SSE 4.2 mph6.8 kmh 30.21 in1023.0 mb 0.00 in0.0 mm 0.00 in0.0 mm 0.00 in0.0 mm
01:21 PM 71.1°F21.7°C 55.0°F12.8°C 57% 3.7 mph SSW6.0 kmh SSW 4.2 mph6.8 kmh 30.21 in1023.0 mb 0.00 in0.0 mm 0.00 in0.0 mm 0.00 in0.0 mm
01:22 PM 70.9°F21.6°C 55.4°F13.0°C 58% 3.7 mph SW6.0 kmh SW 4.7 mph7.6 kmh 30.21 in1023.0 mb 0.00 in0.0 mm 0.00 in0.0 mm 0.00 in0.0 mm
01:23 PM 70.7°F21.5°C 55.7°F13.2°C 59% 4.7 mph S7.6 kmh S 4.7 mph7.6 kmh 30.21 in1023.0 mb 0.00 in0.0 mm 0.00 in0.0 mm 0.00 in0.0 mm
01:24 PM 70.3°F21.3°C 55.8°F13.2°C 60% 3.2 mph SSW5.1 kmh SSW 6.3 mph10.1 kmh 30.21 in1023.0 mb 0.00 in0.0 mm 0.00 in0.0 mm 0.00 in0.0 mm
01:25 PM 70.5°F21.4°C 56.0°F13.3°C 60% 2.2 mph SSE3.5 kmh SSE 6.3 mph10.1 kmh 30.21 in1023.0 mb 0.00 in0.0 mm 0.00 in0.0 mm 0.00 in0.0 mm
01:26 PM 70.9°F21.6°C 55.8°F13.2°C 59% 3.2 mph S5.1 kmh S 6.3 mph10.1 kmh 30.20 in1022.7 mb 0.00 in0.0 mm 0.00 in0.0 mm 0.00 in0.0 mm
01:27 PM 70.7°F21.5°C 55.7°F13.2°C 59% 5.3 mph SSW8.5 kmh SSW 6.3 mph10.1 kmh 30.20 in1022.7 mb 0.00 in0.0 mm 0.00 in0.0 mm 0.00 in0.0 mm
01:28 PM 70.3°F21.3°C 55.8°F13.2°C 60% 3.7 mph SSW6.0 kmh SSW 6.3 mph10.1 kmh 30.20 in1022.7 mb 0.00 in0.0 mm 0.00 in0.0 mm 0.00 in0.0 mm
01:29 PM 70.2°F21.2°C 55.6°F13.1°C 60% 2.2 mph S3.5 kmh S 6.3 mph10.1 kmh 30.20 in1022.7 mb 0.00 in0.0 mm 0.00 in0.0 mm 0.00 in0.0 mm
01:30 PM 70.2°F21.2°C 55.6°F13.1°C 60% 5.3 mph SSW8.5 kmh SSW 6.3 mph10.1 kmh 30.20 in1022.7 mb 0.00 in0.0 mm 0.00 in0.0 mm 0.00 in0.0 mm
01:31 PM 70.3°F21.3°C 55.3°F12.9°C 59% 1.7 mph S2.7 kmh S 6.3 mph10.1 kmh 30.20 in1022.7 mb 0.00 in0.0 mm 0.00 in0.0 mm 0.00 in0.0 mm
01:32 PM 70.5°F21.4°C 55.5°F13.1°C 59% 3.2 mph SSW5.1 kmh SSW 6.3 mph10.1 kmh 30.20 in1022.7 mb 0.00 in0.0 mm 0.00 in0.0 mm 0.00 in0.0 mm
01:33 PM 70.3°F21.3°C 55.8°F13.2°C 60% 3.7 mph SSW6.0 kmh SSW 6.3 mph10.1 kmh 30.20 in1022.7 mb 0.00 in0.0 mm 0.00 in0.0 mm 0.00 in0.0 mm
01:34 PM 70.2°F21.2°C 55.6°F13.1°C 60% 3.2 mph SSW5.1 kmh SSW 5.3 mph8.5 kmh 30.20 in1022.7 mb 0.00 in0.0 mm 0.00 in0.0 mm 0.00 in0.0 mm
01:35 PM 70.2°F21.2°C 55.2°F12.9°C 59% 2.7 mph SSW4.3 kmh SSW 5.3 mph8.5 kmh 30.20 in1022.7 mb 0.00 in0.0 mm 0.00 in0.0 mm 0.00 in0.0 mm
01:36 PM 70.5°F21.4°C 55.5°F13.1°C 59% 1.7 mph SSW2.7 kmh SSW 5.3 mph8.5 kmh 30.20 in1022.7 mb 0.00 in0.0 mm 0.00 in0.0 mm 0.00 in0.0 mm
01:37 PM 70.7°F21.5°C 55.7°F13.2°C 59% 3.2 mph SSW5.1 kmh SSW 5.3 mph8.5 kmh 30.20 in1022.7 mb 0.00 in0.0 mm 0.00 in0.0 mm 0.00 in0.0 mm
01:38 PM 70.9°F21.6°C 55.8°F13.2°C 59% 2.2 mph S3.5 kmh S 5.3 mph8.5 kmh 30.19 in1022.4 mb 0.00 in0.0 mm 0.00 in0.0 mm 0.00 in0.0 mm
01:39 PM 70.9°F21.6°C 55.8°F13.2°C 59% 3.7 mph SSW6.0 kmh SSW 5.3 mph8.5 kmh 30.19 in1022.4 mb 0.00 in0.0 mm 0.00 in0.0 mm 0.00 in0.0 mm
01:40 PM 70.3°F21.3°C 55.8°F13.2°C 60% 3.7 mph S6.0 kmh S 8.3 mph13.4 kmh 30.19 in1022.4 mb 0.00 in0.0 mm 0.00 in0.0 mm 0.00 in0.0 mm
01:41 PM 70.7°F21.5°C 55.7°F13.2°C 59% 3.2 mph S5.1 kmh S 8.3 mph13.4 kmh 30.19 in1022.4 mb 0.00 in0.0 mm 0.00 in0.0 mm 0.00 in0.0 mm
01:42 PM 70.5°F21.4°C 55.5°F13.1°C 59% 3.2 mph SSW5.1 kmh SSW 8.3 mph13.4 kmh 30.19 in1022.4 mb 0.00 in0.0 mm 0.00 in0.0 mm 0.00 in0.0 mm
01:43 PM 70.3°F21.3°C 56.7°F13.7°C 62% 4.2 mph S6.8 kmh S 8.3 mph13.4 kmh 30.19 in1022.4 mb 0.00 in0.0 mm 0.00 in0.0 mm 0.00 in0.0 mm
01:44 PM 70.5°F21.4°C 56.0°F13.3°C 60% 2.2 mph SSW3.5 kmh SSW 8.3 mph13.4 kmh 30.19 in1022.4 mb 0.00 in0.0 mm 0.00 in0.0 mm 0.00 in0.0 mm
01:45 PM 70.5°F21.4°C 55.5°F13.1°C 59% 5.3 mph S8.5 kmh S 8.3 mph13.4 kmh 30.19 in1022.4 mb 0.00 in0.0 mm 0.00 in0.0 mm 0.00 in0.0 mm
01:46 PM 70.5°F21.4°C 55.5°F13.1°C 59% 3.2 mph ESE5.1 kmh ESE 8.3 mph13.4 kmh 30.19 in1022.4 mb 0.00 in0.0 mm 0.00 in0.0 mm 0.00 in0.0 mm
01:47 PM 70.3°F21.3°C 55.8°F13.2°C 60% 4.7 mph SSE7.6 kmh SSE 8.3 mph13.4 kmh 30.19 in1022.4 mb 0.00 in0.0 mm 0.00 in0.0 mm 0.00 in0.0 mm
01:48 PM 70.3°F21.3°C 55.8°F13.2°C 60% 3.2 mph S5.1 kmh S 8.3 mph13.4 kmh 30.19 in1022.4 mb 0.00 in0.0 mm 0.00 in0.0 mm 0.00 in0.0 mm
01:49 PM 70.3°F21.3°C 55.3°F12.9°C 59% 3.7 mph S6.0 kmh S 8.3 mph13.4 kmh 30.19 in1022.4 mb 0.00 in0.0 mm 0.00 in0.0 mm 0.00 in0.0 mm
01:50 PM 70.3°F21.3°C 55.8°F13.2°C 60% 5.8 mph SSW9.3 kmh SSW 6.3 mph10.1 kmh 30.19 in1022.4 mb 0.00 in0.0 mm 0.00 in0.0 mm 0.00 in0.0 mm
01:51 PM 70.2°F21.2°C 56.1°F13.4°C 61% 2.2 mph SW3.5 kmh SW 5.8 mph9.3 kmh 30.19 in1022.4 mb 0.00 in0.0 mm 0.00 in0.0 mm 0.00 in0.0 mm
01:52 PM 70.2°F21.2°C 55.6°F13.1°C 60% 7.3 mph S11.7 kmh S 7.3 mph11.7 kmh 30.19 in1022.4 mb 0.00 in0.0 mm 0.00 in0.0 mm 0.00 in0.0 mm
01:53 PM 70.3°F21.3°C 55.8°F13.2°C 60% 1.7 mph SE2.7 kmh SE 7.3 mph11.7 kmh 30.19 in1022.4 mb 0.00 in0.0 mm 0.00 in0.0 mm 0.00 in0.0 mm
01:54 PM 70.5°F21.4°C 56.0°F13.3°C 60% 2.7 mph S4.3 kmh S 7.3 mph11.7 kmh 30.19 in1022.4 mb 0.00 in0.0 mm 0.00 in0.0 mm 0.00 in0.0 mm
01:55 PM 71.1°F21.7°C 56.0°F13.3°C 59% 4.2 mph SW6.8 kmh SW 7.3 mph11.7 kmh 30.19 in1022.4 mb 0.00 in0.0 mm 0.00 in0.0 mm 0.00 in0.0 mm
01:56 PM 70.9°F21.6°C 56.3°F13.5°C 60% 4.2 mph SSW6.8 kmh SSW 7.3 mph11.7 kmh 30.19 in1022.4 mb 0.00 in0.0 mm 0.00 in0.0 mm 0.00 in0.0 mm
01:57 PM 70.9°F21.6°C 56.3°F13.5°C 60% 3.2 mph SSW5.1 kmh SSW 7.3 mph11.7 kmh 30.19 in1022.4 mb 0.00 in0.0 mm 0.00 in0.0 mm 0.00 in0.0 mm
01:58 PM 70.2°F21.2°C 55.6°F13.1°C 60% 4.2 mph S6.8 kmh S 7.3 mph11.7 kmh 30.19 in1022.4 mb 0.00 in0.0 mm 0.00 in0.0 mm 0.00 in0.0 mm
01:59 PM 70.0°F21.1°C 55.4°F13.0°C 60% 3.2 mph SSE5.1 kmh SSE 7.3 mph11.7 kmh 30.19 in1022.4 mb 0.00 in0.0 mm 0.00 in0.0 mm 0.00 in0.0 mm
02:00 PM 70.3°F21.3°C 55.3°F12.9°C 59% 3.2 mph S5.1 kmh S 7.3 mph11.7 kmh 30.19 in1022.4 mb 0.00 in0.0 mm 0.00 in0.0 mm 0.00 in0.0 mm
02:01 PM 70.3°F21.3°C 55.3°F12.9°C 59% 4.2 mph S6.8 kmh S 7.3 mph11.7 kmh 30.19 in1022.4 mb 0.00 in0.0 mm 0.00 in0.0 mm 0.00 in0.0 mm
02:02 PM 70.5°F21.4°C 56.0°F13.3°C 60% 2.2 mph S3.5 kmh S 7.3 mph11.7 kmh 30.18 in1022.0 mb 0.00 in0.0 mm 0.00 in0.0 mm 0.00 in0.0 mm
02:03 PM 70.7°F21.5°C 55.7°F13.2°C 59% 3.2 mph S5.1 kmh S 5.3 mph8.5 kmh 30.18 in1022.0 mb 0.00 in0.0 mm 0.00 in0.0 mm 0.00 in0.0 mm
02:04 PM 70.7°F21.5°C 56.1°F13.4°C 60% 4.2 mph S6.8 kmh S 5.3 mph8.5 kmh 30.18 in1022.0 mb 0.00 in0.0 mm 0.00 in0.0 mm 0.00 in0.0 mm
02:05 PM 70.2°F21.2°C 56.5°F13.6°C 62% 5.3 mph SSW8.5 kmh SSW 5.3 mph8.5 kmh 30.18 in1022.0 mb 0.00 in0.0 mm 0.00 in0.0 mm 0.00 in0.0 mm
02:06 PM 69.8°F21.0°C 56.2°F13.4°C 62% 3.2 mph S5.1 kmh S 5.8 mph9.3 kmh 30.18 in1022.0 mb 0.00 in0.0 mm 0.00 in0.0 mm 0.00 in0.0 mm
02:07 PM 69.8°F21.0°C 56.2°F13.4°C 62% 3.2 mph SSW5.1 kmh SSW 5.8 mph9.3 kmh 30.18 in1022.0 mb 0.00 in0.0 mm 0.00 in0.0 mm 0.00 in0.0 mm
02:08 PM 70.0°F21.1°C 55.9°F13.3°C 61% 1.7 mph SSW2.7 kmh SSW 5.8 mph9.3 kmh 30.18 in1022.0 mb 0.00 in0.0 mm 0.00 in0.0 mm 0.00 in0.0 mm
02:09 PM 70.0°F21.1°C 55.9°F13.3°C 61% 4.2 mph SSE6.8 kmh SSE 6.3 mph10.1 kmh 30.18 in1022.0 mb 0.00 in0.0 mm 0.00 in0.0 mm 0.00 in0.0 mm
02:10 PM 70.0°F21.1°C 55.9°F13.3°C 61% 3.2 mph SSW5.1 kmh SSW 6.3 mph10.1 kmh 30.18 in1022.0 mb 0.00 in0.0 mm 0.00 in0.0 mm 0.00 in0.0 mm
02:11 PM 70.0°F21.1°C 55.9°F13.3°C 61% 2.2 mph S3.5 kmh S 6.3 mph10.1 kmh 30.18 in1022.0 mb 0.00 in0.0 mm 0.00 in0.0 mm 0.00 in0.0 mm
02:12 PM 69.8°F21.0°C 55.7°F13.2°C 61% 3.7 mph S6.0 kmh S 6.3 mph10.1 kmh 30.18 in1022.0 mb 0.00 in0.0 mm 0.00 in0.0 mm 0.00 in0.0 mm
02:13 PM 69.8°F21.0°C 55.7°F13.2°C 61% 3.2 mph S5.1 kmh S 6.3 mph10.1 kmh 30.18 in1022.0 mb 0.00 in0.0 mm 0.00 in0.0 mm 0.00 in0.0 mm
02:14 PM 69.8°F21.0°C 56.2°F13.4°C 62% 4.7 mph SSW7.6 kmh SSW 6.3 mph10.1 kmh 30.18 in1022.0 mb 0.00 in0.0 mm 0.00 in0.0 mm 0.00 in0.0 mm
02:15 PM 69.8°F21.0°C 55.7°F13.2°C 61% 2.7 mph SSW4.3 kmh SSW 6.3 mph10.1 kmh 30.18 in1022.0 mb 0.00 in0.0 mm 0.00 in0.0 mm 0.00 in0.0 mm
02:16 PM 70.0°F21.1°C 55.4°F13.0°C 60% 3.2 mph SSW5.1 kmh SSW 6.3 mph10.1 kmh 30.18 in1022.0 mb 0.00 in0.0 mm 0.00 in0.0 mm 0.00 in0.0 mm
02:17 PM 70.0°F21.1°C 55.4°F13.0°C 60% 3.7 mph S6.0 kmh S 6.3 mph10.1 kmh 30.18 in1022.0 mb 0.00 in0.0 mm 0.00 in0.0 mm 0.00 in0.0 mm
02:18 PM 69.8°F21.0°C 55.7°F13.2°C 61% 6.3 mph SSW10.1 kmh SSW 6.3 mph10.1 kmh 30.18 in1022.0 mb 0.00 in0.0 mm 0.00 in0.0 mm 0.00 in0.0 mm
02:19 PM 69.6°F20.9°C 55.1°F12.8°C 60% 2.2 mph SSE3.5 kmh SSE 6.3 mph10.1 kmh 30.18 in1022.0 mb 0.00 in0.0 mm 0.00 in0.0 mm 0.00 in0.0 mm
02:20 PM 69.6°F20.9°C 55.1°F12.8°C 60% 1.7 mph SSW2.7 kmh SSW 6.3 mph10.1 kmh 30.18 in1022.0 mb 0.00 in0.0 mm 0.00 in0.0 mm 0.00 in0.0 mm
02:21 PM 69.8°F21.0°C 55.3°F12.9°C 60% Calm Calm 6.3 mph10.1 kmh 30.18 in1022.0 mb 0.00 in0.0 mm 0.00 in0.0 mm 0.00 in0.0 mm
02:22 PM 70.0°F21.1°C 55.0°F12.8°C 59% 3.7 mph SSW6.0 kmh SSW 6.3 mph10.1 kmh 30.18 in1022.0 mb 0.00 in0.0 mm 0.00 in0.0 mm 0.00 in0.0 mm
02:23 PM 69.8°F21.0°C 54.8°F12.7°C 59% 3.2 mph S5.1 kmh S 6.3 mph10.1 kmh 30.18 in1022.0 mb 0.00 in0.0 mm 0.00 in0.0 mm 0.00 in0.0 mm
02:24 PM 69.8°F21.0°C 54.8°F12.7°C 59% 5.3 mph SSW8.5 kmh SSW 6.3 mph10.1 kmh 30.18 in1022.0 mb 0.00 in0.0 mm 0.00 in0.0 mm 0.00 in0.0 mm
02:25 PM 69.8°F21.0°C 55.3°F12.9°C 60% 2.7 mph SSW4.3 kmh SSW 6.3 mph10.1 kmh 30.18 in1022.0 mb 0.00 in0.0 mm 0.00 in0.0 mm 0.00 in0.0 mm
02:26 PM 69.4°F20.8°C 54.9°F12.7°C 60% 2.2 mph S3.5 kmh S 6.3 mph10.1 kmh 30.19 in1022.4 mb 0.00 in0.0 mm 0.00 in0.0 mm 0.00 in0.0 mm
02:27 PM 69.6°F20.9°C 55.1°F12.8°C 60% 4.2 mph S6.8 kmh S 6.3 mph10.1 kmh 30.19 in1022.4 mb 0.00 in0.0 mm 0.00 in0.0 mm 0.00 in0.0 mm
02:28 PM 69.8°F21.0°C 55.3°F12.9°C 60% 4.7 mph SSW7.6 kmh SSW 5.3 mph8.5 kmh 30.19 in1022.4 mb 0.00 in0.0 mm 0.00 in0.0 mm 0.00 in0.0 mm
02:29 PM 69.6°F20.9°C 55.6°F13.1°C 61% 3.2 mph S5.1 kmh S 5.3 mph8.5 kmh 30.19 in1022.4 mb 0.00 in0.0 mm 0.00 in0.0 mm 0.00 in0.0 mm
02:30 PM 69.1°F20.6°C 55.9°F13.3°C 63% 5.3 mph SSW8.5 kmh SSW 5.8 mph9.3 kmh 30.19 in1022.4 mb 0.00 in0.0 mm 0.00 in0.0 mm 0.00 in0.0 mm
02:31 PM 68.7°F20.4°C 56.0°F13.3°C 64% 6.8 mph SSW10.9 kmh SSW 6.8 mph10.9 kmh 30.19 in1022.4 mb 0.00 in0.0 mm 0.00 in0.0 mm 0.00 in0.0 mm
02:32 PM 68.4°F20.2°C 55.7°F13.2°C 64% 4.7 mph SSW7.6 kmh SSW 6.8 mph10.9 kmh 30.19 in1022.4 mb 0.00 in0.0 mm 0.00 in0.0 mm 0.00 in0.0 mm
02:33 PM 68.4°F20.2°C 55.3°F12.9°C 63% 5.3 mph WSW8.5 kmh WSW 6.8 mph10.9 kmh 30.19 in1022.4 mb 0.00 in0.0 mm 0.00 in0.0 mm 0.00 in0.0 mm
02:34 PM 68.4°F20.2°C 54.8°F12.7°C 62% 4.7 mph SSW7.6 kmh SSW 6.8 mph10.9 kmh 30.19 in1022.4 mb 0.00 in0.0 mm 0.00 in0.0 mm 0.00 in0.0 mm
02:35 PM 68.4°F20.2°C 55.7°F13.2°C 64% 5.8 mph SSW9.3 kmh SSW 6.8 mph10.9 kmh 30.19 in1022.4 mb 0.00 in0.0 mm 0.00 in0.0 mm 0.00 in0.0 mm
02:36 PM 68.4°F20.2°C 55.3°F12.9°C 63% 4.7 mph SSW7.6 kmh SSW 6.8 mph10.9 kmh 30.19 in1022.4 mb 0.00 in0.0 mm 0.00 in0.0 mm 0.00 in0.0 mm
02:37 PM 68.4°F20.2°C 54.8°F12.7°C 62% 4.7 mph SSW7.6 kmh SSW 6.8 mph10.9 kmh 30.19 in1022.4 mb 0.00 in0.0 mm 0.00 in0.0 mm 0.00 in0.0 mm
02:38 PM 68.5°F20.3°C 54.5°F12.5°C 61% 5.8 mph SSW9.3 kmh SSW 6.8 mph10.9 kmh 30.18 in1022.0 mb 0.00 in0.0 mm 0.00 in0.0 mm 0.00 in0.0 mm
02:39 PM 68.5°F20.3°C 55.0°F12.8°C 62% 2.7 mph SSW4.3 kmh SSW 6.8 mph10.9 kmh 30.18 in1022.0 mb 0.00 in0.0 mm 0.00 in0.0 mm 0.00 in0.0 mm
02:40 PM 69.1°F20.6°C 55.1°F12.8°C 61% 1.7 mph SSE2.7 kmh SSE 6.8 mph10.9 kmh 30.18 in1022.0 mb 0.00 in0.0 mm 0.00 in0.0 mm 0.00 in0.0 mm
02:41 PM 69.3°F20.7°C 54.8°F12.7°C 60% 2.7 mph S4.3 kmh S 6.8 mph10.9 kmh 30.18 in1022.0 mb 0.00 in0.0 mm 0.00 in0.0 mm 0.00 in0.0 mm
02:42 PM 69.4°F20.8°C 54.9°F12.7°C 60% 3.7 mph S6.0 kmh S 5.8 mph9.3 kmh 30.18 in1022.0 mb 0.00 in0.0 mm 0.00 in0.0 mm 0.00 in0.0 mm
02:43 PM 69.1°F20.6°C 55.5°F13.1°C 62% 4.2 mph S6.8 kmh S 5.8 mph9.3 kmh 30.18 in1022.0 mb 0.00 in0.0 mm 0.00 in0.0 mm 0.00 in0.0 mm
02:44 PM 69.1°F20.6°C 55.1°F12.8°C 61% 4.2 mph SSW6.8 kmh SSW 5.8 mph9.3 kmh 30.18 in1022.0 mb 0.00 in0.0 mm 0.00 in0.0 mm 0.00 in0.0 mm
02:45 PM 68.9°F20.5°C 55.3°F12.9°C 62% 2.7 mph SSW4.3 kmh SSW 5.8 mph9.3 kmh 30.18 in1022.0 mb 0.00 in0.0 mm 0.00 in0.0 mm 0.00 in0.0 mm
02:46 PM 68.9°F20.5°C 55.8°F13.2°C 63% 3.2 mph S5.1 kmh S 5.8 mph9.3 kmh 30.18 in1022.0 mb 0.00 in0.0 mm 0.00 in0.0 mm 0.00 in0.0 mm
02:47 PM 69.1°F20.6°C 55.5°F13.1°C 62% 4.2 mph SSW6.8 kmh SSW 5.8 mph9.3 kmh 30.18 in1022.0 mb 0.00 in0.0 mm 0.00 in0.0 mm 0.00 in0.0 mm
02:48 PM 68.9°F20.5°C 55.3°F12.9°C 62% 2.7 mph S4.3 kmh S 5.8 mph9.3 kmh 30.18 in1022.0 mb 0.00 in0.0 mm 0.00 in0.0 mm 0.00 in0.0 mm
02:49 PM 69.1°F20.6°C 55.5°F13.1°C 62% 3.7 mph S6.0 kmh S 5.8 mph9.3 kmh 30.18 in1022.0 mb 0.00 in0.0 mm 0.00 in0.0 mm 0.00 in0.0 mm
02:50 PM 69.3°F20.7°C 55.7°F13.2°C 62% 3.2 mph SSW5.1 kmh SSW 5.8 mph9.3 kmh 30.19 in1022.4 mb 0.00 in0.0 mm 0.00 in0.0 mm 0.00 in0.0 mm
02:51 PM 69.4°F20.8°C 55.8°F13.2°C 62% 3.2 mph S5.1 kmh S 5.8 mph9.3 kmh 30.19 in1022.4 mb 0.00 in0.0 mm 0.00 in0.0 mm 0.00 in0.0 mm
02:52 PM 69.3°F20.7°C 55.7°F13.2°C 62% 3.7 mph SSE6.0 kmh SSE 5.8 mph9.3 kmh 30.19 in1022.4 mb 0.00 in0.0 mm 0.00 in0.0 mm 0.00 in0.0 mm
02:53 PM 69.3°F20.7°C 56.1°F13.4°C 63% 1.7 mph SSW2.7 kmh SSW 5.3 mph8.5 kmh 30.19 in1022.4 mb 0.00 in0.0 mm 0.00 in0.0 mm 0.00 in0.0 mm
02:54 PM 69.4°F20.8°C 55.8°F13.2°C 62% 1.7 mph SW2.7 kmh SW 5.3 mph8.5 kmh 30.19 in1022.4 mb 0.00 in0.0 mm 0.00 in0.0 mm 0.00 in0.0 mm
02:55 PM 69.6°F20.9°C 55.6°F13.1°C 61% 4.7 mph SSW7.6 kmh SSW 5.3 mph8.5 kmh 30.19 in1022.4 mb 0.00 in0.0 mm 0.00 in0.0 mm 0.00 in0.0 mm
02:56 PM 69.3°F20.7°C 55.2°F12.9°C 61% 4.7 mph SW7.6 kmh SW 4.7 mph7.6 kmh 30.19 in1022.4 mb 0.00 in0.0 mm 0.00 in0.0 mm 0.00 in0.0 mm
02:57 PM 69.1°F20.6°C 55.5°F13.1°C 62% 3.7 mph S6.0 kmh S 5.8 mph9.3 kmh 30.19 in1022.4 mb 0.00 in0.0 mm 0.00 in0.0 mm 0.00 in0.0 mm
02:58 PM 69.1°F20.6°C 55.5°F13.1°C 62% 3.7 mph S6.0 kmh S 5.8 mph9.3 kmh 30.19 in1022.4 mb 0.00 in0.0 mm 0.00 in0.0 mm 0.00 in0.0 mm
02:59 PM 69.1°F20.6°C 55.5°F13.1°C 62% 3.2 mph SSW5.1 kmh SSW 5.8 mph9.3 kmh 30.19 in1022.4 mb 0.00 in0.0 mm 0.00 in0.0 mm 0.00 in0.0 mm
03:00 PM 69.1°F20.6°C 55.1°F12.8°C 61% 3.7 mph SSW6.0 kmh SSW 5.8 mph9.3 kmh 30.19 in1022.4 mb 0.00 in0.0 mm 0.00 in0.0 mm 0.00 in0.0 mm
03:01 PM 69.1°F20.6°C 55.5°F13.1°C 62% 3.2 mph SW5.1 kmh SW 5.8 mph9.3 kmh 30.19 in1022.4 mb 0.00 in0.0 mm 0.00 in0.0 mm 0.00 in0.0 mm
03:02 PM 69.1°F20.6°C 55.5°F13.1°C 62% 3.2 mph SSW5.1 kmh SSW 5.8 mph9.3 kmh 30.19 in1022.4 mb 0.00 in0.0 mm 0.00 in0.0 mm 0.00 in0.0 mm
03:03 PM 69.4°F20.8°C 56.3°F13.5°C 63% 4.2 mph SSW6.8 kmh SSW 5.8 mph9.3 kmh 30.19 in1022.4 mb 0.00 in0.0 mm 0.00 in0.0 mm 0.00 in0.0 mm
03:04 PM 69.3°F20.7°C 56.1°F13.4°C 63% 5.8 mph SSW9.3 kmh SSW 5.8 mph9.3 kmh 30.19 in1022.4 mb 0.00 in0.0 mm 0.00 in0.0 mm 0.00 in0.0 mm
03:05 PM 69.1°F20.6°C 55.9°F13.3°C 63% 3.7 mph SSW6.0 kmh SSW 5.8 mph9.3 kmh 30.19 in1022.4 mb 0.00 in0.0 mm 0.00 in0.0 mm 0.00 in0.0 mm
03:06 PM 69.3°F20.7°C 56.6°F13.7°C 64% 4.2 mph SSW6.8 kmh SSW 5.8 mph9.3 kmh 30.19 in1022.4 mb 0.00 in0.0 mm 0.00 in0.0 mm 0.00 in0.0 mm
03:07 PM 69.3°F20.7°C 56.6°F13.7°C 64% 5.8 mph SSW9.3 kmh SSW 5.8 mph9.3 kmh 30.19 in1022.4 mb 0.00 in0.0 mm 0.00 in0.0 mm 0.00 in0.0 mm
03:08 PM 68.9°F20.5°C 55.3°F12.9°C 62% 3.7 mph SSW6.0 kmh SSW 5.8 mph9.3 kmh 30.19 in1022.4 mb 0.00 in0.0 mm 0.00 in0.0 mm 0.00 in0.0 mm
03:09 PM 69.1°F20.6°C 55.5°F13.1°C 62% 3.2 mph SSW5.1 kmh SSW 5.8 mph9.3 kmh 30.19 in1022.4 mb 0.00 in0.0 mm 0.00 in0.0 mm 0.00 in0.0 mm
03:10 PM 69.3°F20.7°C 56.1°F13.4°C 63% 2.7 mph SSW4.3 kmh SSW 5.8 mph9.3 kmh 30.19 in1022.4 mb 0.00 in0.0 mm 0.00 in0.0 mm 0.00 in0.0 mm
03:11 PM 69.3°F20.7°C 56.1°F13.4°C 63% 1.7 mph W2.7 kmh W 5.8 mph9.3 kmh 30.19 in1022.4 mb 0.00 in0.0 mm 0.00 in0.0 mm 0.00 in0.0 mm
03:12 PM 69.6°F20.9°C 56.9°F13.8°C 64% 5.3 mph SSW8.5 kmh SSW 5.8 mph9.3 kmh 30.19 in1022.4 mb 0.00 in0.0 mm 0.00 in0.0 mm 0.00 in0.0 mm
03:13 PM 69.4°F20.8°C 55.8°F13.2°C 62% 1.7 mph SW2.7 kmh SW 5.8 mph9.3 kmh 30.19 in1022.4 mb 0.00 in0.0 mm 0.00 in0.0 mm 0.00 in0.0 mm
03:14 PM 69.4°F20.8°C 55.8°F13.2°C 62% 3.7 mph SSW6.0 kmh SSW 5.8 mph9.3 kmh 30.19 in1022.4 mb 0.00 in0.0 mm 0.00 in0.0 mm 0.00 in0.0 mm
03:15 PM 69.3°F20.7°C 56.1°F13.4°C 63% 1.1 mph WSW1.8 kmh WSW 5.8 mph9.3 kmh 30.19 in1022.4 mb 0.00 in0.0 mm 0.00 in0.0 mm 0.00 in0.0 mm
03:16 PM 69.3°F20.7°C 56.6°F13.7°C 64% 1.1 mph SW1.8 kmh SW 5.8 mph9.3 kmh 30.19 in1022.4 mb 0.00 in0.0 mm 0.00 in0.0 mm 0.00 in0.0 mm
03:17 PM 69.3°F20.7°C 56.6°F13.7°C 64% Calm Calm 5.8 mph9.3 kmh 30.19 in1022.4 mb 0.00 in0.0 mm 0.00 in0.0 mm 0.00 in0.0 mm
03:18 PM 69.6°F20.9°C 56.9°F13.8°C 64% Calm Calm 5.3 mph8.5 kmh 30.19 in1022.4 mb 0.00 in0.0 mm 0.00 in0.0 mm 0.00 in0.0 mm
03:19 PM 69.6°F20.9°C 57.3°F14.1°C 65% 1.1 mph WSW1.8 kmh WSW 5.3 mph8.5 kmh 30.19 in1022.4 mb 0.00 in0.0 mm 0.00 in0.0 mm 0.00 in0.0 mm
03:20 PM 69.6°F20.9°C 57.3°F14.1°C 65% 3.2 mph SSW5.1 kmh SSW 5.3 mph8.5 kmh 30.19 in1022.4 mb 0.00 in0.0 mm 0.00 in0.0 mm 0.00 in0.0 mm
03:21 PM 69.6°F20.9°C 56.9°F13.8°C 64% 1.7 mph SSW2.7 kmh SSW 5.3 mph8.5 kmh 30.19 in1022.4 mb 0.00 in0.0 mm 0.00 in0.0 mm 0.00 in0.0 mm
03:22 PM 69.6°F20.9°C 56.9°F13.8°C 64% Calm Calm 5.3 mph8.5 kmh 30.19 in1022.4 mb 0.00 in0.0 mm 0.00 in0.0 mm 0.00 in0.0 mm
03:23 PM 69.6°F20.9°C 56.5°F13.6°C 63% 1.1 mph SSW1.8 kmh SSW 4.7 mph7.6 kmh 30.19 in1022.4 mb 0.00 in0.0 mm 0.00 in0.0 mm 0.00 in0.0 mm
03:24 PM 69.6°F20.9°C 56.5°F13.6°C 63% Calm Calm 3.7 mph6.0 kmh 30.19 in1022.4 mb 0.00 in0.0 mm 0.00 in0.0 mm 0.00 in0.0 mm
03:25 PM 69.8°F21.0°C 57.5°F14.2°C 65% Calm Calm 3.2 mph5.1 kmh 30.19 in1022.4 mb 0.00 in0.0 mm 0.00 in0.0 mm 0.00 in0.0 mm
03:26 PM 68.9°F20.5°C 57.1°F13.9°C 66% 2.7 mph SW4.3 kmh SW 3.2 mph5.1 kmh 30.20 in1022.7 mb 0.00 in0.0 mm 0.00 in0.0 mm 0.00 in0.0 mm
03:27 PM 68.5°F20.3°C 56.7°F13.7°C 66% Calm Calm 3.2 mph5.1 kmh 30.20 in1022.7 mb 0.00 in0.0 mm 0.00 in0.0 mm 0.00 in0.0 mm
03:28 PM 68.5°F20.3°C 56.7°F13.7°C 66% 1.1 mph WSW1.8 kmh WSW 3.2 mph5.1 kmh 30.20 in1022.7 mb 0.00 in0.0 mm 0.00 in0.0 mm 0.00 in0.0 mm
03:29 PM 68.5°F20.3°C 56.3°F13.5°C 65% 2.7 mph SSW4.3 kmh SSW 3.2 mph5.1 kmh 30.20 in1022.7 mb 0.00 in0.0 mm 0.00 in0.0 mm 0.00 in0.0 mm
03:30 PM 68.4°F20.2°C 56.1°F13.4°C 65% Calm Calm 3.2 mph5.1 kmh 30.20 in1022.7 mb 0.00 in0.0 mm 0.00 in0.0 mm 0.00 in0.0 mm
03:31 PM 68.5°F20.3°C 56.3°F13.5°C 65% Calm Calm 3.2 mph5.1 kmh 30.20 in1022.7 mb 0.01 in0.3 mm 0.60 in15.2 mm 0.01 in0.3 mm
03:32 PM 69.3°F20.7°C 56.1°F13.4°C 63% Calm Calm 3.2 mph5.1 kmh 30.20 in1022.7 mb 0.01 in0.3 mm 0.00 in0.0 mm 0.01 in0.3 mm
03:33 PM 70.2°F21.2°C 57.0°F13.9°C 63% Calm Calm 3.2 mph5.1 kmh 30.20 in1022.7 mb 0.03 in0.8 mm 1.20 in30.5 mm 0.03 in0.8 mm
03:34 PM 70.5°F21.4°C 57.3°F14.1°C 63% Calm Calm 3.2 mph5.1 kmh 30.20 in1022.7 mb 0.03 in0.8 mm 0.00 in0.0 mm 0.03 in0.8 mm
03:35 PM 70.9°F21.6°C 57.6°F14.2°C 63% Calm Calm 3.2 mph5.1 kmh 30.20 in1022.7 mb 0.03 in0.8 mm 0.00 in0.0 mm 0.03 in0.8 mm
03:36 PM 71.2°F21.8°C 58.0°F14.4°C 63% Calm Calm 3.2 mph5.1 kmh 30.20 in1022.7 mb 0.04 in1.0 mm 0.60 in15.2 mm 0.04 in1.0 mm
03:37 PM 71.4°F21.9°C 58.2°F14.6°C 63% Calm Calm 3.2 mph5.1 kmh 30.20 in1022.7 mb 0.04 in1.0 mm 0.00 in0.0 mm 0.04 in1.0 mm
03:38 PM 71.8°F22.1°C 59.4°F15.2°C 65% Calm Calm 3.2 mph5.1 kmh 30.19 in1022.4 mb 0.05 in1.3 mm 0.60 in15.2 mm 0.05 in1.3 mm
03:39 PM 72.0°F22.2°C 59.1°F15.1°C 64% Calm Calm 3.2 mph5.1 kmh 30.19 in1022.4 mb 0.06 in1.5 mm 0.60 in15.2 mm 0.06 in1.5 mm
03:40 PM 72.1°F22.3°C 58.8°F14.9°C 63% Calm Calm 1.1 mph1.8 kmh 30.19 in1022.4 mb 0.06 in1.5 mm 0.00 in0.0 mm 0.06 in1.5 mm
03:41 PM 72.3°F22.4°C 58.6°F14.8°C 62% Calm Calm 1.1 mph1.8 kmh 30.19 in1022.4 mb 0.06 in1.5 mm 0.00 in0.0 mm 0.06 in1.5 mm
03:42 PM 72.3°F22.4°C 58.6°F14.8°C 62% Calm Calm 1.1 mph1.8 kmh 30.19 in1022.4 mb 0.06 in1.5 mm 0.00 in0.0 mm 0.06 in1.5 mm
04:04 PM 79.2°F26.2°C 59.5°F15.3°C 51% Calm Calm -- 30.19 in1022.4 mb 0.06 in1.5 mm 0.00 in0.0 mm 0.06 in1.5 mm
04:05 PM 79.2°F26.2°C 59.5°F15.3°C 51% Calm Calm -- 30.19 in1022.4 mb 0.06 in1.5 mm 0.00 in0.0 mm 0.06 in1.5 mm
04:06 PM 79.2°F26.2°C 59.5°F15.3°C 51% Calm Calm -- 30.19 in1022.4 mb 0.06 in1.5 mm 0.00 in0.0 mm 0.06 in1.5 mm
04:07 PM 79.0°F26.1°C 59.3°F15.2°C 51% Calm Calm -- 30.19 in1022.4 mb 0.06 in1.5 mm 0.00 in0.0 mm 0.06 in1.5 mm
04:08 PM 79.0°F26.1°C 59.3°F15.2°C 51% 5.3 mph SE8.5 kmh SE 5.3 mph8.5 kmh 30.19 in1022.4 mb 0.06 in1.5 mm 0.00 in0.0 mm 0.06 in1.5 mm
04:09 PM 79.0°F26.1°C 59.8°F15.4°C 52% Calm Calm 6.8 mph10.9 kmh 30.19 in1022.4 mb 0.06 in1.5 mm 0.00 in0.0 mm 0.06 in1.5 mm
04:10 PM 78.4°F25.8°C 58.8°F14.9°C 51% Calm Calm 6.8 mph10.9 kmh 30.19 in1022.4 mb 0.06 in1.5 mm 0.00 in0.0 mm 0.06 in1.5 mm
04:11 PM 78.1°F25.6°C 59.0°F15.0°C 52% Calm Calm 6.8 mph10.9 kmh 30.19 in1022.4 mb 0.06 in1.5 mm 0.00 in0.0 mm 0.06 in1.5 mm
04:12 PM 77.7°F25.4°C 58.7°F14.8°C 52% Calm Calm 6.8 mph10.9 kmh 30.19 in1022.4 mb 0.09 in2.3 mm 1.80 in45.7 mm 0.09 in2.3 mm
04:13 PM 76.8°F24.9°C 57.3°F14.1°C 51% 3.2 mph SW5.1 kmh SW 6.8 mph10.9 kmh 30.19 in1022.4 mb 0.10 in2.5 mm 0.60 in15.2 mm 0.10 in2.5 mm
04:14 PM 76.1°F24.5°C 56.6°F13.7°C 51% 2.2 mph SSW3.5 kmh SSW 6.8 mph10.9 kmh 30.19 in1022.4 mb 0.10 in2.5 mm 0.00 in0.0 mm 0.10 in2.5 mm
04:15 PM 76.1°F24.5°C 56.6°F13.7°C 51% 4.7 mph SSW7.6 kmh SSW 6.8 mph10.9 kmh 30.19 in1022.4 mb 0.10 in2.5 mm 0.00 in0.0 mm 0.10 in2.5 mm
04:16 PM 72.0°F22.2°C 55.4°F13.0°C 56% 3.7 mph SSW6.0 kmh SSW 6.8 mph10.9 kmh 30.19 in1022.4 mb 0.10 in2.5 mm 0.00 in0.0 mm 0.10 in2.5 mm
04:17 PM 71.8°F22.1°C 55.7°F13.2°C 57% 4.2 mph WSW6.8 kmh WSW 6.8 mph10.9 kmh 30.19 in1022.4 mb 0.10 in2.5 mm 0.00 in0.0 mm 0.10 in2.5 mm
04:18 PM 71.1°F21.7°C 55.5°F13.1°C 58% 4.2 mph SSW6.8 kmh SSW 6.8 mph10.9 kmh 30.19 in1022.4 mb 0.10 in2.5 mm 0.00 in0.0 mm 0.10 in2.5 mm
04:19 PM 71.2°F21.8°C 55.7°F13.2°C 58% 2.7 mph SSW4.3 kmh SSW 4.7 mph7.6 kmh 30.19 in1022.4 mb 0.10 in2.5 mm 0.00 in0.0 mm 0.10 in2.5 mm
04:20 PM 70.0°F21.1°C 55.4°F13.0°C 60% 2.7 mph SSW4.3 kmh SSW 4.7 mph7.6 kmh 30.19 in1022.4 mb 0.10 in2.5 mm 0.00 in0.0 mm 0.10 in2.5 mm
04:21 PM 70.3°F21.3°C 56.2°F13.4°C 61% 2.7 mph SW4.3 kmh SW 4.7 mph7.6 kmh 30.19 in1022.4 mb 0.10 in2.5 mm 0.00 in0.0 mm 0.10 in2.5 mm
04:22 PM 70.5°F21.4°C 56.4°F13.6°C 61% 4.2 mph SSW6.8 kmh SSW 4.7 mph7.6 kmh 30.19 in1022.4 mb 0.10 in2.5 mm 0.00 in0.0 mm 0.10 in2.5 mm
04:23 PM 69.4°F20.8°C 54.0°F12.2°C 58% 2.2 mph SSW3.5 kmh SSW 4.7 mph7.6 kmh 30.19 in1022.4 mb 0.10 in2.5 mm 0.00 in0.0 mm 0.10 in2.5 mm
04:24 PM 69.1°F20.6°C 54.1°F12.3°C 59% 2.7 mph WSW4.3 kmh WSW 4.7 mph7.6 kmh 30.19 in1022.4 mb 0.10 in2.5 mm 0.00 in0.0 mm 0.10 in2.5 mm
04:25 PM 68.7°F20.4°C 55.6°F13.1°C 63% 2.2 mph WNW3.5 kmh WNW 4.7 mph7.6 kmh 30.19 in1022.4 mb 0.10 in2.5 mm 0.00 in0.0 mm 0.10 in2.5 mm
04:26 PM 68.5°F20.3°C 55.4°F13.0°C 63% 1.7 mph WSW2.7 kmh WSW 4.7 mph7.6 kmh 30.19 in1022.4 mb 0.10 in2.5 mm 0.00 in0.0 mm 0.10 in2.5 mm
04:27 PM 68.5°F20.3°C 56.3°F13.5°C 65% 2.7 mph SSW4.3 kmh SSW 4.7 mph7.6 kmh 30.19 in1022.4 mb 0.10 in2.5 mm 0.00 in0.0 mm 0.10 in2.5 mm
04:28 PM 68.5°F20.3°C 55.4°F13.0°C 63% 2.7 mph SW4.3 kmh SW 4.7 mph7.6 kmh 30.19 in1022.4 mb 0.10 in2.5 mm 0.00 in0.0 mm 0.10 in2.5 mm
04:29 PM 68.5°F20.3°C 55.9°F13.3°C 64% 5.8 mph S9.3 kmh S 5.8 mph9.3 kmh 30.19 in1022.4 mb 0.10 in2.5 mm 0.00 in0.0 mm 0.10 in2.5 mm
04:30 PM 68.7°F20.4°C 56.0°F13.3°C 64% 4.7 mph S7.6 kmh S 5.8 mph9.3 kmh 30.19 in1022.4 mb 0.10 in2.5 mm 0.00 in0.0 mm 0.10 in2.5 mm
04:31 PM 68.9°F20.5°C 56.2°F13.4°C 64% 4.7 mph SSW7.6 kmh SSW 5.8 mph9.3 kmh 30.19 in1022.4 mb 0.09 in2.3 mm 0.00 in0.0 mm 0.10 in2.5 mm
04:32 PM 68.9°F20.5°C 55.3°F12.9°C 62% 4.2 mph SSW6.8 kmh SSW 5.8 mph9.3 kmh 30.19 in1022.4 mb 0.09 in2.3 mm 0.00 in0.0 mm 0.10 in2.5 mm
04:33 PM 68.7°F20.4°C 55.6°F13.1°C 63% 5.3 mph SSW8.5 kmh SSW 5.8 mph9.3 kmh 30.19 in1022.4 mb 0.07 in1.8 mm 0.00 in0.0 mm 0.10 in2.5 mm
04:34 PM 68.4°F20.2°C 55.3°F12.9°C 63% 3.7 mph SSW6.0 kmh SSW 5.8 mph9.3 kmh 30.19 in1022.4 mb 0.07 in1.8 mm 0.00 in0.0 mm 0.10 in2.5 mm
04:35 PM 68.2°F20.1°C 56.0°F13.3°C 65% 5.3 mph SSW8.5 kmh SSW 5.8 mph9.3 kmh 30.19 in1022.4 mb 0.07 in1.8 mm 0.00 in0.0 mm 0.10 in2.5 mm
04:36 PM 68.2°F20.1°C 56.0°F13.3°C 65% 4.7 mph SSW7.6 kmh SSW 5.8 mph9.3 kmh 30.19 in1022.4 mb 0.06 in1.5 mm 0.00 in0.0 mm 0.10 in2.5 mm
04:37 PM 68.2°F20.1°C 55.1°F12.8°C 63% 3.7 mph SSW6.0 kmh SSW 5.8 mph9.3 kmh 30.19 in1022.4 mb 0.06 in1.5 mm 0.00 in0.0 mm 0.10 in2.5 mm
04:38 PM 68.2°F20.1°C 55.5°F13.1°C 64% 3.7 mph SW6.0 kmh SW 5.8 mph9.3 kmh 30.19 in1022.4 mb 0.05 in1.3 mm 0.00 in0.0 mm 0.10 in2.5 mm
04:39 PM 68.2°F20.1°C 56.0°F13.3°C 65% 3.7 mph SSW6.0 kmh SSW 5.3 mph8.5 kmh 30.19 in1022.4 mb 0.04 in1.0 mm 0.00 in0.0 mm 0.10 in2.5 mm
04:40 PM 68.2°F20.1°C 56.0°F13.3°C 65% 5.3 mph SW8.5 kmh SW 5.8 mph9.3 kmh 30.19 in1022.4 mb 0.04 in1.0 mm 0.00 in0.0 mm 0.10 in2.5 mm
04:41 PM 68.2°F20.1°C 55.5°F13.1°C 64% 4.2 mph S6.8 kmh S 5.8 mph9.3 kmh 30.19 in1022.4 mb 0.04 in1.0 mm 0.00 in0.0 mm 0.10 in2.5 mm
04:42 PM 68.2°F20.1°C 55.1°F12.8°C 63% 4.7 mph SSW7.6 kmh SSW 5.8 mph9.3 kmh 30.19 in1022.4 mb 0.04 in1.0 mm 0.00 in0.0 mm 0.10 in2.5 mm
04:43 PM 68.2°F20.1°C 56.4°F13.6°C 66% 4.7 mph S7.6 kmh S 5.8 mph9.3 kmh 30.19 in1022.4 mb 0.04 in1.0 mm 0.00 in0.0 mm 0.10 in2.5 mm
04:44 PM 68.4°F20.2°C 56.6°F13.7°C 66% 4.7 mph SSW7.6 kmh SSW 5.8 mph9.3 kmh 30.19 in1022.4 mb 0.04 in1.0 mm 0.00 in0.0 mm 0.10 in2.5 mm
04:45 PM 68.4°F20.2°C 57.0°F13.9°C 67% 4.7 mph SSW7.6 kmh SSW 5.8 mph9.3 kmh 30.19 in1022.4 mb 0.04 in1.0 mm 0.00 in0.0 mm 0.10 in2.5 mm
04:46 PM 68.0°F20.0°C 57.0°F13.9°C 68% 4.2 mph SW6.8 kmh SW 5.8 mph9.3 kmh 30.19 in1022.4 mb 0.04 in1.0 mm 0.00 in0.0 mm 0.10 in2.5 mm
04:47 PM 68.0°F20.0°C 57.4°F14.1°C 69% 4.2 mph SW6.8 kmh SW 5.8 mph9.3 kmh 30.19 in1022.4 mb 0.04 in1.0 mm 0.00 in0.0 mm 0.10 in2.5 mm
04:48 PM 67.8°F19.9°C 57.7°F14.3°C 70% 3.2 mph SSW5.1 kmh SSW 5.8 mph9.3 kmh 30.19 in1022.4 mb 0.04 in1.0 mm 0.00 in0.0 mm 0.10 in2.5 mm
04:49 PM 67.8°F19.9°C 57.7°F14.3°C 70% 4.2 mph SSW6.8 kmh SSW 5.8 mph9.3 kmh 30.19 in1022.4 mb 0.04 in1.0 mm 0.00 in0.0 mm 0.10 in2.5 mm
04:50 PM 67.6°F19.8°C 57.1°F13.9°C 69% 3.7 mph SSW6.0 kmh SSW 5.3 mph8.5 kmh 30.19 in1022.4 mb 0.04 in1.0 mm 0.00 in0.0 mm 0.10 in2.5 mm
04:51 PM 67.5°F19.7°C 56.9°F13.8°C 69% 4.2 mph SSW6.8 kmh SSW 5.3 mph8.5 kmh 30.19 in1022.4 mb 0.04 in1.0 mm 0.00 in0.0 mm 0.10 in2.5 mm
04:52 PM 67.5°F19.7°C 56.9°F13.8°C 69% 4.7 mph S7.6 kmh S 5.3 mph8.5 kmh 30.19 in1022.4 mb 0.04 in1.0 mm 0.00 in0.0 mm 0.10 in2.5 mm
04:53 PM 67.5°F19.7°C 57.7°F14.3°C 71% 3.2 mph SSW5.1 kmh SSW 5.3 mph8.5 kmh 30.19 in1022.4 mb 0.04 in1.0 mm 0.00 in0.0 mm 0.10 in2.5 mm
04:54 PM 67.6°F19.8°C 57.9°F14.4°C 71% 2.7 mph SSW4.3 kmh SSW 5.3 mph8.5 kmh 30.19 in1022.4 mb 0.04 in1.0 mm 0.00 in0.0 mm 0.10 in2.5 mm
04:55 PM 67.8°F19.9°C 56.9°F13.8°C 68% 3.7 mph S6.0 kmh S 5.3 mph8.5 kmh 30.19 in1022.4 mb 0.04 in1.0 mm 0.00 in0.0 mm 0.10 in2.5 mm
04:56 PM 67.8°F19.9°C 56.9°F13.8°C 68% 3.2 mph S5.1 kmh S 5.3 mph8.5 kmh 30.19 in1022.4 mb 0.04 in1.0 mm 0.00 in0.0 mm 0.10 in2.5 mm
04:57 PM 67.8°F19.9°C 56.9°F13.8°C 68% 3.2 mph SSW5.1 kmh SSW 5.3 mph8.5 kmh 30.19 in1022.4 mb 0.04 in1.0 mm 0.00 in0.0 mm 0.10 in2.5 mm
04:58 PM 67.8°F19.9°C 57.3°F14.1°C 69% 4.7 mph SSW7.6 kmh SSW 5.3 mph8.5 kmh 30.19 in1022.4 mb 0.04 in1.0 mm 0.00 in0.0 mm 0.10 in2.5 mm
04:59 PM 67.6°F19.8°C 57.1°F13.9°C 69% 4.7 mph SSW7.6 kmh SSW 5.3 mph8.5 kmh 30.19 in1022.4 mb 0.04 in1.0 mm 0.00 in0.0 mm 0.10 in2.5 mm
05:00 PM 67.6°F19.8°C 57.5°F14.2°C 70% 4.7 mph SSW7.6 kmh SSW 5.3 mph8.5 kmh 30.19 in1022.4 mb 0.04 in1.0 mm 0.00 in0.0 mm 0.10 in2.5 mm
05:01 PM 67.5°F19.7°C 57.3°F14.1°C 70% 4.2 mph SSW6.8 kmh SSW 5.3 mph8.5 kmh 30.19 in1022.4 mb 0.04 in1.0 mm 0.00 in0.0 mm 0.10 in2.5 mm
05:02 PM 67.5°F19.7°C 56.9°F13.8°C 69% 4.7 mph SSW7.6 kmh SSW 5.3 mph8.5 kmh 30.19 in1022.4 mb 0.04 in1.0 mm 0.00 in0.0 mm 0.10 in2.5 mm
05:03 PM 67.5°F19.7°C 57.3°F14.1°C 70% 3.2 mph SSW5.1 kmh SSW 5.3 mph8.5 kmh 30.19 in1022.4 mb 0.04 in1.0 mm 0.00 in0.0 mm 0.10 in2.5 mm
05:04 PM 67.5°F19.7°C 57.3°F14.1°C 70% 5.3 mph SW8.5 kmh SW 5.3 mph8.5 kmh 30.19 in1022.4 mb 0.04 in1.0 mm 0.00 in0.0 mm 0.10 in2.5 mm
05:05 PM 67.5°F19.7°C 57.7°F14.3°C 71% 3.7 mph SSW6.0 kmh SSW 5.3 mph8.5 kmh 30.19 in1022.4 mb 0.04 in1.0 mm 0.00 in0.0 mm 0.10 in2.5 mm
05:06 PM 67.5°F19.7°C 58.1°F14.5°C 72% 3.7 mph SSW6.0 kmh SSW 5.3 mph8.5 kmh 30.19 in1022.4 mb 0.04 in1.0 mm 0.00 in0.0 mm 0.10 in2.5 mm
05:07 PM 67.5°F19.7°C 58.1°F14.5°C 72% 3.2 mph SSW5.1 kmh SSW 5.3 mph8.5 kmh 30.19 in1022.4 mb 0.04 in1.0 mm 0.00 in0.0 mm 0.10 in2.5 mm
05:08 PM 67.5°F19.7°C 58.1°F14.5°C 72% 4.2 mph SSW6.8 kmh SSW 5.3 mph8.5 kmh 30.19 in1022.4 mb 0.04 in1.0 mm 0.00 in0.0 mm 0.10 in2.5 mm
05:09 PM 67.5°F19.7°C 58.1°F14.5°C 72% 4.2 mph SSW6.8 kmh SSW 5.3 mph8.5 kmh 30.19 in1022.4 mb 0.04 in1.0 mm 0.00 in0.0 mm 0.10 in2.5 mm
05:10 PM 67.5°F19.7°C 58.5°F14.7°C 73% 3.7 mph SSW6.0 kmh SSW 5.3 mph8.5 kmh 30.19 in1022.4 mb 0.04 in1.0 mm 0.00 in0.0 mm 0.10 in2.5 mm
05:11 PM 67.5°F19.7°C 58.5°F14.7°C 73% 4.7 mph SSW7.6 kmh SSW 5.3 mph8.5 kmh 30.19 in1022.4 mb 0.04 in1.0 mm 0.00 in0.0 mm 0.10 in2.5 mm
05:12 PM 67.5°F19.7°C 58.5°F14.7°C 73% 3.7 mph SSW6.0 kmh SSW 5.3 mph8.5 kmh 30.19 in1022.4 mb 0.02 in0.5 mm 0.00 in0.0 mm 0.10 in2.5 mm
05:13 PM 67.5°F19.7°C 58.1°F14.5°C 72% 2.2 mph SSW3.5 kmh SSW 5.3 mph8.5 kmh 30.20 in1022.7 mb 0.00 in0.0 mm 0.00 in0.0 mm 0.10 in2.5 mm
05:14 PM 67.5°F19.7°C 58.1°F14.5°C 72% 6.3 mph SSW10.1 kmh SSW 6.3 mph10.1 kmh 30.20 in1022.7 mb 0.00 in0.0 mm 0.00 in0.0 mm 0.10 in2.5 mm
05:15 PM 67.5°F19.7°C 58.1°F14.5°C 72% 4.2 mph SSW6.8 kmh SSW 6.3 mph10.1 kmh 30.20 in1022.7 mb 0.00 in0.0 mm 0.00 in0.0 mm 0.10 in2.5 mm
05:16 PM 67.3°F19.6°C 57.9°F14.4°C 72% 3.7 mph SSW6.0 kmh SSW 6.3 mph10.1 kmh 30.20 in1022.7 mb 0.00 in0.0 mm 0.00 in0.0 mm 0.10 in2.5 mm
05:17 PM 67.3°F19.6°C 57.9°F14.4°C 72% 3.2 mph SSW5.1 kmh SSW 6.3 mph10.1 kmh 30.20 in1022.7 mb 0.00 in0.0 mm 0.00 in0.0 mm 0.10 in2.5 mm
05:18 PM 67.3°F19.6°C 57.9°F14.4°C 72% 4.2 mph SSW6.8 kmh SSW 6.3 mph10.1 kmh 30.20 in1022.7 mb 0.00 in0.0 mm 0.00 in0.0 mm 0.10 in2.5 mm
05:19 PM 67.3°F19.6°C 57.9°F14.4°C 72% 4.7 mph SSW7.6 kmh SSW 6.3 mph10.1 kmh 30.20 in1022.7 mb 0.00 in0.0 mm 0.00 in0.0 mm 0.10 in2.5 mm
05:20 PM 66.9°F19.4°C 57.6°F14.2°C 72% 4.7 mph SSW7.6 kmh SSW 6.3 mph10.1 kmh 30.20 in1022.7 mb 0.00 in0.0 mm 0.00 in0.0 mm 0.10 in2.5 mm
05:21 PM 66.7°F19.3°C 57.8°F14.3°C 73% 3.7 mph SSW6.0 kmh SSW 6.3 mph10.1 kmh 30.20 in1022.7 mb 0.00 in0.0 mm 0.00 in0.0 mm 0.10 in2.5 mm
05:22 PM 66.7°F19.3°C 57.8°F14.3°C 73% 4.2 mph SSW6.8 kmh SSW 6.3 mph10.1 kmh 30.20 in1022.7 mb 0.00 in0.0 mm 0.00 in0.0 mm 0.10 in2.5 mm
05:23 PM 66.7°F19.3°C 58.2°F14.6°C 74% 3.7 mph SSW6.0 kmh SSW 6.3 mph10.1 kmh 30.20 in1022.7 mb 0.00 in0.0 mm 0.00 in0.0 mm 0.10 in2.5 mm
05:24 PM 66.7°F19.3°C 58.2°F14.6°C 74% 4.2 mph S6.8 kmh S 6.3 mph10.1 kmh 30.20 in1022.7 mb 0.00 in0.0 mm 0.00 in0.0 mm 0.10 in2.5 mm
05:25 PM 66.6°F19.2°C 58.0°F14.4°C 74% 3.7 mph SSW6.0 kmh SSW 5.3 mph8.5 kmh 30.20 in1022.7 mb 0.00 in0.0 mm 0.00 in0.0 mm 0.10 in2.5 mm
05:26 PM 66.6°F19.2°C 58.0°F14.4°C 74% 2.7 mph SSW4.3 kmh SSW 5.3 mph8.5 kmh 30.20 in1022.7 mb 0.00 in0.0 mm 0.00 in0.0 mm 0.10 in2.5 mm
05:27 PM 66.6°F19.2°C 58.0°F14.4°C 74% 4.2 mph SSW6.8 kmh SSW 5.3 mph8.5 kmh 30.20 in1022.7 mb 0.00 in0.0 mm 0.00 in0.0 mm 0.10 in2.5 mm
05:28 PM 66.6°F19.2°C 58.0°F14.4°C 74% 4.7 mph SSW7.6 kmh SSW 5.3 mph8.5 kmh 30.20 in1022.7 mb 0.00 in0.0 mm 0.00 in0.0 mm 0.10 in2.5 mm
05:29 PM 66.6°F19.2°C 58.4°F14.7°C 75% 4.2 mph SSW6.8 kmh SSW 5.3 mph8.5 kmh 30.20 in1022.7 mb 0.00 in0.0 mm 0.00 in0.0 mm 0.10 in2.5 mm
05:30 PM 66.6°F19.2°C 58.8°F14.9°C 76% 1.7 mph S2.7 kmh S 5.3 mph8.5 kmh 30.20 in1022.7 mb 0.00 in0.0 mm 0.00 in0.0 mm 0.10 in2.5 mm
05:31 PM 66.6°F19.2°C 58.4°F14.7°C 75% 2.7 mph S4.3 kmh S 5.3 mph8.5 kmh 30.20 in1022.7 mb 0.00 in0.0 mm 0.00 in0.0 mm 0.10 in2.5 mm
05:32 PM 66.6°F19.2°C 58.0°F14.4°C 74% 2.7 mph S4.3 kmh S 5.3 mph8.5 kmh 30.20 in1022.7 mb 0.00 in0.0 mm 0.00 in0.0 mm 0.10 in2.5 mm
05:33 PM 66.6°F19.2°C 58.4°F14.7°C 75% 2.7 mph SSW4.3 kmh SSW 5.3 mph8.5 kmh 30.20 in1022.7 mb 0.00 in0.0 mm 0.00 in0.0 mm 0.10 in2.5 mm
05:34 PM 66.6°F19.2°C 58.0°F14.4°C 74% 4.2 mph SSW6.8 kmh SSW 5.3 mph8.5 kmh 30.20 in1022.7 mb 0.00 in0.0 mm 0.00 in0.0 mm 0.10 in2.5 mm
05:35 PM 66.4°F19.1°C 58.2°F14.6°C 75% 4.2 mph S6.8 kmh S 4.7 mph7.6 kmh 30.20 in1022.7 mb 0.00 in0.0 mm 0.00 in0.0 mm 0.10 in2.5 mm
05:36 PM 66.4°F19.1°C 58.2°F14.6°C 75% 3.7 mph S6.0 kmh S 4.7 mph7.6 kmh 30.20 in1022.7 mb 0.00 in0.0 mm 0.00 in0.0 mm 0.10 in2.5 mm
05:37 PM 66.2°F19.0°C 58.0°F14.4°C 75% 3.2 mph SSW5.1 kmh SSW 4.7 mph7.6 kmh 30.20 in1022.7 mb 0.00 in0.0 mm 0.00 in0.0 mm 0.10 in2.5 mm
05:38 PM 66.2°F19.0°C 58.0°F14.4°C 75% 3.7 mph SSW6.0 kmh SSW 4.7 mph7.6 kmh 30.20 in1022.7 mb 0.00 in0.0 mm 0.00 in0.0 mm 0.10 in2.5 mm
05:39 PM 66.2°F19.0°C 58.4°F14.7°C 76% 3.2 mph SSW5.1 kmh SSW 4.2 mph6.8 kmh 30.20 in1022.7 mb 0.00 in0.0 mm 0.00 in0.0 mm 0.10 in2.5 mm
05:40 PM 66.0°F18.9°C 57.9°F14.4°C 75% 3.2 mph WSW5.1 kmh WSW 4.2 mph6.8 kmh 30.20 in1022.7 mb 0.00 in0.0 mm 0.00 in0.0 mm 0.10 in2.5 mm
05:41 PM 66.0°F18.9°C 58.2°F14.6°C 76% 3.7 mph SSW6.0 kmh SSW 4.2 mph6.8 kmh 30.20 in1022.7 mb 0.00 in0.0 mm 0.00 in0.0 mm 0.10 in2.5 mm
05:42 PM 66.0°F18.9°C 58.2°F14.6°C 76% 3.2 mph SSW5.1 kmh SSW 4.2 mph6.8 kmh 30.20 in1022.7 mb 0.00 in0.0 mm 0.00 in0.0 mm 0.10 in2.5 mm
05:43 PM 66.0°F18.9°C 58.2°F14.6°C 76% 2.7 mph SSW4.3 kmh SSW 4.2 mph6.8 kmh 30.20 in1022.7 mb 0.00 in0.0 mm 0.00 in0.0 mm 0.10 in2.5 mm
05:44 PM 66.0°F18.9°C 58.2°F14.6°C 76% 3.2 mph SW5.1 kmh SW 4.2 mph6.8 kmh 30.20 in1022.7 mb 0.00 in0.0 mm 0.00 in0.0 mm 0.10 in2.5 mm
05:45 PM 66.0°F18.9°C 58.2°F14.6°C 76% 4.2 mph SSW6.8 kmh SSW 4.2 mph6.8 kmh 30.20 in1022.7 mb 0.00 in0.0 mm 0.00 in0.0 mm 0.10 in2.5 mm
05:46 PM 66.0°F18.9°C 58.2°F14.6°C 76% 3.2 mph SSW5.1 kmh SSW 4.2 mph6.8 kmh 30.20 in1022.7 mb 0.00 in0.0 mm 0.00 in0.0 mm 0.10 in2.5 mm
05:47 PM 65.8°F18.8°C 58.4°F14.7°C 77% 3.2 mph SSW5.1 kmh SSW 4.2 mph6.8 kmh 30.20 in1022.7 mb 0.00 in0.0 mm 0.00 in0.0 mm 0.10 in2.5 mm
05:48 PM 65.7°F18.7°C 58.6°F14.8°C 78% 1.7 mph SSW2.7 kmh SSW 4.2 mph6.8 kmh 30.20 in1022.7 mb 0.00 in0.0 mm 0.00 in0.0 mm 0.10 in2.5 mm
05:49 PM 65.7°F18.7°C 58.6°F14.8°C 78% 2.7 mph SSW4.3 kmh SSW 4.2 mph6.8 kmh 30.20 in1022.7 mb 0.00 in0.0 mm 0.00 in0.0 mm 0.10 in2.5 mm
05:50 PM 65.5°F18.6°C 58.4°F14.7°C 78% 2.2 mph SSW3.5 kmh SSW 4.2 mph6.8 kmh 30.20 in1022.7 mb 0.00 in0.0 mm 0.00 in0.0 mm 0.10 in2.5 mm
05:51 PM 65.5°F18.6°C 58.4°F14.7°C 78% 1.7 mph SSW2.7 kmh SSW 4.2 mph6.8 kmh 30.20 in1022.7 mb 0.00 in0.0 mm 0.00 in0.0 mm 0.10 in2.5 mm
05:52 PM 65.3°F18.5°C 58.3°F14.6°C 78% 3.2 mph S5.1 kmh S 4.2 mph6.8 kmh 30.20 in1022.7 mb 0.00 in0.0 mm 0.00 in0.0 mm 0.10 in2.5 mm
05:53 PM 65.1°F18.4°C 58.1°F14.5°C 78% 4.2 mph SSW6.8 kmh SSW 4.2 mph6.8 kmh 30.20 in1022.7 mb 0.00 in0.0 mm 0.00 in0.0 mm 0.10 in2.5 mm
05:54 PM 65.1°F18.4°C 58.1°F14.5°C 78% 3.2 mph SSW5.1 kmh SSW 4.2 mph6.8 kmh 30.20 in1022.7 mb 0.00 in0.0 mm 0.00 in0.0 mm 0.10 in2.5 mm
05:55 PM 65.1°F18.4°C 58.1°F14.5°C 78% 3.2 mph SSW5.1 kmh SSW 4.2 mph6.8 kmh 30.20 in1022.7 mb 0.00 in0.0 mm 0.00 in0.0 mm 0.10 in2.5 mm
05:56 PM 65.1°F18.4°C 58.1°F14.5°C 78% 4.2 mph SSW6.8 kmh SSW 4.2 mph6.8 kmh 30.20 in1022.7 mb 0.00 in0.0 mm 0.00 in0.0 mm 0.10 in2.5 mm
05:57 PM 64.9°F18.3°C 57.6°F14.2°C 77% 3.7 mph SSW6.0 kmh SSW 4.2 mph6.8 kmh 30.20 in1022.7 mb 0.00 in0.0 mm 0.00 in0.0 mm 0.10 in2.5 mm
05:58 PM 64.9°F18.3°C 57.9°F14.4°C 78% 2.2 mph SSW3.5 kmh SSW 4.2 mph6.8 kmh 30.20 in1022.7 mb 0.00 in0.0 mm 0.00 in0.0 mm 0.10 in2.5 mm
05:59 PM 64.9°F18.3°C 57.9°F14.4°C 78% 1.7 mph SW2.7 kmh SW 4.2 mph6.8 kmh 30.20 in1022.7 mb 0.00 in0.0 mm 0.00 in0.0 mm 0.10 in2.5 mm
06:00 PM 64.9°F18.3°C 57.9°F14.4°C 78% Calm Calm 4.2 mph6.8 kmh 30.20 in1022.7 mb 0.00 in0.0 mm 0.00 in0.0 mm 0.10 in2.5 mm
06:01 PM 64.9°F18.3°C 57.9°F14.4°C 78% Calm Calm 4.2 mph6.8 kmh 30.20 in1022.7 mb 0.00 in0.0 mm 0.00 in0.0 mm 0.10 in2.5 mm
06:02 PM 64.9°F18.3°C 58.3°F14.6°C 79% Calm Calm 4.2 mph6.8 kmh 30.20 in1022.7 mb 0.00 in0.0 mm 0.00 in0.0 mm 0.10 in2.5 mm
06:03 PM 64.9°F18.3°C 58.3°F14.6°C 79% Calm Calm 4.2 mph6.8 kmh 30.20 in1022.7 mb 0.00 in0.0 mm 0.00 in0.0 mm 0.10 in2.5 mm
06:04 PM 64.8°F18.2°C 58.1°F14.5°C 79% Calm Calm 4.2 mph6.8 kmh 30.20 in1022.7 mb 0.00 in0.0 mm 0.00 in0.0 mm 0.10 in2.5 mm
06:05 PM 64.8°F18.2°C 58.1°F14.5°C 79% Calm Calm 4.2 mph6.8 kmh 30.20 in1022.7 mb 0.00 in0.0 mm 0.00 in0.0 mm 0.10 in2.5 mm
06:06 PM 64.8°F18.2°C 58.1°F14.5°C 79% Calm Calm 4.2 mph6.8 kmh 30.20 in1022.7 mb 0.00 in0.0 mm 0.00 in0.0 mm 0.10 in2.5 mm
06:07 PM 64.6°F18.1°C 58.3°F14.6°C 80% Calm Calm 3.7 mph6.0 kmh 30.20 in1022.7 mb 0.00 in0.0 mm 0.00 in0.0 mm 0.10 in2.5 mm
06:08 PM 64.6°F18.1°C 58.3°F14.6°C 80% Calm Calm 2.2 mph3.5 kmh 30.20 in1022.7 mb 0.00 in0.0 mm 0.00 in0.0 mm 0.10 in2.5 mm
06:09 PM 64.4°F18.0°C 58.1°F14.5°C 80% Calm Calm 1.7 mph2.7 kmh 30.20 in1022.7 mb 0.00 in0.0 mm 0.00 in0.0 mm 0.10 in2.5 mm
06:10 PM 64.2°F17.9°C 58.3°F14.6°C 81% Calm Calm -- 30.20 in1022.7 mb 0.00 in0.0 mm 0.00 in0.0 mm 0.10 in2.5 mm
06:11 PM 64.2°F17.9°C 58.3°F14.6°C 81% Calm Calm -- 30.20 in1022.7 mb 0.00 in0.0 mm 0.00 in0.0 mm 0.10 in2.5 mm
06:12 PM 64.0°F17.8°C 58.8°F14.9°C 83% Calm Calm -- 30.20 in1022.7 mb 0.00 in0.0 mm 0.00 in0.0 mm 0.10 in2.5 mm
06:13 PM 64.0°F17.8°C 58.8°F14.9°C 83% Calm Calm -- 30.20 in1022.7 mb 0.00 in0.0 mm 0.00 in0.0 mm 0.10 in2.5 mm
06:14 PM 63.9°F17.7°C 58.6°F14.8°C 83% Calm Calm -- 30.20 in1022.7 mb 0.00 in0.0 mm 0.00 in0.0 mm 0.10 in2.5 mm
06:15 PM 63.9°F17.7°C 58.6°F14.8°C 83% 1.7 mph SSW2.7 kmh SSW 1.7 mph2.7 kmh 30.20 in1022.7 mb 0.00 in0.0 mm 0.00 in0.0 mm 0.10 in2.5 mm
06:16 PM 63.9°F17.7°C 58.6°F14.8°C 83% 1.1 mph SSW1.8 kmh SSW 1.7 mph2.7 kmh 30.20 in1022.7 mb 0.00 in0.0 mm 0.00 in0.0 mm 0.10 in2.5 mm
06:17 PM 63.7°F17.6°C 58.8°F14.9°C 84% 1.7 mph SSW2.7 kmh SSW 1.7 mph2.7 kmh 30.20 in1022.7 mb 0.00 in0.0 mm 0.00 in0.0 mm 0.10 in2.5 mm
06:18 PM 63.5°F17.5°C 58.2°F14.6°C 83% Calm Calm 1.7 mph2.7 kmh 30.20 in1022.7 mb 0.00 in0.0 mm 0.00 in0.0 mm 0.10 in2.5 mm
06:19 PM 63.5°F17.5°C 57.9°F14.4°C 82% Calm Calm 1.7 mph2.7 kmh 30.20 in1022.7 mb 0.00 in0.0 mm 0.00 in0.0 mm 0.10 in2.5 mm
06:20 PM 63.3°F17.4°C 57.7°F14.3°C 82% Calm Calm 1.7 mph2.7 kmh 30.20 in1022.7 mb 0.00 in0.0 mm 0.00 in0.0 mm 0.10 in2.5 mm
06:21 PM 63.3°F17.4°C 57.7°F14.3°C 82% Calm Calm 1.7 mph2.7 kmh 30.20 in1022.7 mb 0.00 in0.0 mm 0.00 in0.0 mm 0.10 in2.5 mm
06:22 PM 63.1°F17.3°C 57.6°F14.2°C 82% Calm Calm 1.7 mph2.7 kmh 30.20 in1022.7 mb 0.00 in0.0 mm 0.00 in0.0 mm 0.10 in2.5 mm
06:23 PM 63.1°F17.3°C 57.6°F14.2°C 82% Calm Calm 1.7 mph2.7 kmh 30.20 in1022.7 mb 0.00 in0.0 mm 0.00 in0.0 mm 0.10 in2.5 mm
06:24 PM 63.1°F17.3°C 57.6°F14.2°C 82% Calm Calm 1.7 mph2.7 kmh 30.20 in1022.7 mb 0.00 in0.0 mm 0.00 in0.0 mm 0.10 in2.5 mm
06:25 PM 63.1°F17.3°C 57.6°F14.2°C 82% Calm Calm 1.7 mph2.7 kmh 30.20 in1022.7 mb 0.00 in0.0 mm 0.00 in0.0 mm 0.10 in2.5 mm
06:26 PM 63.0°F17.2°C 57.4°F14.1°C 82% Calm Calm 1.7 mph2.7 kmh 30.20 in1022.7 mb 0.00 in0.0 mm 0.00 in0.0 mm 0.10 in2.5 mm
06:27 PM 63.0°F17.2°C 57.4°F14.1°C 82% Calm Calm 1.7 mph2.7 kmh 30.20 in1022.7 mb 0.00 in0.0 mm 0.00 in0.0 mm 0.10 in2.5 mm
06:28 PM 62.8°F17.1°C 57.2°F14.0°C 82% Calm Calm -- 30.20 in1022.7 mb 0.00 in0.0 mm 0.00 in0.0 mm 0.10 in2.5 mm
06:29 PM 62.8°F17.1°C 57.2°F14.0°C 82% Calm Calm -- 30.20 in1022.7 mb 0.00 in0.0 mm 0.00 in0.0 mm 0.10 in2.5 mm
06:30 PM 62.6°F17.0°C 57.0°F13.9°C 82% Calm Calm -- 30.20 in1022.7 mb 0.00 in0.0 mm 0.00 in0.0 mm 0.10 in2.5 mm
06:31 PM 62.6°F17.0°C 57.0°F13.9°C 82% Calm Calm -- 30.20 in1022.7 mb 0.00 in0.0 mm 0.00 in0.0 mm 0.10 in2.5 mm
06:32 PM 62.2°F16.8°C 57.0°F13.9°C 83% Calm Calm -- 30.20 in1022.7 mb 0.00 in0.0 mm 0.00 in0.0 mm 0.10 in2.5 mm
06:33 PM 62.2°F16.8°C 57.0°F13.9°C 83% Calm Calm -- 30.20 in1022.7 mb 0.00 in0.0 mm 0.00 in0.0 mm 0.10 in2.5 mm
06:34 PM 62.2°F16.8°C 56.7°F13.7°C 82% Calm Calm -- 30.20 in1022.7 mb 0.00 in0.0 mm 0.00 in0.0 mm 0.10 in2.5 mm
06:35 PM 62.1°F16.7°C 56.5°F13.6°C 82% Calm Calm -- 30.20 in1022.7 mb 0.00 in0.0 mm 0.00 in0.0 mm 0.10 in2.5 mm
06:36 PM 62.1°F16.7°C 56.5°F13.6°C 82% Calm Calm -- 30.20 in1022.7 mb 0.00 in0.0 mm 0.00 in0.0 mm 0.10 in2.5 mm
06:37 PM 61.9°F16.6°C 56.3°F13.5°C 82% Calm Calm -- 30.21 in1023.0 mb 0.00 in0.0 mm 0.00 in0.0 mm 0.10 in2.5 mm
06:38 PM 61.9°F16.6°C 56.3°F13.5°C 82% Calm Calm -- 30.21 in1023.0 mb 0.00 in0.0 mm 0.00 in0.0 mm 0.10 in2.5 mm
06:39 PM 61.7°F16.5°C 56.1°F13.4°C 82% Calm Calm -- 30.21 in1023.0 mb 0.00 in0.0 mm 0.00 in0.0 mm 0.10 in2.5 mm
06:40 PM 61.5°F16.4°C 56.0°F13.3°C 82% Calm Calm -- 30.21 in1023.0 mb 0.00 in0.0 mm 0.00 in0.0 mm 0.10 in2.5 mm
06:41 PM 61.5°F16.4°C 56.3°F13.5°C 83% Calm Calm -- 30.21 in1023.0 mb 0.00 in0.0 mm 0.00 in0.0 mm 0.10 in2.5 mm
06:42 PM 61.3°F16.3°C 56.1°F13.4°C 83% Calm Calm -- 30.21 in1023.0 mb 0.00 in0.0 mm 0.00 in0.0 mm 0.10 in2.5 mm
06:43 PM 61.3°F16.3°C 56.1°F13.4°C 83% Calm Calm -- 30.21 in1023.0 mb 0.00 in0.0 mm 0.00 in0.0 mm 0.10 in2.5 mm
06:44 PM 61.3°F16.3°C 56.5°F13.6°C 84% Calm Calm -- 30.21 in1023.0 mb 0.00 in0.0 mm 0.00 in0.0 mm 0.10 in2.5 mm
06:45 PM 61.2°F16.2°C 56.3°F13.5°C 84% Calm Calm -- 30.21 in1023.0 mb 0.00 in0.0 mm 0.00 in0.0 mm 0.10 in2.5 mm
06:46 PM 61.2°F16.2°C 56.6°F13.7°C 85% Calm Calm -- 30.21 in1023.0 mb 0.00 in0.0 mm 0.00 in0.0 mm 0.10 in2.5 mm
06:47 PM 61.0°F16.1°C 56.4°F13.6°C 85% Calm Calm -- 30.21 in1023.0 mb 0.00 in0.0 mm 0.00 in0.0 mm 0.10 in2.5 mm
06:48 PM 61.0°F16.1°C 56.8°F13.8°C 86% Calm Calm -- 30.21 in1023.0 mb 0.00 in0.0 mm 0.00 in0.0 mm 0.10 in2.5 mm
06:49 PM 60.8°F16.0°C 56.6°F13.7°C 86% Calm Calm -- 30.21 in1023.0 mb 0.00 in0.0 mm 0.00 in0.0 mm 0.10 in2.5 mm
06:50 PM 60.8°F16.0°C 56.6°F13.7°C 86% Calm Calm -- 30.21 in1023.0 mb 0.00 in0.0 mm 0.00 in0.0 mm 0.10 in2.5 mm
06:51 PM 60.8°F16.0°C 56.6°F13.7°C 86% Calm Calm -- 30.21 in1023.0 mb 0.00 in0.0 mm 0.00 in0.0 mm 0.10 in2.5 mm
06:52 PM 60.6°F15.9°C 56.4°F13.6°C 86% Calm Calm -- 30.21 in1023.0 mb 0.00 in0.0 mm 0.00 in0.0 mm 0.10 in2.5 mm
06:53 PM 60.6°F15.9°C 56.4°F13.6°C 86% Calm Calm -- 30.21 in1023.0 mb 0.00 in0.0 mm 0.00 in0.0 mm 0.10 in2.5 mm
06:54 PM 60.6°F15.9°C 56.4°F13.6°C 86% Calm Calm -- 30.21 in1023.0 mb 0.00 in0.0 mm 0.00 in0.0 mm 0.10 in2.5 mm
06:55 PM 60.4°F15.8°C 56.5°F13.6°C 87% Calm Calm -- 30.21 in1023.0 mb 0.00 in0.0 mm 0.00 in0.0 mm 0.10 in2.5 mm
06:56 PM 60.4°F15.8°C 56.5°F13.6°C 87% Calm Calm -- 30.21 in1023.0 mb 0.00 in0.0 mm 0.00 in0.0 mm 0.10 in2.5 mm
06:57 PM 60.4°F15.8°C 56.9°F13.8°C 88% Calm Calm -- 30.21 in1023.0 mb 0.00 in0.0 mm 0.00 in0.0 mm 0.10 in2.5 mm
06:58 PM 60.4°F15.8°C 56.9°F13.8°C 88% Calm Calm -- 30.21 in1023.0 mb 0.00 in0.0 mm 0.00 in0.0 mm 0.10 in2.5 mm
06:59 PM 60.3°F15.7°C 57.0°F13.9°C 89% Calm Calm -- 30.21 in1023.0 mb 0.00 in0.0 mm 0.00 in0.0 mm 0.10 in2.5 mm
07:00 PM 60.3°F15.7°C 57.0°F13.9°C 89% Calm Calm -- 30.21 in1023.0 mb 0.00 in0.0 mm 0.00 in0.0 mm 0.10 in2.5 mm
07:01 PM 60.3°F15.7°C 57.0°F13.9°C 89% Calm Calm -- 30.21 in1023.0 mb 0.00 in0.0 mm 0.00 in0.0 mm 0.10 in2.5 mm
07:02 PM 60.1°F15.6°C 56.8°F13.8°C 89% Calm Calm -- 30.20 in1022.7 mb 0.00 in0.0 mm 0.00 in0.0 mm 0.10 in2.5 mm
07:03 PM 60.1°F15.6°C 56.8°F13.8°C 89% Calm Calm -- 30.20 in1022.7 mb 0.00 in0.0 mm 0.00 in0.0 mm 0.10 in2.5 mm
07:04 PM 60.1°F15.6°C 57.1°F13.9°C 90% Calm Calm -- 30.20 in1022.7 mb 0.00 in0.0 mm 0.00 in0.0 mm 0.10 in2.5 mm
07:05 PM 60.1°F15.6°C 57.1°F13.9°C 90% Calm Calm -- 30.20 in1022.7 mb 0.00 in0.0 mm 0.00 in0.0 mm 0.10 in2.5 mm
07:06 PM 60.1°F15.6°C 57.1°F13.9°C 90% Calm Calm -- 30.20 in1022.7 mb 0.00 in0.0 mm 0.00 in0.0 mm 0.10 in2.5 mm
07:07 PM 59.9°F15.5°C 57.0°F13.9°C 90% Calm Calm -- 30.20 in1022.7 mb 0.00 in0.0 mm 0.00 in0.0 mm 0.10 in2.5 mm
07:08 PM 59.9°F15.5°C 56.6°F13.7°C 89% Calm Calm -- 30.20 in1022.7 mb 0.00 in0.0 mm 0.00 in0.0 mm 0.10 in2.5 mm
07:09 PM 59.7°F15.4°C 56.5°F13.6°C 89% Calm Calm -- 30.20 in1022.7 mb 0.00 in0.0 mm 0.00 in0.0 mm 0.10 in2.5 mm
07:10 PM 59.7°F15.4°C 56.8°F13.8°C 90% Calm Calm -- 30.20 in1022.7 mb 0.00 in0.0 mm 0.00 in0.0 mm 0.10 in2.5 mm
07:11 PM 59.7°F15.4°C 56.8°F13.8°C 90% Calm Calm -- 30.20 in1022.7 mb 0.00 in0.0 mm 0.00 in0.0 mm 0.10 in2.5 mm
07:12 PM 59.7°F15.4°C 57.1°F13.9°C 91% Calm Calm -- 30.20 in1022.7 mb 0.00 in0.0 mm 0.00 in0.0 mm 0.10 in2.5 mm
07:13 PM 59.7°F15.4°C 57.1°F13.9°C 91% Calm Calm -- 30.20 in1022.7 mb 0.00 in0.0 mm 0.00 in0.0 mm 0.10 in2.5 mm
07:14 PM 59.7°F15.4°C 57.1°F13.9°C 91% Calm Calm -- 30.20 in1022.7 mb 0.00 in0.0 mm 0.00 in0.0 mm 0.10 in2.5 mm
07:15 PM 59.5°F15.3°C 56.9°F13.8°C 91% Calm Calm -- 30.20 in1022.7 mb 0.00 in0.0 mm 0.00 in0.0 mm 0.10 in2.5 mm
07:16 PM 59.5°F15.3°C 56.9°F13.8°C 91% Calm Calm -- 30.20 in1022.7 mb 0.00 in0.0 mm 0.00 in0.0 mm 0.10 in2.5 mm
07:17 PM 59.5°F15.3°C 56.9°F13.8°C 91% Calm Calm -- 30.20 in1022.7 mb 0.00 in0.0 mm 0.00 in0.0 mm 0.10 in2.5 mm
07:18 PM 59.4°F15.2°C 56.7°F13.7°C 91% Calm Calm -- 30.20 in1022.7 mb 0.00 in0.0 mm 0.00 in0.0 mm 0.10 in2.5 mm
07:19 PM 59.4°F15.2°C 56.7°F13.7°C 91% Calm Calm -- 30.20 in1022.7 mb 0.00 in0.0 mm 0.00 in0.0 mm 0.10 in2.5 mm
07:20 PM 59.4°F15.2°C 56.7°F13.7°C 91% Calm Calm -- 30.20 in1022.7 mb 0.00 in0.0 mm 0.00 in0.0 mm 0.10 in2.5 mm
07:21 PM 59.4°F15.2°C 56.7°F13.7°C 91% Calm Calm -- 30.20 in1022.7 mb 0.00 in0.0 mm 0.00 in0.0 mm 0.10 in2.5 mm
07:22 PM 59.4°F15.2°C 57.0°F13.9°C 92% Calm Calm -- 30.20 in1022.7 mb 0.00 in0.0 mm 0.00 in0.0 mm 0.10 in2.5 mm
07:23 PM 59.4°F15.2°C 57.0°F13.9°C 92% Calm Calm -- 30.20 in1022.7 mb 0.00 in0.0 mm 0.00 in0.0 mm 0.10 in2.5 mm
07:24 PM 59.4°F15.2°C 57.0°F13.9°C 92% Calm Calm -- 30.20 in1022.7 mb 0.00 in0.0 mm 0.00 in0.0 mm 0.10 in2.5 mm
07:25 PM 59.4°F15.2°C 57.0°F13.9°C 92% Calm Calm -- 30.20 in1022.7 mb 0.00 in0.0 mm 0.00 in0.0 mm 0.10 in2.5 mm
07:26 PM 59.4°F15.2°C 57.0°F13.9°C 92% Calm Calm -- 30.20 in1022.7 mb 0.00 in0.0 mm 0.00 in0.0 mm 0.10 in2.5 mm
07:27 PM 59.4°F15.2°C 57.0°F13.9°C 92% Calm Calm -- 30.20 in1022.7 mb 0.00 in0.0 mm 0.00 in0.0 mm 0.10 in2.5 mm
07:28 PM 59.4°F15.2°C 57.0°F13.9°C 92% Calm Calm -- 30.20 in1022.7 mb 0.00 in0.0 mm 0.00 in0.0 mm 0.10 in2.5 mm
07:29 PM 59.4°F15.2°C 57.3°F14.1°C 93% Calm Calm -- 30.20 in1022.7 mb 0.00 in0.0 mm 0.00 in0.0 mm 0.10 in2.5 mm
07:30 PM 59.4°F15.2°C 57.3°F14.1°C 93% Calm Calm -- 30.20 in1022.7 mb 0.00 in0.0 mm 0.00 in0.0 mm 0.10 in2.5 mm
07:31 PM 59.4°F15.2°C 57.3°F14.1°C 93% Calm Calm -- 30.20 in1022.7 mb 0.00 in0.0 mm 0.00 in0.0 mm 0.10 in2.5 mm
07:32 PM 59.4°F15.2°C 57.3°F14.1°C 93% Calm Calm -- 30.20 in1022.7 mb 0.00 in0.0 mm 0.00 in0.0 mm 0.10 in2.5 mm
07:33 PM 59.2°F15.1°C 57.2°F14.0°C 93% Calm Calm -- 30.20 in1022.7 mb 0.00 in0.0 mm 0.00 in0.0 mm 0.10 in2.5 mm
07:34 PM 59.2°F15.1°C 57.2°F14.0°C 93% Calm Calm -- 30.20 in1022.7 mb 0.00 in0.0 mm 0.00 in0.0 mm 0.10 in2.5 mm
07:35 PM 59.2°F15.1°C 57.2°F14.0°C 93% Calm Calm -- 30.20 in1022.7 mb 0.00 in0.0 mm 0.00 in0.0 mm 0.10 in2.5 mm
07:36 PM 59.2°F15.1°C 57.2°F14.0°C 93% Calm Calm -- 30.20 in1022.7 mb 0.00 in0.0 mm 0.00 in0.0 mm 0.10 in2.5 mm
07:37 PM 59.2°F15.1°C 57.2°F14.0°C 93% Calm Calm -- 30.20 in1022.7 mb 0.00 in0.0 mm 0.00 in0.0 mm 0.10 in2.5 mm
07:38 PM 59.2°F15.1°C 57.5°F14.2°C 94% Calm Calm -- 30.20 in1022.7 mb 0.00 in0.0 mm 0.00 in0.0 mm 0.10 in2.5 mm
07:39 PM 59.2°F15.1°C 57.5°F14.2°C 94% Calm Calm -- 30.20 in1022.7 mb 0.00 in0.0 mm 0.00 in0.0 mm 0.10 in2.5 mm
07:40 PM 59.2°F15.1°C 57.5°F14.2°C 94% Calm Calm -- 30.20 in1022.7 mb 0.00 in0.0 mm 0.00 in0.0 mm 0.10 in2.5 mm
07:41 PM 59.2°F15.1°C 57.5°F14.2°C 94% Calm Calm -- 30.20 in1022.7 mb 0.00 in0.0 mm 0.00 in0.0 mm 0.10 in2.5 mm
07:42 PM 59.2°F15.1°C 57.5°F14.2°C 94% Calm Calm -- 30.20 in1022.7 mb 0.00 in0.0 mm 0.00 in0.0 mm 0.10 in2.5 mm
07:43 PM 59.2°F15.1°C 57.5°F14.2°C 94% Calm Calm -- 30.20 in1022.7 mb 0.00 in0.0 mm 0.00 in0.0 mm 0.10 in2.5 mm
07:44 PM 59.2°F15.1°C 57.5°F14.2°C 94% Calm Calm -- 30.20 in1022.7 mb 0.00 in0.0 mm 0.00 in0.0 mm 0.10 in2.5 mm
07:45 PM 59.2°F15.1°C 57.5°F14.2°C 94% Calm Calm -- 30.20 in1022.7 mb 0.00 in0.0 mm 0.00 in0.0 mm 0.10 in2.5 mm
07:46 PM 59.2°F15.1°C 57.7°F14.3°C 95% Calm Calm -- 30.20 in1022.7 mb 0.00 in0.0 mm 0.00 in0.0 mm 0.10 in2.5 mm
07:47 PM 59.2°F15.1°C 57.7°F14.3°C 95% Calm Calm -- 30.20 in1022.7 mb 0.00 in0.0 mm 0.00 in0.0 mm 0.10 in2.5 mm
07:48 PM 59.2°F15.1°C 57.7°F14.3°C 95% Calm Calm -- 30.20 in1022.7 mb 0.00 in0.0 mm 0.00 in0.0 mm 0.10 in2.5 mm
07:49 PM 59.2°F15.1°C 57.7°F14.3°C 95% Calm Calm -- 30.20 in1022.7 mb 0.00 in0.0 mm 0.00 in0.0 mm 0.10 in2.5 mm
07:50 PM 59.2°F15.1°C 57.7°F14.3°C 95% Calm Calm -- 30.20 in1022.7 mb 0.00 in0.0 mm 0.00 in0.0 mm 0.10 in2.5 mm
07:51 PM 59.2°F15.1°C 57.7°F14.3°C 95% Calm Calm -- 30.20 in1022.7 mb 0.00 in0.0 mm 0.00 in0.0 mm 0.10 in2.5 mm
07:52 PM 59.2°F15.1°C 57.7°F14.3°C 95% Calm Calm -- 30.20 in1022.7 mb 0.00 in0.0 mm 0.00 in0.0 mm 0.10 in2.5 mm
07:53 PM 59.0°F15.0°C 57.6°F14.2°C 95% Calm Calm -- 30.20 in1022.7 mb 0.00 in0.0 mm 0.00 in0.0 mm 0.10 in2.5 mm
07:54 PM 59.0°F15.0°C 57.6°F14.2°C 95% Calm Calm -- 30.20 in1022.7 mb 0.00 in0.0 mm 0.00 in0.0 mm 0.10 in2.5 mm
07:55 PM 59.0°F15.0°C 57.6°F14.2°C 95% Calm Calm -- 30.20 in1022.7 mb 0.00 in0.0 mm 0.00 in0.0 mm 0.10 in2.5 mm
07:56 PM 59.0°F15.0°C 57.6°F14.2°C 95% Calm Calm -- 30.20 in1022.7 mb 0.00 in0.0 mm 0.00 in0.0 mm 0.10 in2.5 mm
07:57 PM 58.8°F14.9°C 57.4°F14.1°C 95% Calm Calm -- 30.20 in1022.7 mb 0.00 in0.0 mm 0.00 in0.0 mm 0.10 in2.5 mm
07:58 PM 58.8°F14.9°C 57.4°F14.1°C 95% Calm Calm -- 30.20 in1022.7 mb 0.00 in0.0 mm 0.00 in0.0 mm 0.10 in2.5 mm
07:59 PM 58.8°F14.9°C 57.4°F14.1°C 95% Calm Calm -- 30.20 in1022.7 mb 0.00 in0.0 mm 0.00 in0.0 mm 0.10 in2.5 mm
08:00 PM 58.6°F14.8°C 57.2°F14.0°C 95% Calm Calm -- 30.20 in1022.7 mb 0.00 in0.0 mm 0.00 in0.0 mm 0.10 in2.5 mm
08:01 PM 58.6°F14.8°C 57.2°F14.0°C 95% Calm Calm -- 30.20 in1022.7 mb 0.00 in0.0 mm 0.00 in0.0 mm 0.10 in2.5 mm
08:02 PM 58.6°F14.8°C 57.2°F14.0°C 95% Calm Calm -- 30.21 in1023.0 mb 0.00 in0.0 mm 0.00 in0.0 mm 0.10 in2.5 mm
08:03 PM 58.6°F14.8°C 57.2°F14.0°C 95% Calm Calm -- 30.21 in1023.0 mb 0.00 in0.0 mm 0.00 in0.0 mm 0.10 in2.5 mm
08:04 PM 58.6°F14.8°C 57.2°F14.0°C 95% Calm Calm -- 30.21 in1023.0 mb 0.00 in0.0 mm 0.00 in0.0 mm 0.10 in2.5 mm
08:05 PM 58.6°F14.8°C 57.2°F14.0°C 95% Calm Calm -- 30.21 in1023.0 mb 0.00 in0.0 mm 0.00 in0.0 mm 0.10 in2.5 mm
08:06 PM 58.6°F14.8°C 57.2°F14.0°C 95% Calm Calm -- 30.21 in1023.0 mb 0.00 in0.0 mm 0.00 in0.0 mm 0.10 in2.5 mm
08:07 PM 58.5°F14.7°C 57.0°F13.9°C 95% Calm Calm -- 30.21 in1023.0 mb 0.00 in0.0 mm 0.00 in0.0 mm 0.10 in2.5 mm
08:08 PM 58.5°F14.7°C 57.0°F13.9°C 95% Calm Calm -- 30.21 in1023.0 mb 0.00 in0.0 mm 0.00 in0.0 mm 0.10 in2.5 mm
08:09 PM 58.3°F14.6°C 56.9°F13.8°C 95% Calm Calm -- 30.21 in1023.0 mb 0.00 in0.0 mm 0.00 in0.0 mm 0.10 in2.5 mm
08:10 PM 58.3°F14.6°C 56.6°F13.7°C 94% Calm Calm -- 30.21 in1023.0 mb 0.00 in0.0 mm 0.00 in0.0 mm 0.10 in2.5 mm
08:11 PM 58.1°F14.5°C 56.4°F13.6°C 94% Calm Calm -- 30.21 in1023.0 mb 0.00 in0.0 mm 0.00 in0.0 mm 0.10 in2.5 mm
08:12 PM 58.1°F14.5°C 56.4°F13.6°C 94% Calm Calm -- 30.21 in1023.0 mb 0.00 in0.0 mm 0.00 in0.0 mm 0.10 in2.5 mm
08:13 PM 58.1°F14.5°C 56.4°F13.6°C 94% Calm Calm -- 30.21 in1023.0 mb 0.00 in0.0 mm 0.00 in0.0 mm 0.10 in2.5 mm
08:14 PM 58.1°F14.5°C 56.4°F13.6°C 94% Calm Calm -- 30.21 in1023.0 mb 0.00 in0.0 mm 0.00 in0.0 mm 0.10 in2.5 mm
0